﻿<?xml version="1.0" encoding="utf-8"?><gpx creator="Garmin Desktop App" version="1.1" xsi:schemaLocation="http://www.topografix.com/GPX/1/1 http://www.topografix.com/GPX/1/1/gpx.xsd http://www.garmin.com/xmlschemas/WaypointExtension/v1 http://www8.garmin.com/xmlschemas/WaypointExtensionv1.xsd http://www.garmin.com/xmlschemas/TrackPointExtension/v1 http://www.garmin.com/xmlschemas/TrackPointExtensionv1.xsd http://www.garmin.com/xmlschemas/GpxExtensions/v3 http://www8.garmin.com/xmlschemas/GpxExtensionsv3.xsd http://www.garmin.com/xmlschemas/ActivityExtension/v1 http://www8.garmin.com/xmlschemas/ActivityExtensionv1.xsd http://www.garmin.com/xmlschemas/AdventuresExtensions/v1 http://www8.garmin.com/xmlschemas/AdventuresExtensionv1.xsd http://www.garmin.com/xmlschemas/PressureExtension/v1 http://www.garmin.com/xmlschemas/PressureExtensionv1.xsd http://www.garmin.com/xmlschemas/TripExtensions/v1 http://www.garmin.com/xmlschemas/TripExtensionsv1.xsd http://www.garmin.com/xmlschemas/TripMetaDataExtensions/v1 http://www.garmin.com/xmlschemas/TripMetaDataExtensionsv1.xsd http://www.garmin.com/xmlschemas/ViaPointTransportationModeExtensions/v1 http://www.garmin.com/xmlschemas/ViaPointTransportationModeExtensionsv1.xsd http://www.garmin.com/xmlschemas/CreationTimeExtension/v1 http://www.garmin.com/xmlschemas/CreationTimeExtensionsv1.xsd http://www.garmin.com/xmlschemas/AccelerationExtension/v1 http://www.garmin.com/xmlschemas/AccelerationExtensionv1.xsd http://www.garmin.com/xmlschemas/PowerExtension/v1 http://www.garmin.com/xmlschemas/PowerExtensionv1.xsd http://www.garmin.com/xmlschemas/VideoExtension/v1 http://www.garmin.com/xmlschemas/VideoExtensionv1.xsd" xmlns="http://www.topografix.com/GPX/1/1" xmlns:xsi="http://www.w3.org/2001/XMLSchema-instance" xmlns:wptx1="http://www.garmin.com/xmlschemas/WaypointExtension/v1" xmlns:gpxtrx="http://www.garmin.com/xmlschemas/GpxExtensions/v3" xmlns:gpxtpx="http://www.garmin.com/xmlschemas/TrackPointExtension/v1" xmlns:gpxx="http://www.garmin.com/xmlschemas/GpxExtensions/v3" xmlns:trp="http://www.garmin.com/xmlschemas/TripExtensions/v1" xmlns:adv="http://www.garmin.com/xmlschemas/AdventuresExtensions/v1" xmlns:prs="http://www.garmin.com/xmlschemas/PressureExtension/v1" xmlns:tmd="http://www.garmin.com/xmlschemas/TripMetaDataExtensions/v1" xmlns:vptm="http://www.garmin.com/xmlschemas/ViaPointTransportationModeExtensions/v1" xmlns:ctx="http://www.garmin.com/xmlschemas/CreationTimeExtension/v1" xmlns:gpxacc="http://www.garmin.com/xmlschemas/AccelerationExtension/v1" xmlns:gpxpx="http://www.garmin.com/xmlschemas/PowerExtension/v1" xmlns:vidx1="http://www.garmin.com/xmlschemas/VideoExtension/v1">

  <metadata>
    <link href="http://www.garmin.com">
      <text>Garmin International</text>
    </link>
    <time>2020-08-02T15:29:19Z</time>
    <bounds maxlat="46.166234286502004" maxlon="8.194729490205646" minlat="46.151014259085059" minlon="8.151549864560366" />
  </metadata>

  <trk>
    <name>passo monscera2020-08-02</name>
    <extensions>
      <gpxx:TrackExtension>
        <gpxx:DisplayColor>Yellow</gpxx:DisplayColor>
      </gpxx:TrackExtension>
      <gpxtrkx:TrackStatsExtension xmlns:gpxtrkx="http://www.garmin.com/xmlschemas/TrackStatsExtension/v1">
        <gpxtrkx:Distance>10501</gpxtrkx:Distance>
        <gpxtrkx:TotalElapsedTime>17045</gpxtrkx:TotalElapsedTime>
        <gpxtrkx:MovingTime>11074</gpxtrkx:MovingTime>
        <gpxtrkx:StoppedTime>5834</gpxtrkx:StoppedTime>
        <gpxtrkx:MovingSpeed>1</gpxtrkx:MovingSpeed>
        <gpxtrkx:MaxSpeed>5</gpxtrkx:MaxSpeed>
        <gpxtrkx:MaxElevation>2103</gpxtrkx:MaxElevation>
        <gpxtrkx:MinElevation>1614</gpxtrkx:MinElevation>
        <gpxtrkx:Ascent>543</gpxtrkx:Ascent>
        <gpxtrkx:Descent>511</gpxtrkx:Descent>
        <gpxtrkx:AvgAscentRate>0</gpxtrkx:AvgAscentRate>
        <gpxtrkx:MaxAscentRate>0</gpxtrkx:MaxAscentRate>
        <gpxtrkx:AvgDescentRate>0</gpxtrkx:AvgDescentRate>
        <gpxtrkx:MaxDescentRate>-0</gpxtrkx:MaxDescentRate>
      </gpxtrkx:TrackStatsExtension>
    </extensions>
    <trkseg>
      <trkpt lat="46.151016522198915" lon="8.193534649908543">
        <ele>1630.27</ele>
        <time>2020-08-02T06:43:04Z</time>
      </trkpt>
      <trkpt lat="46.151014259085059" lon="8.193532135337591">
        <ele>1628.27</ele>
        <time>2020-08-02T06:43:09Z</time>
      </trkpt>
      <trkpt lat="46.151067316532135" lon="8.19353205151856">
        <ele>1629.0599999999999</ele>
        <time>2020-08-02T06:43:21Z</time>
      </trkpt>
      <trkpt lat="46.151059605181217" lon="8.193530207499862">
        <ele>1629.1500000000001</ele>
        <time>2020-08-02T06:43:36Z</time>
      </trkpt>
      <trkpt lat="46.15108760073781" lon="8.193489219993353">
        <ele>1628.98</ele>
        <time>2020-08-02T06:43:48Z</time>
      </trkpt>
      <trkpt lat="46.151117524132133" lon="8.193458542227745">
        <ele>1628.8199999999999</ele>
        <time>2020-08-02T06:43:59Z</time>
      </trkpt>
      <trkpt lat="46.15113009698689" lon="8.193456698209047">
        <ele>1628.9200000000001</ele>
        <time>2020-08-02T06:44:01Z</time>
      </trkpt>
      <trkpt lat="46.151210982352495" lon="8.193390984088182">
        <ele>1628.52</ele>
        <time>2020-08-02T06:44:10Z</time>
      </trkpt>
      <trkpt lat="46.15123562514782" lon="8.193378997966647">
        <ele>1628.3499999999999</ele>
        <time>2020-08-02T06:44:13Z</time>
      </trkpt>
      <trkpt lat="46.151302931830287" lon="8.193303141742945">
        <ele>1628.1900000000001</ele>
        <time>2020-08-02T06:44:21Z</time>
      </trkpt>
      <trkpt lat="46.151318019255996" lon="8.193240528926253">
        <ele>1628.26</ele>
        <time>2020-08-02T06:44:26Z</time>
      </trkpt>
      <trkpt lat="46.151293711736798" lon="8.193159140646458">
        <ele>1628.0599999999999</ele>
        <time>2020-08-02T06:44:32Z</time>
      </trkpt>
      <trkpt lat="46.151285832747817" lon="8.193044224753976">
        <ele>1628.1500000000001</ele>
        <time>2020-08-02T06:44:39Z</time>
      </trkpt>
      <trkpt lat="46.151278791949153" lon="8.192866109311581">
        <ele>1627.6600000000001</ele>
        <time>2020-08-02T06:44:50Z</time>
      </trkpt>
      <trkpt lat="46.151279881596565" lon="8.192714648321271">
        <ele>1627.6500000000001</ele>
        <time>2020-08-02T06:45:00Z</time>
      </trkpt>
      <trkpt lat="46.151278289034963" lon="8.192548519000411">
        <ele>1627.8399999999999</ele>
        <time>2020-08-02T06:45:12Z</time>
      </trkpt>
      <trkpt lat="46.151278875768185" lon="8.192243166267872">
        <ele>1628.4100000000001</ele>
        <time>2020-08-02T06:45:29Z</time>
      </trkpt>
      <trkpt lat="46.151258423924446" lon="8.19206764921546">
        <ele>1628.25</ele>
        <time>2020-08-02T06:45:43Z</time>
      </trkpt>
      <trkpt lat="46.151229171082377" lon="8.191792890429497">
        <ele>1628.8099999999999</ele>
        <time>2020-08-02T06:46:00Z</time>
      </trkpt>
      <trkpt lat="46.151192374527454" lon="8.191520227119327">
        <ele>1627.9400000000001</ele>
        <time>2020-08-02T06:46:16Z</time>
      </trkpt>
      <trkpt lat="46.151176784187555" lon="8.191280588507652">
        <ele>1627.6199999999999</ele>
        <time>2020-08-02T06:46:31Z</time>
      </trkpt>
      <trkpt lat="46.151186088100076" lon="8.190893093124032">
        <ele>1627.21</ele>
        <time>2020-08-02T06:46:46Z</time>
      </trkpt>
      <trkpt lat="46.151188015937805" lon="8.190852105617523">
        <ele>1627.3399999999999</ele>
        <time>2020-08-02T06:46:48Z</time>
      </trkpt>
      <trkpt lat="46.15120243281126" lon="8.190791001543403">
        <ele>1627.2</ele>
        <time>2020-08-02T06:46:52Z</time>
      </trkpt>
      <trkpt lat="46.151223890483379" lon="8.190613389015198">
        <ele>1627.1800000000001</ele>
        <time>2020-08-02T06:47:01Z</time>
      </trkpt>
      <trkpt lat="46.151257334277034" lon="8.190498556941748">
        <ele>1627.26</ele>
        <time>2020-08-02T06:47:08Z</time>
      </trkpt>
      <trkpt lat="46.151278037577868" lon="8.190425969660282">
        <ele>1627.54</ele>
        <time>2020-08-02T06:47:13Z</time>
      </trkpt>
      <trkpt lat="46.151285162195563" lon="8.190380372107029">
        <ele>1627.51</ele>
        <time>2020-08-02T06:47:16Z</time>
      </trkpt>
      <trkpt lat="46.151337800547481" lon="8.190172081813216">
        <ele>1627.6099999999999</ele>
        <time>2020-08-02T06:47:29Z</time>
      </trkpt>
      <trkpt lat="46.15136026404798" lon="8.189987260848284">
        <ele>1627.3</ele>
        <time>2020-08-02T06:47:42Z</time>
      </trkpt>
      <trkpt lat="46.151403430849314" lon="8.189833117648959">
        <ele>1626.9000000000001</ele>
        <time>2020-08-02T06:47:51Z</time>
      </trkpt>
      <trkpt lat="46.151415416970849" lon="8.189701270312071">
        <ele>1627.1700000000001</ele>
        <time>2020-08-02T06:47:58Z</time>
      </trkpt>
      <trkpt lat="46.151449782773852" lon="8.189619965851307">
        <ele>1627.4100000000001</ele>
        <time>2020-08-02T06:48:04Z</time>
      </trkpt>
      <trkpt lat="46.151528069749475" lon="8.189488286152482">
        <ele>1627.73</ele>
        <time>2020-08-02T06:48:14Z</time>
      </trkpt>
      <trkpt lat="46.151555730029941" lon="8.189444029703736">
        <ele>1627.6900000000001</ele>
        <time>2020-08-02T06:48:18Z</time>
      </trkpt>
      <trkpt lat="46.151621444150805" lon="8.189317211508751">
        <ele>1627.29</ele>
        <time>2020-08-02T06:48:28Z</time>
      </trkpt>
      <trkpt lat="46.151650445535779" lon="8.189268093556166">
        <ele>1627.25</ele>
        <time>2020-08-02T06:48:32Z</time>
      </trkpt>
      <trkpt lat="46.1517115496099" lon="8.189050750806928">
        <ele>1627.5699999999999</ele>
        <time>2020-08-02T06:48:45Z</time>
      </trkpt>
      <trkpt lat="46.15175605751574" lon="8.188913287594914">
        <ele>1628.1500000000001</ele>
        <time>2020-08-02T06:48:57Z</time>
      </trkpt>
      <trkpt lat="46.151786064729095" lon="8.188800550997257">
        <ele>1628.9000000000001</ele>
        <time>2020-08-02T06:49:07Z</time>
      </trkpt>
      <trkpt lat="46.151854880154133" lon="8.188626123592258">
        <ele>1630.0899999999999</ele>
        <time>2020-08-02T06:49:24Z</time>
      </trkpt>
      <trkpt lat="46.151919504627585" lon="8.188500143587589">
        <ele>1630.4200000000001</ele>
        <time>2020-08-02T06:49:35Z</time>
      </trkpt>
      <trkpt lat="46.151968957856297" lon="8.188328230753541">
        <ele>1631.0599999999999</ele>
        <time>2020-08-02T06:49:47Z</time>
      </trkpt>
      <trkpt lat="46.152007011696696" lon="8.188204681500793">
        <ele>1631.28</ele>
        <time>2020-08-02T06:49:58Z</time>
      </trkpt>
      <trkpt lat="46.152002736926079" lon="8.188024051487446">
        <ele>1632.3599999999999</ele>
        <time>2020-08-02T06:50:14Z</time>
      </trkpt>
      <trkpt lat="46.152079682797194" lon="8.187848785892129">
        <ele>1633.5</ele>
        <time>2020-08-02T06:50:29Z</time>
      </trkpt>
      <trkpt lat="46.152114802971482" lon="8.187778545543551">
        <ele>1633.73</ele>
        <time>2020-08-02T06:50:35Z</time>
      </trkpt>
      <trkpt lat="46.152156377211213" lon="8.187709059566259">
        <ele>1634.0899999999999</ele>
        <time>2020-08-02T06:50:40Z</time>
      </trkpt>
      <trkpt lat="46.152177499607205" lon="8.187570506706834">
        <ele>1634.02</ele>
        <time>2020-08-02T06:50:48Z</time>
      </trkpt>
      <trkpt lat="46.152215050533414" lon="8.187377722933888">
        <ele>1633.51</ele>
        <time>2020-08-02T06:51:01Z</time>
      </trkpt>
      <trkpt lat="46.152209183201194" lon="8.187250318005681">
        <ele>1633.3499999999999</ele>
        <time>2020-08-02T06:51:11Z</time>
      </trkpt>
      <trkpt lat="46.152213290333748" lon="8.187061054632068">
        <ele>1633.3900000000001</ele>
        <time>2020-08-02T06:51:24Z</time>
      </trkpt>
      <trkpt lat="46.152275567874312" lon="8.186892829835415">
        <ele>1633.6900000000001</ele>
        <time>2020-08-02T06:51:38Z</time>
      </trkpt>
      <trkpt lat="46.152285458520055" lon="8.186880927532911">
        <ele>1633.6600000000001</ele>
        <time>2020-08-02T06:51:39Z</time>
      </trkpt>
      <trkpt lat="46.152337426319718" lon="8.186779757961631">
        <ele>1633.7</ele>
        <time>2020-08-02T06:51:46Z</time>
      </trkpt>
      <trkpt lat="46.152397943660617" lon="8.186604660004377">
        <ele>1634.5799999999999</ele>
        <time>2020-08-02T06:52:00Z</time>
      </trkpt>
      <trkpt lat="46.152450665831566" lon="8.186482200399041">
        <ele>1635.9100000000001</ele>
        <time>2020-08-02T06:52:12Z</time>
      </trkpt>
      <trkpt lat="46.152498107403517" lon="8.186368374153972">
        <ele>1637.51</ele>
        <time>2020-08-02T06:52:24Z</time>
      </trkpt>
      <trkpt lat="46.152589721605182" lon="8.186277514323592">
        <ele>1638.5699999999999</ele>
        <time>2020-08-02T06:52:37Z</time>
      </trkpt>
      <trkpt lat="46.152647137641907" lon="8.18621926009655">
        <ele>1639.23</ele>
        <time>2020-08-02T06:52:45Z</time>
      </trkpt>
      <trkpt lat="46.152696926146746" lon="8.186196126043797">
        <ele>1640.04</ele>
        <time>2020-08-02T06:52:52Z</time>
      </trkpt>
      <trkpt lat="46.152744702994823" lon="8.186102667823434">
        <ele>1640.7</ele>
        <time>2020-08-02T06:53:01Z</time>
      </trkpt>
      <trkpt lat="46.152768759056926" lon="8.186021195724607">
        <ele>1640.6800000000001</ele>
        <time>2020-08-02T06:53:08Z</time>
      </trkpt>
      <trkpt lat="46.152775967493653" lon="8.18585716187954">
        <ele>1640.3900000000001</ele>
        <time>2020-08-02T06:53:19Z</time>
      </trkpt>
      <trkpt lat="46.152787366881967" lon="8.185741659253836">
        <ele>1640.1400000000001</ele>
        <time>2020-08-02T06:53:30Z</time>
      </trkpt>
      <trkpt lat="46.152804214507341" lon="8.185620540753007">
        <ele>1641.25</ele>
        <time>2020-08-02T06:53:40Z</time>
      </trkpt>
      <trkpt lat="46.152841430157423" lon="8.185456590726972">
        <ele>1642.04</ele>
        <time>2020-08-02T06:53:51Z</time>
      </trkpt>
      <trkpt lat="46.15288183093071" lon="8.185350392013788">
        <ele>1641.9200000000001</ele>
        <time>2020-08-02T06:53:58Z</time>
      </trkpt>
      <trkpt lat="46.152942851185799" lon="8.185201361775398">
        <ele>1643.6400000000001</ele>
        <time>2020-08-02T06:54:11Z</time>
      </trkpt>
      <trkpt lat="46.153000686317682" lon="8.185205217450857">
        <ele>1643.73</ele>
        <time>2020-08-02T06:54:25Z</time>
      </trkpt>
      <trkpt lat="46.153061538934708" lon="8.185160206630826">
        <ele>1643.3699999999999</ele>
        <time>2020-08-02T06:54:40Z</time>
      </trkpt>
      <trkpt lat="46.153066232800484" lon="8.185152746737003">
        <ele>1643.24</ele>
        <time>2020-08-02T06:54:56Z</time>
      </trkpt>
      <trkpt lat="46.153084421530366" lon="8.184999357908964">
        <ele>1643.6900000000001</ele>
        <time>2020-08-02T06:55:13Z</time>
      </trkpt>
      <trkpt lat="46.153146615251899" lon="8.18484915420413">
        <ele>1644.0799999999999</ele>
        <time>2020-08-02T06:55:26Z</time>
      </trkpt>
      <trkpt lat="46.153259519487619" lon="8.184676570817828">
        <ele>1644.4400000000001</ele>
        <time>2020-08-02T06:55:40Z</time>
      </trkpt>
      <trkpt lat="46.153350798413157" lon="8.184548998251557">
        <ele>1645.3</ele>
        <time>2020-08-02T06:55:51Z</time>
      </trkpt>
      <trkpt lat="46.153415255248547" lon="8.184444643557072">
        <ele>1645.6300000000001</ele>
        <time>2020-08-02T06:56:01Z</time>
      </trkpt>
      <trkpt lat="46.153437048196793" lon="8.184395860880613">
        <ele>1646.02</ele>
        <time>2020-08-02T06:56:05Z</time>
      </trkpt>
      <trkpt lat="46.153482226654887" lon="8.184308018535376">
        <ele>1646.22</ele>
        <time>2020-08-02T06:56:14Z</time>
      </trkpt>
      <trkpt lat="46.153541151434183" lon="8.184137027710676">
        <ele>1646.1300000000001</ele>
        <time>2020-08-02T06:56:28Z</time>
      </trkpt>
      <trkpt lat="46.153576858341694" lon="8.183963773772121">
        <ele>1645.9000000000001</ele>
        <time>2020-08-02T06:56:40Z</time>
      </trkpt>
      <trkpt lat="46.153586329892278" lon="8.183763362467289">
        <ele>1645.8099999999999</ele>
        <time>2020-08-02T06:56:56Z</time>
      </trkpt>
      <trkpt lat="46.153535284101963" lon="8.183505870401859">
        <ele>1646.03</ele>
        <time>2020-08-02T06:57:10Z</time>
      </trkpt>
      <trkpt lat="46.153545677661896" lon="8.183314679190517">
        <ele>1647.4300000000001</ele>
        <time>2020-08-02T06:57:27Z</time>
      </trkpt>
      <trkpt lat="46.153564620763063" lon="8.183192471042275">
        <ele>1648.77</ele>
        <time>2020-08-02T06:57:43Z</time>
      </trkpt>
      <trkpt lat="46.153539307415485" lon="8.183037741109729">
        <ele>1648.5899999999999</ele>
        <time>2020-08-02T06:57:57Z</time>
      </trkpt>
      <trkpt lat="46.153541319072247" lon="8.182831881567836">
        <ele>1649.8299999999999</ele>
        <time>2020-08-02T06:58:12Z</time>
      </trkpt>
      <trkpt lat="46.15359228104353" lon="8.18271579220891">
        <ele>1651.3499999999999</ele>
        <time>2020-08-02T06:58:28Z</time>
      </trkpt>
      <trkpt lat="46.153693785890937" lon="8.182612610980868">
        <ele>1653.0999999999999</ele>
        <time>2020-08-02T06:58:44Z</time>
      </trkpt>
      <trkpt lat="46.153741562739015" lon="8.182503478601575">
        <ele>1654.1300000000001</ele>
        <time>2020-08-02T06:59:00Z</time>
      </trkpt>
      <trkpt lat="46.153732007369399" lon="8.182386802509427">
        <ele>1655.0799999999999</ele>
        <time>2020-08-02T06:59:15Z</time>
      </trkpt>
      <trkpt lat="46.153744915500283" lon="8.18219443783164">
        <ele>1655.6900000000001</ele>
        <time>2020-08-02T06:59:31Z</time>
      </trkpt>
      <trkpt lat="46.153740976005793" lon="8.182044569402933">
        <ele>1656.24</ele>
        <time>2020-08-02T06:59:43Z</time>
      </trkpt>
      <trkpt lat="46.153758661821485" lon="8.181867292150855">
        <ele>1657.3199999999999</ele>
        <time>2020-08-02T06:59:59Z</time>
      </trkpt>
      <trkpt lat="46.153752543032169" lon="8.181695463135839">
        <ele>1658.8399999999999</ele>
        <time>2020-08-02T07:00:14Z</time>
      </trkpt>
      <trkpt lat="46.153754889965057" lon="8.181497063487768">
        <ele>1659.9400000000001</ele>
        <time>2020-08-02T07:00:30Z</time>
      </trkpt>
      <trkpt lat="46.153831165283918" lon="8.181370915845037">
        <ele>1661.3199999999999</ele>
        <time>2020-08-02T07:00:47Z</time>
      </trkpt>
      <trkpt lat="46.15384834818542" lon="8.181149382144213">
        <ele>1663.02</ele>
        <time>2020-08-02T07:01:04Z</time>
      </trkpt>
      <trkpt lat="46.153877768665552" lon="8.180988784879446">
        <ele>1664.1099999999999</ele>
        <time>2020-08-02T07:01:16Z</time>
      </trkpt>
      <trkpt lat="46.15387475118041" lon="8.180891470983625">
        <ele>1665.1800000000001</ele>
        <time>2020-08-02T07:01:29Z</time>
      </trkpt>
      <trkpt lat="46.153886569663882" lon="8.180840760469437">
        <ele>1665.55</ele>
        <time>2020-08-02T07:01:33Z</time>
      </trkpt>
      <trkpt lat="46.15387475118041" lon="8.180791642516851">
        <ele>1665.74</ele>
        <time>2020-08-02T07:01:47Z</time>
      </trkpt>
      <trkpt lat="46.153876259922981" lon="8.180759875103831">
        <ele>1665.51</ele>
        <time>2020-08-02T07:02:04Z</time>
      </trkpt>
      <trkpt lat="46.153875254094601" lon="8.180770352482796">
        <ele>1665.3</ele>
        <time>2020-08-02T07:02:24Z</time>
      </trkpt>
      <trkpt lat="46.153938872739673" lon="8.180626267567277">
        <ele>1667.3699999999999</ele>
        <time>2020-08-02T07:02:41Z</time>
      </trkpt>
      <trkpt lat="46.154014142230153" lon="8.180485367774963">
        <ele>1669.5</ele>
        <time>2020-08-02T07:02:57Z</time>
      </trkpt>
      <trkpt lat="46.154068959876895" lon="8.180323261767626">
        <ele>1671.2</ele>
        <time>2020-08-02T07:03:12Z</time>
      </trkpt>
      <trkpt lat="46.154050184413791" lon="8.180252686142921">
        <ele>1672.28</ele>
        <time>2020-08-02T07:03:24Z</time>
      </trkpt>
      <trkpt lat="46.154110031202435" lon="8.180036516860127">
        <ele>1674.23</ele>
        <time>2020-08-02T07:03:43Z</time>
      </trkpt>
      <trkpt lat="46.154177086427808" lon="8.179890671744943">
        <ele>1676.4300000000001</ele>
        <time>2020-08-02T07:03:58Z</time>
      </trkpt>
      <trkpt lat="46.154213044792414" lon="8.179759662598372">
        <ele>1678.4300000000001</ele>
        <time>2020-08-02T07:04:14Z</time>
      </trkpt>
      <trkpt lat="46.154277501627803" lon="8.179666455835104">
        <ele>1680.25</ele>
        <time>2020-08-02T07:04:29Z</time>
      </trkpt>
      <trkpt lat="46.154299462214112" lon="8.179608955979347">
        <ele>1681.79</ele>
        <time>2020-08-02T07:04:42Z</time>
      </trkpt>
      <trkpt lat="46.154280016198754" lon="8.179519269615412">
        <ele>1683.04</ele>
        <time>2020-08-02T07:04:54Z</time>
      </trkpt>
      <trkpt lat="46.154279261827469" lon="8.179452298209071">
        <ele>1685.1300000000001</ele>
        <time>2020-08-02T07:05:10Z</time>
      </trkpt>
      <trkpt lat="46.154291667044163" lon="8.179312068969011">
        <ele>1686.23</ele>
        <time>2020-08-02T07:05:21Z</time>
      </trkpt>
      <trkpt lat="46.154337683692575" lon="8.179167816415429">
        <ele>1688.5699999999999</ele>
        <time>2020-08-02T07:05:38Z</time>
      </trkpt>
      <trkpt lat="46.154364757239819" lon="8.179070083424449">
        <ele>1690.77</ele>
        <time>2020-08-02T07:05:53Z</time>
      </trkpt>
      <trkpt lat="46.154349334537983" lon="8.17895776592195">
        <ele>1693.5</ele>
        <time>2020-08-02T07:06:11Z</time>
      </trkpt>
      <trkpt lat="46.154349753633142" lon="8.17883656360209">
        <ele>1696.1199999999999</ele>
        <time>2020-08-02T07:06:27Z</time>
      </trkpt>
      <trkpt lat="46.154375486075878" lon="8.178797084838152">
        <ele>1697.8900000000001</ele>
        <time>2020-08-02T07:06:38Z</time>
      </trkpt>
      <trkpt lat="46.15442980080843" lon="8.178780907765031">
        <ele>1698.1400000000001</ele>
        <time>2020-08-02T07:06:54Z</time>
      </trkpt>
      <trkpt lat="46.154473470523953" lon="8.17869926802814">
        <ele>1700.21</ele>
        <time>2020-08-02T07:07:08Z</time>
      </trkpt>
      <trkpt lat="46.154552763327956" lon="8.178635397925973">
        <ele>1701.3599999999999</ele>
        <time>2020-08-02T07:07:23Z</time>
      </trkpt>
      <trkpt lat="46.154608000069857" lon="8.178588543087244">
        <ele>1703.8900000000001</ele>
        <time>2020-08-02T07:07:39Z</time>
      </trkpt>
      <trkpt lat="46.154680922627449" lon="8.178495587781072">
        <ele>1704.8099999999999</ele>
        <time>2020-08-02T07:07:54Z</time>
      </trkpt>
      <trkpt lat="46.154723837971687" lon="8.178384276106954">
        <ele>1706.27</ele>
        <time>2020-08-02T07:08:07Z</time>
      </trkpt>
      <trkpt lat="46.154798017814755" lon="8.178296601399779">
        <ele>1706.8699999999999</ele>
        <time>2020-08-02T07:08:19Z</time>
      </trkpt>
      <trkpt lat="46.154824756085873" lon="8.178192917257547">
        <ele>1707.7</ele>
        <time>2020-08-02T07:08:30Z</time>
      </trkpt>
      <trkpt lat="46.154828947037458" lon="8.178184786811471">
        <ele>1707.8</ele>
        <time>2020-08-02T07:08:31Z</time>
      </trkpt>
      <trkpt lat="46.15487203001976" lon="8.178072469308972">
        <ele>1708.8099999999999</ele>
        <time>2020-08-02T07:08:44Z</time>
      </trkpt>
      <trkpt lat="46.154853506013751" lon="8.178009856492281">
        <ele>1709.6300000000001</ele>
        <time>2020-08-02T07:08:53Z</time>
      </trkpt>
      <trkpt lat="46.154880914837122" lon="8.177900053560734">
        <ele>1711.02</ele>
        <time>2020-08-02T07:09:08Z</time>
      </trkpt>
      <trkpt lat="46.154913939535618" lon="8.177771810442209">
        <ele>1712.6400000000001</ele>
        <time>2020-08-02T07:09:20Z</time>
      </trkpt>
      <trkpt lat="46.154981665313244" lon="8.177678938955069">
        <ele>1713.4100000000001</ele>
        <time>2020-08-02T07:09:33Z</time>
      </trkpt>
      <trkpt lat="46.15504159592092" lon="8.177573494613171">
        <ele>1714.0999999999999</ele>
        <time>2020-08-02T07:09:48Z</time>
      </trkpt>
      <trkpt lat="46.155096245929599" lon="8.177514150738716">
        <ele>1714.8900000000001</ele>
        <time>2020-08-02T07:09:58Z</time>
      </trkpt>
      <trkpt lat="46.155097084119916" lon="8.177479868754745">
        <ele>1715.79</ele>
        <time>2020-08-02T07:10:11Z</time>
      </trkpt>
      <trkpt lat="46.155140586197376" lon="8.177392613142729">
        <ele>1716.71</ele>
        <time>2020-08-02T07:10:22Z</time>
      </trkpt>
      <trkpt lat="46.155207641422749" lon="8.177315583452582">
        <ele>1717.6600000000001</ele>
        <time>2020-08-02T07:10:34Z</time>
      </trkpt>
      <trkpt lat="46.155253741890192" lon="8.177234698086977">
        <ele>1718.8</ele>
        <time>2020-08-02T07:10:46Z</time>
      </trkpt>
      <trkpt lat="46.155270002782345" lon="8.177114417776465">
        <ele>1720.9400000000001</ele>
        <time>2020-08-02T07:11:00Z</time>
      </trkpt>
      <trkpt lat="46.155266147106886" lon="8.177000675350428">
        <ele>1721.9300000000001</ele>
        <time>2020-08-02T07:11:13Z</time>
      </trkpt>
      <trkpt lat="46.155283497646451" lon="8.17691870033741">
        <ele>1722.72</ele>
        <time>2020-08-02T07:11:24Z</time>
      </trkpt>
      <trkpt lat="46.155299255624413" lon="8.176822224631906">
        <ele>1724.0599999999999</ele>
        <time>2020-08-02T07:11:38Z</time>
      </trkpt>
      <trkpt lat="46.155275367200375" lon="8.176679816097021">
        <ele>1725.6099999999999</ele>
        <time>2020-08-02T07:11:54Z</time>
      </trkpt>
      <trkpt lat="46.155240163207054" lon="8.176563307642937">
        <ele>1727.29</ele>
        <time>2020-08-02T07:12:08Z</time>
      </trkpt>
      <trkpt lat="46.155228931456804" lon="8.176417881622911">
        <ele>1728.9000000000001</ele>
        <time>2020-08-02T07:12:21Z</time>
      </trkpt>
      <trkpt lat="46.155211329460144" lon="8.176282430067658">
        <ele>1730.4400000000001</ele>
        <time>2020-08-02T07:12:36Z</time>
      </trkpt>
      <trkpt lat="46.155250892043114" lon="8.176173130050302">
        <ele>1732</ele>
        <time>2020-08-02T07:12:51Z</time>
      </trkpt>
      <trkpt lat="46.155311996117234" lon="8.176100961863995">
        <ele>1733.8399999999999</ele>
        <time>2020-08-02T07:13:04Z</time>
      </trkpt>
      <trkpt lat="46.155341919511557" lon="8.176003647968173">
        <ele>1735.8099999999999</ele>
        <time>2020-08-02T07:13:16Z</time>
      </trkpt>
      <trkpt lat="46.155400089919567" lon="8.175891498103738">
        <ele>1738.6400000000001</ele>
        <time>2020-08-02T07:13:34Z</time>
      </trkpt>
      <trkpt lat="46.155448369681835" lon="8.175884038209915">
        <ele>1740.76</ele>
        <time>2020-08-02T07:13:48Z</time>
      </trkpt>
      <trkpt lat="46.15548525005579" lon="8.175812037661672">
        <ele>1742.05</ele>
        <time>2020-08-02T07:14:00Z</time>
      </trkpt>
      <trkpt lat="46.155506288632751" lon="8.175712125375867">
        <ele>1744.26</ele>
        <time>2020-08-02T07:14:14Z</time>
      </trkpt>
      <trkpt lat="46.155524896457791" lon="8.175674825906754">
        <ele>1744.77</ele>
        <time>2020-08-02T07:14:32Z</time>
      </trkpt>
      <trkpt lat="46.155564291402698" lon="8.17569519393146">
        <ele>1745.04</ele>
        <time>2020-08-02T07:14:56Z</time>
      </trkpt>
      <trkpt lat="46.155593795701861" lon="8.175665102899075">
        <ele>1746.47</ele>
        <time>2020-08-02T07:15:08Z</time>
      </trkpt>
      <trkpt lat="46.15559765137732" lon="8.175588324666023">
        <ele>1748.1600000000001</ele>
        <time>2020-08-02T07:15:20Z</time>
      </trkpt>
      <trkpt lat="46.155587341636419" lon="8.175520598888397">
        <ele>1749.6300000000001</ele>
        <time>2020-08-02T07:15:30Z</time>
      </trkpt>
      <trkpt lat="46.155599830672145" lon="8.17543275654316">
        <ele>1751.8900000000001</ele>
        <time>2020-08-02T07:15:42Z</time>
      </trkpt>
      <trkpt lat="46.155608966946602" lon="8.175327563658357">
        <ele>1753.95</ele>
        <time>2020-08-02T07:15:55Z</time>
      </trkpt>
      <trkpt lat="46.155642326921225" lon="8.175235446542501">
        <ele>1757.1500000000001</ele>
        <time>2020-08-02T07:16:10Z</time>
      </trkpt>
      <trkpt lat="46.155692785978317" lon="8.175165457651019">
        <ele>1759.6700000000001</ele>
        <time>2020-08-02T07:16:25Z</time>
      </trkpt>
      <trkpt lat="46.155740059912205" lon="8.175120279192925">
        <ele>1761.73</ele>
        <time>2020-08-02T07:16:38Z</time>
      </trkpt>
      <trkpt lat="46.155795464292169" lon="8.175062444061041">
        <ele>1764.0799999999999</ele>
        <time>2020-08-02T07:16:53Z</time>
      </trkpt>
      <trkpt lat="46.15582044236362" lon="8.175008296966553">
        <ele>1766.9000000000001</ele>
        <time>2020-08-02T07:17:10Z</time>
      </trkpt>
      <trkpt lat="46.155844917520881" lon="8.174956412985921">
        <ele>1769.29</ele>
        <time>2020-08-02T07:17:23Z</time>
      </trkpt>
      <trkpt lat="46.15588984452188" lon="8.174899499863386">
        <ele>1772.47</ele>
        <time>2020-08-02T07:17:37Z</time>
      </trkpt>
      <trkpt lat="46.155939046293497" lon="8.174866978079081">
        <ele>1775.3800000000001</ele>
        <time>2020-08-02T07:17:53Z</time>
      </trkpt>
      <trkpt lat="46.155992271378636" lon="8.174851136282086">
        <ele>1777.3599999999999</ele>
        <time>2020-08-02T07:18:05Z</time>
      </trkpt>
      <trkpt lat="46.156041640788317" lon="8.174812495708466">
        <ele>1780.2</ele>
        <time>2020-08-02T07:18:19Z</time>
      </trkpt>
      <trkpt lat="46.156041221693158" lon="8.174732867628336">
        <ele>1782.4300000000001</ele>
        <time>2020-08-02T07:18:33Z</time>
      </trkpt>
      <trkpt lat="46.156094279140234" lon="8.174725659191608">
        <ele>1784.0799999999999</ele>
        <time>2020-08-02T07:18:45Z</time>
      </trkpt>
      <trkpt lat="46.156137445941567" lon="8.174678469076753">
        <ele>1786.3</ele>
        <time>2020-08-02T07:18:59Z</time>
      </trkpt>
      <trkpt lat="46.156142139807343" lon="8.174601355567575">
        <ele>1788.3</ele>
        <time>2020-08-02T07:19:12Z</time>
      </trkpt>
      <trkpt lat="46.156163765117526" lon="8.174536814913154">
        <ele>1790.1300000000001</ele>
        <time>2020-08-02T07:19:24Z</time>
      </trkpt>
      <trkpt lat="46.156240543350577" lon="8.174445200711489">
        <ele>1791.72</ele>
        <time>2020-08-02T07:19:37Z</time>
      </trkpt>
      <trkpt lat="46.15628220140934" lon="8.174352161586285">
        <ele>1792.5699999999999</ele>
        <time>2020-08-02T07:19:50Z</time>
      </trkpt>
      <trkpt lat="46.156307347118855" lon="8.174228528514504">
        <ele>1793.3099999999999</ele>
        <time>2020-08-02T07:20:02Z</time>
      </trkpt>
      <trkpt lat="46.156342886388302" lon="8.174077989533544">
        <ele>1793.9100000000001</ele>
        <time>2020-08-02T07:20:15Z</time>
      </trkpt>
      <trkpt lat="46.156397284939885" lon="8.173964163288474">
        <ele>1794.6500000000001</ele>
        <time>2020-08-02T07:20:29Z</time>
      </trkpt>
      <trkpt lat="46.156399799510837" lon="8.173945555463433">
        <ele>1795.3</ele>
        <time>2020-08-02T07:20:32Z</time>
      </trkpt>
      <trkpt lat="46.156463585793972" lon="8.173853186890483">
        <ele>1795.5599999999999</ele>
        <time>2020-08-02T07:20:43Z</time>
      </trkpt>
      <trkpt lat="46.156469872221351" lon="8.173842625692487">
        <ele>1795.48</ele>
        <time>2020-08-02T07:20:44Z</time>
      </trkpt>
      <trkpt lat="46.15649476647377" lon="8.173718154430389">
        <ele>1796.21</ele>
        <time>2020-08-02T07:20:58Z</time>
      </trkpt>
      <trkpt lat="46.156499292701483" lon="8.173635508865118">
        <ele>1797.3299999999999</ele>
        <time>2020-08-02T07:21:08Z</time>
      </trkpt>
      <trkpt lat="46.15652116946876" lon="8.17354909144342">
        <ele>1797.6700000000001</ele>
        <time>2020-08-02T07:21:17Z</time>
      </trkpt>
      <trkpt lat="46.156544806435704" lon="8.173417914658785">
        <ele>1797.99</ele>
        <time>2020-08-02T07:21:30Z</time>
      </trkpt>
      <trkpt lat="46.156564336270094" lon="8.173282295465469">
        <ele>1799.1300000000001</ele>
        <time>2020-08-02T07:21:43Z</time>
      </trkpt>
      <trkpt lat="46.156531814485788" lon="8.173188250511885">
        <ele>1799.6600000000001</ele>
        <time>2020-08-02T07:21:54Z</time>
      </trkpt>
      <trkpt lat="46.156529299914837" lon="8.173068054020405">
        <ele>1800.0999999999999</ele>
        <time>2020-08-02T07:22:05Z</time>
      </trkpt>
      <trkpt lat="46.156505327671766" lon="8.172966632992029">
        <ele>1800.54</ele>
        <time>2020-08-02T07:22:17Z</time>
      </trkpt>
      <trkpt lat="46.156485378742218" lon="8.172852974385023">
        <ele>1801.03</ele>
        <time>2020-08-02T07:22:29Z</time>
      </trkpt>
      <trkpt lat="46.156482696533203" lon="8.172734202817082">
        <ele>1801.1700000000001</ele>
        <time>2020-08-02T07:22:39Z</time>
      </trkpt>
      <trkpt lat="46.156483115628362" lon="8.172679468989372">
        <ele>1801.0599999999999</ele>
        <time>2020-08-02T07:22:51Z</time>
      </trkpt>
      <trkpt lat="46.156496778130531" lon="8.172624399885535">
        <ele>1801.22</ele>
        <time>2020-08-02T07:23:02Z</time>
      </trkpt>
      <trkpt lat="46.156453946605325" lon="8.172503784298897">
        <ele>1801.8</ele>
        <time>2020-08-02T07:23:14Z</time>
      </trkpt>
      <trkpt lat="46.156447576358914" lon="8.172483248636127">
        <ele>1801.8699999999999</ele>
        <time>2020-08-02T07:23:16Z</time>
      </trkpt>
      <trkpt lat="46.156445145606995" lon="8.172341259196401">
        <ele>1802.1800000000001</ele>
        <time>2020-08-02T07:23:28Z</time>
      </trkpt>
      <trkpt lat="46.156435841694474" lon="8.172242855653167">
        <ele>1802.3399999999999</ele>
        <time>2020-08-02T07:23:41Z</time>
      </trkpt>
      <trkpt lat="46.15640533156693" lon="8.172150989994407">
        <ele>1802.8199999999999</ele>
        <time>2020-08-02T07:23:58Z</time>
      </trkpt>
      <trkpt lat="46.156389741227031" lon="8.17204412072897">
        <ele>1803.3499999999999</ele>
        <time>2020-08-02T07:24:07Z</time>
      </trkpt>
      <trkpt lat="46.156381778419018" lon="8.171959631145001">
        <ele>1803.8800000000001</ele>
        <time>2020-08-02T07:24:14Z</time>
      </trkpt>
      <trkpt lat="46.15641463547945" lon="8.171797944232822">
        <ele>1804.3800000000001</ele>
        <time>2020-08-02T07:24:27Z</time>
      </trkpt>
      <trkpt lat="46.156492754817009" lon="8.171618655323982">
        <ele>1804.8800000000001</ele>
        <time>2020-08-02T07:24:41Z</time>
      </trkpt>
      <trkpt lat="46.156510859727859" lon="8.17157506942749">
        <ele>1805.22</ele>
        <time>2020-08-02T07:24:46Z</time>
      </trkpt>
      <trkpt lat="46.156531646847725" lon="8.171526286751032">
        <ele>1804.71</ele>
        <time>2020-08-02T07:24:50Z</time>
      </trkpt>
      <trkpt lat="46.156629715114832" lon="8.171306680887938">
        <ele>1805.6700000000001</ele>
        <time>2020-08-02T07:25:06Z</time>
      </trkpt>
      <trkpt lat="46.156629966571927" lon="8.17130584269762">
        <ele>1805.73</ele>
        <time>2020-08-02T07:25:08Z</time>
      </trkpt>
      <trkpt lat="46.156648658216" lon="8.171270387247205">
        <ele>1805.5999999999999</ele>
        <time>2020-08-02T07:25:11Z</time>
      </trkpt>
      <trkpt lat="46.156750665977597" lon="8.171029910445213">
        <ele>1806</ele>
        <time>2020-08-02T07:25:28Z</time>
      </trkpt>
      <trkpt lat="46.15683825686574" lon="8.170830672606826">
        <ele>1806.73</ele>
        <time>2020-08-02T07:25:42Z</time>
      </trkpt>
      <trkpt lat="46.156862145289779" lon="8.170766131952405">
        <ele>1806.6300000000001</ele>
        <time>2020-08-02T07:25:46Z</time>
      </trkpt>
      <trkpt lat="46.157022910192609" lon="8.170411912724376">
        <ele>1807.99</ele>
        <time>2020-08-02T07:26:07Z</time>
      </trkpt>
      <trkpt lat="46.157083595171571" lon="8.170286938548088">
        <ele>1808.48</ele>
        <time>2020-08-02T07:26:15Z</time>
      </trkpt>
      <trkpt lat="46.157092144712806" lon="8.170270761474967">
        <ele>1808.3800000000001</ele>
        <time>2020-08-02T07:26:23Z</time>
      </trkpt>
      <trkpt lat="46.157101867720485" lon="8.170185685157776">
        <ele>1808.8299999999999</ele>
        <time>2020-08-02T07:26:35Z</time>
      </trkpt>
      <trkpt lat="46.157129192724824" lon="8.170107398182154">
        <ele>1808.1700000000001</ele>
        <time>2020-08-02T07:26:42Z</time>
      </trkpt>
      <trkpt lat="46.157221728935838" lon="8.170065656304359">
        <ele>1809.3199999999999</ele>
        <time>2020-08-02T07:26:54Z</time>
      </trkpt>
      <trkpt lat="46.157221980392933" lon="8.170047299936414">
        <ele>1808.8099999999999</ele>
        <time>2020-08-02T07:27:05Z</time>
      </trkpt>
      <trkpt lat="46.157213766127825" lon="8.170035481452942">
        <ele>1809.73</ele>
        <time>2020-08-02T07:27:18Z</time>
      </trkpt>
      <trkpt lat="46.157167749479413" lon="8.170012347400188">
        <ele>1809.6700000000001</ele>
        <time>2020-08-02T07:27:31Z</time>
      </trkpt>
      <trkpt lat="46.157095413655043" lon="8.170172274112701">
        <ele>1809.4100000000001</ele>
        <time>2020-08-02T07:27:44Z</time>
      </trkpt>
      <trkpt lat="46.157076470553875" lon="8.170251650735736">
        <ele>1809.3599999999999</ele>
        <time>2020-08-02T07:27:58Z</time>
      </trkpt>
      <trkpt lat="46.157138077542186" lon="8.170114355161786">
        <ele>1810.0999999999999</ele>
        <time>2020-08-02T07:28:11Z</time>
      </trkpt>
      <trkpt lat="46.15715098567307" lon="8.169993991032243">
        <ele>1810.1900000000001</ele>
        <time>2020-08-02T07:28:24Z</time>
      </trkpt>
      <trkpt lat="46.157160708680749" lon="8.169988039880991">
        <ele>1810.21</ele>
        <time>2020-08-02T07:29:00Z</time>
      </trkpt>
      <trkpt lat="46.157151237130165" lon="8.169982507824898">
        <ele>1811.6199999999999</ele>
        <time>2020-08-02T07:29:14Z</time>
      </trkpt>
      <trkpt lat="46.15715391933918" lon="8.169982926920056">
        <ele>1812.1099999999999</ele>
        <time>2020-08-02T07:29:26Z</time>
      </trkpt>
      <trkpt lat="46.157150818035007" lon="8.169986614957452">
        <ele>1812.04</ele>
        <time>2020-08-02T07:29:38Z</time>
      </trkpt>
      <trkpt lat="46.157146207988262" lon="8.169989380985498">
        <ele>1812.79</ele>
        <time>2020-08-02T07:29:54Z</time>
      </trkpt>
      <trkpt lat="46.157143358141184" lon="8.17000555805862">
        <ele>1812.8099999999999</ele>
        <time>2020-08-02T07:30:09Z</time>
      </trkpt>
      <trkpt lat="46.157138161361217" lon="8.170015700161457">
        <ele>1812.8599999999999</ele>
        <time>2020-08-02T07:30:10Z</time>
      </trkpt>
      <trkpt lat="46.157098934054375" lon="8.17010136321187">
        <ele>1812.74</ele>
        <time>2020-08-02T07:30:18Z</time>
      </trkpt>
      <trkpt lat="46.157063143327832" lon="8.170218039304018">
        <ele>1812.1600000000001</ele>
        <time>2020-08-02T07:30:31Z</time>
      </trkpt>
      <trkpt lat="46.157058281823993" lon="8.170240083709359">
        <ele>1812.4200000000001</ele>
        <time>2020-08-02T07:30:45Z</time>
      </trkpt>
      <trkpt lat="46.157063897699118" lon="8.170239999890328">
        <ele>1812.5599999999999</ele>
        <time>2020-08-02T07:31:01Z</time>
      </trkpt>
      <trkpt lat="46.157068759202957" lon="8.170223906636238">
        <ele>1813</ele>
        <time>2020-08-02T07:31:20Z</time>
      </trkpt>
      <trkpt lat="46.157075297087431" lon="8.170214854180813">
        <ele>1813</ele>
        <time>2020-08-02T07:31:34Z</time>
      </trkpt>
      <trkpt lat="46.157078901305795" lon="8.170221894979477">
        <ele>1813.4200000000001</ele>
        <time>2020-08-02T07:31:52Z</time>
      </trkpt>
      <trkpt lat="46.157082254067063" lon="8.170217368751764">
        <ele>1813.6900000000001</ele>
        <time>2020-08-02T07:32:09Z</time>
      </trkpt>
      <trkpt lat="46.157086612656713" lon="8.170157354325056">
        <ele>1814.1600000000001</ele>
        <time>2020-08-02T07:32:19Z</time>
      </trkpt>
      <trkpt lat="46.157124498859048" lon="8.170088706538081">
        <ele>1814.4300000000001</ele>
        <time>2020-08-02T07:32:31Z</time>
      </trkpt>
      <trkpt lat="46.157171186059713" lon="8.169970437884331">
        <ele>1815.0899999999999</ele>
        <time>2020-08-02T07:32:45Z</time>
      </trkpt>
      <trkpt lat="46.157179903239012" lon="8.169898940250278">
        <ele>1815.3299999999999</ele>
        <time>2020-08-02T07:32:56Z</time>
      </trkpt>
      <trkpt lat="46.157188201323152" lon="8.169792322441936">
        <ele>1815.6800000000001</ele>
        <time>2020-08-02T07:33:05Z</time>
      </trkpt>
      <trkpt lat="46.157238408923149" lon="8.169618146494031">
        <ele>1817.6500000000001</ele>
        <time>2020-08-02T07:33:20Z</time>
      </trkpt>
      <trkpt lat="46.157238660380244" lon="8.169448999688029">
        <ele>1818.6500000000001</ele>
        <time>2020-08-02T07:33:34Z</time>
      </trkpt>
      <trkpt lat="46.157231535762548" lon="8.169411616399884">
        <ele>1818.8199999999999</ele>
        <time>2020-08-02T07:33:38Z</time>
      </trkpt>
      <trkpt lat="46.157260956242681" lon="8.169255377724767">
        <ele>1819.2</ele>
        <time>2020-08-02T07:33:52Z</time>
      </trkpt>
      <trkpt lat="46.157222986221313" lon="8.169151106849313">
        <ele>1821.25</ele>
        <time>2020-08-02T07:34:03Z</time>
      </trkpt>
      <trkpt lat="46.157207898795605" lon="8.169052619487047">
        <ele>1824.3599999999999</ele>
        <time>2020-08-02T07:34:16Z</time>
      </trkpt>
      <trkpt lat="46.157151740044355" lon="8.168975422158837">
        <ele>1827.25</ele>
        <time>2020-08-02T07:34:31Z</time>
      </trkpt>
      <trkpt lat="46.157143944874406" lon="8.168900907039642">
        <ele>1829.2</ele>
        <time>2020-08-02T07:34:43Z</time>
      </trkpt>
      <trkpt lat="46.157187279313803" lon="8.168815160170198">
        <ele>1830.95</ele>
        <time>2020-08-02T07:34:56Z</time>
      </trkpt>
      <trkpt lat="46.157149560749531" lon="8.168758163228631">
        <ele>1832.3900000000001</ele>
        <time>2020-08-02T07:35:07Z</time>
      </trkpt>
      <trkpt lat="46.157159032300115" lon="8.168657831847668">
        <ele>1834.21</ele>
        <time>2020-08-02T07:35:21Z</time>
      </trkpt>
      <trkpt lat="46.157147213816643" lon="8.168552974238992">
        <ele>1836.8399999999999</ele>
        <time>2020-08-02T07:35:35Z</time>
      </trkpt>
      <trkpt lat="46.157163558527827" lon="8.168450379744172">
        <ele>1838.8</ele>
        <time>2020-08-02T07:35:49Z</time>
      </trkpt>
      <trkpt lat="46.157161546871066" lon="8.168350132182241">
        <ele>1840.8099999999999</ele>
        <time>2020-08-02T07:36:03Z</time>
      </trkpt>
      <trkpt lat="46.1571373231709" lon="8.168256338685751">
        <ele>1843.5799999999999</ele>
        <time>2020-08-02T07:36:18Z</time>
      </trkpt>
      <trkpt lat="46.157122990116477" lon="8.168145529925823">
        <ele>1846.6600000000001</ele>
        <time>2020-08-02T07:36:35Z</time>
      </trkpt>
      <trkpt lat="46.157098934054375" lon="8.16805886104703">
        <ele>1849.0599999999999</ele>
        <time>2020-08-02T07:36:48Z</time>
      </trkpt>
      <trkpt lat="46.157085774466395" lon="8.167953500524163">
        <ele>1850.78</ele>
        <time>2020-08-02T07:37:01Z</time>
      </trkpt>
      <trkpt lat="46.157070016488433" lon="8.167857192456722">
        <ele>1853.79</ele>
        <time>2020-08-02T07:37:14Z</time>
      </trkpt>
      <trkpt lat="46.157078817486763" lon="8.167758788913488">
        <ele>1856.1800000000001</ele>
        <time>2020-08-02T07:37:28Z</time>
      </trkpt>
      <trkpt lat="46.157056605443358" lon="8.167656278237701">
        <ele>1859.0599999999999</ele>
        <time>2020-08-02T07:37:43Z</time>
      </trkpt>
      <trkpt lat="46.15706792101264" lon="8.167553851380944">
        <ele>1861.9200000000001</ele>
        <time>2020-08-02T07:37:58Z</time>
      </trkpt>
      <trkpt lat="46.157062975689769" lon="8.167487550526857">
        <ele>1863.45</ele>
        <time>2020-08-02T07:38:10Z</time>
      </trkpt>
      <trkpt lat="46.157052498310804" lon="8.167427787557244">
        <ele>1864.78</ele>
        <time>2020-08-02T07:38:21Z</time>
      </trkpt>
      <trkpt lat="46.157042691484094" lon="8.167335251346231">
        <ele>1866.5599999999999</ele>
        <time>2020-08-02T07:38:34Z</time>
      </trkpt>
      <trkpt lat="46.15704151801765" lon="8.167222598567605">
        <ele>1869.6099999999999</ele>
        <time>2020-08-02T07:38:48Z</time>
      </trkpt>
      <trkpt lat="46.157065238803625" lon="8.167106090113521">
        <ele>1870.6800000000001</ele>
        <time>2020-08-02T07:39:01Z</time>
      </trkpt>
      <trkpt lat="46.157084433361888" lon="8.167053116485477">
        <ele>1872.0999999999999</ele>
        <time>2020-08-02T07:39:09Z</time>
      </trkpt>
      <trkpt lat="46.157152997329831" lon="8.166953371837735">
        <ele>1872.9200000000001</ele>
        <time>2020-08-02T07:39:21Z</time>
      </trkpt>
      <trkpt lat="46.157182417809963" lon="8.166911629959941">
        <ele>1873.25</ele>
        <time>2020-08-02T07:39:32Z</time>
      </trkpt>
      <trkpt lat="46.157207479700446" lon="8.166854633018374">
        <ele>1874.3</ele>
        <time>2020-08-02T07:39:41Z</time>
      </trkpt>
      <trkpt lat="46.157271098345518" lon="8.166799228638411">
        <ele>1875.52</ele>
        <time>2020-08-02T07:39:53Z</time>
      </trkpt>
      <trkpt lat="46.157320970669389" lon="8.166725635528565">
        <ele>1876.9000000000001</ele>
        <time>2020-08-02T07:40:05Z</time>
      </trkpt>
      <trkpt lat="46.157359024509788" lon="8.166581718251109">
        <ele>1879.3199999999999</ele>
        <time>2020-08-02T07:40:19Z</time>
      </trkpt>
      <trkpt lat="46.157337985932827" lon="8.166472250595689">
        <ele>1881.46</ele>
        <time>2020-08-02T07:40:33Z</time>
      </trkpt>
      <trkpt lat="46.157293394207954" lon="8.166362615302205">
        <ele>1882.55</ele>
        <time>2020-08-02T07:40:45Z</time>
      </trkpt>
      <trkpt lat="46.157266404479742" lon="8.166283071041107">
        <ele>1883.8800000000001</ele>
        <time>2020-08-02T07:40:55Z</time>
      </trkpt>
      <trkpt lat="46.157229775562882" lon="8.166156085208058">
        <ele>1885.26</ele>
        <time>2020-08-02T07:41:07Z</time>
      </trkpt>
      <trkpt lat="46.157197002321482" lon="8.166047455742955">
        <ele>1886.8</ele>
        <time>2020-08-02T07:41:19Z</time>
      </trkpt>
      <trkpt lat="46.157138999551535" lon="8.166046533733606">
        <ele>1888.1400000000001</ele>
        <time>2020-08-02T07:41:31Z</time>
      </trkpt>
      <trkpt lat="46.157076135277748" lon="8.165993727743626">
        <ele>1891.1500000000001</ele>
        <time>2020-08-02T07:41:45Z</time>
      </trkpt>
      <trkpt lat="46.156977564096451" lon="8.165905801579356">
        <ele>1893.47</ele>
        <time>2020-08-02T07:42:01Z</time>
      </trkpt>
      <trkpt lat="46.156873041763902" lon="8.165824497118592">
        <ele>1893.98</ele>
        <time>2020-08-02T07:42:15Z</time>
      </trkpt>
      <trkpt lat="46.156855691224337" lon="8.165805973112583">
        <ele>1893.9400000000001</ele>
        <time>2020-08-02T07:42:17Z</time>
      </trkpt>
      <trkpt lat="46.156793748959899" lon="8.165716957300901">
        <ele>1894.8599999999999</ele>
        <time>2020-08-02T07:42:28Z</time>
      </trkpt>
      <trkpt lat="46.156703978776932" lon="8.165626097470522">
        <ele>1896.72</ele>
        <time>2020-08-02T07:42:42Z</time>
      </trkpt>
      <trkpt lat="46.156637594103813" lon="8.16556591540575">
        <ele>1898.6500000000001</ele>
        <time>2020-08-02T07:42:54Z</time>
      </trkpt>
      <trkpt lat="46.156584033742547" lon="8.165529118850827">
        <ele>1900.04</ele>
        <time>2020-08-02T07:43:04Z</time>
      </trkpt>
      <trkpt lat="46.156544135883451" lon="8.165520485490561">
        <ele>1901.97</ele>
        <time>2020-08-02T07:43:15Z</time>
      </trkpt>
      <trkpt lat="46.156487474218011" lon="8.165496680885553">
        <ele>1903.99</ele>
        <time>2020-08-02T07:43:28Z</time>
      </trkpt>
      <trkpt lat="46.156410612165928" lon="8.1654442101717">
        <ele>1906.1800000000001</ele>
        <time>2020-08-02T07:43:42Z</time>
      </trkpt>
      <trkpt lat="46.156337019056082" lon="8.165388470515609">
        <ele>1907.26</ele>
        <time>2020-08-02T07:43:54Z</time>
      </trkpt>
      <trkpt lat="46.156250182539225" lon="8.165344465523958">
        <ele>1909.3800000000001</ele>
        <time>2020-08-02T07:44:09Z</time>
      </trkpt>
      <trkpt lat="46.156189329922199" lon="8.165333485230804">
        <ele>1911.2</ele>
        <time>2020-08-02T07:44:21Z</time>
      </trkpt>
      <trkpt lat="46.156149432063103" lon="8.165292162448168">
        <ele>1912.7</ele>
        <time>2020-08-02T07:44:33Z</time>
      </trkpt>
      <trkpt lat="46.156162675470114" lon="8.16527221351862">
        <ele>1912.76</ele>
        <time>2020-08-02T07:44:50Z</time>
      </trkpt>
      <trkpt lat="46.156157813966274" lon="8.165250085294247">
        <ele>1913.3</ele>
        <time>2020-08-02T07:45:09Z</time>
      </trkpt>
      <trkpt lat="46.156164100393653" lon="8.165242038667202">
        <ele>1913.71</ele>
        <time>2020-08-02T07:45:29Z</time>
      </trkpt>
      <trkpt lat="46.156165609136224" lon="8.165240362286568">
        <ele>1914.1099999999999</ele>
        <time>2020-08-02T07:45:50Z</time>
      </trkpt>
      <trkpt lat="46.15616736933589" lon="8.165258215740323">
        <ele>1914</ele>
        <time>2020-08-02T07:46:22Z</time>
      </trkpt>
      <trkpt lat="46.156135099008679" lon="8.165197782218456">
        <ele>1915.9200000000001</ele>
        <time>2020-08-02T07:46:42Z</time>
      </trkpt>
      <trkpt lat="46.156064020469785" lon="8.165168948471546">
        <ele>1918.9000000000001</ele>
        <time>2020-08-02T07:46:58Z</time>
      </trkpt>
      <trkpt lat="46.155989756807685" lon="8.165155537426472">
        <ele>1920.8</ele>
        <time>2020-08-02T07:47:11Z</time>
      </trkpt>
      <trkpt lat="46.155997719615698" lon="8.165100049227476">
        <ele>1923.1500000000001</ele>
        <time>2020-08-02T07:47:22Z</time>
      </trkpt>
      <trkpt lat="46.155989253893495" lon="8.165024109184742">
        <ele>1925.5699999999999</ele>
        <time>2020-08-02T07:47:36Z</time>
      </trkpt>
      <trkpt lat="46.155952624976635" lon="8.164978176355362">
        <ele>1927.51</ele>
        <time>2020-08-02T07:47:48Z</time>
      </trkpt>
      <trkpt lat="46.155921779572964" lon="8.164962250739336">
        <ele>1929.3</ele>
        <time>2020-08-02T07:47:58Z</time>
      </trkpt>
      <trkpt lat="46.15595874376595" lon="8.164911959320307">
        <ele>1930.8499999999999</ele>
        <time>2020-08-02T07:48:08Z</time>
      </trkpt>
      <trkpt lat="46.155954468995333" lon="8.164849933236837">
        <ele>1932.72</ele>
        <time>2020-08-02T07:48:20Z</time>
      </trkpt>
      <trkpt lat="46.155907697975636" lon="8.164837276563048">
        <ele>1934.0899999999999</ele>
        <time>2020-08-02T07:48:30Z</time>
      </trkpt>
      <trkpt lat="46.155867297202349" lon="8.164798887446523">
        <ele>1936.46</ele>
        <time>2020-08-02T07:48:42Z</time>
      </trkpt>
      <trkpt lat="46.155844246968627" lon="8.164734514430165">
        <ele>1939.3599999999999</ele>
        <time>2020-08-02T07:48:57Z</time>
      </trkpt>
      <trkpt lat="46.155839804559946" lon="8.164697801694274">
        <ele>1940.8199999999999</ele>
        <time>2020-08-02T07:49:07Z</time>
      </trkpt>
      <trkpt lat="46.155842402949929" lon="8.164675673469901">
        <ele>1941.25</ele>
        <time>2020-08-02T07:49:25Z</time>
      </trkpt>
      <trkpt lat="46.155803930014372" lon="8.164600152522326">
        <ele>1944.22</ele>
        <time>2020-08-02T07:49:41Z</time>
      </trkpt>
      <trkpt lat="46.155747603625059" lon="8.164531672373414">
        <ele>1945.8699999999999</ele>
        <time>2020-08-02T07:49:53Z</time>
      </trkpt>
      <trkpt lat="46.155715500935912" lon="8.164452128112316">
        <ele>1947.8900000000001</ele>
        <time>2020-08-02T07:50:06Z</time>
      </trkpt>
      <trkpt lat="46.155650541186333" lon="8.164387084543705">
        <ele>1949.1099999999999</ele>
        <time>2020-08-02T07:50:19Z</time>
      </trkpt>
      <trkpt lat="46.155534284189343" lon="8.164340062066913">
        <ele>1950.1500000000001</ele>
        <time>2020-08-02T07:50:33Z</time>
      </trkpt>
      <trkpt lat="46.155481981113553" lon="8.164261020720005">
        <ele>1950.6800000000001</ele>
        <time>2020-08-02T07:50:44Z</time>
      </trkpt>
      <trkpt lat="46.15541442297399" lon="8.164184913039208">
        <ele>1951.6700000000001</ele>
        <time>2020-08-02T07:50:55Z</time>
      </trkpt>
      <trkpt lat="46.155345188453794" lon="8.164137387648225">
        <ele>1952.25</ele>
        <time>2020-08-02T07:51:05Z</time>
      </trkpt>
      <trkpt lat="46.155324820429087" lon="8.164122886955738">
        <ele>1952.25</ele>
        <time>2020-08-02T07:51:07Z</time>
      </trkpt>
      <trkpt lat="46.155272182077169" lon="8.164005540311337">
        <ele>1952.9400000000001</ele>
        <time>2020-08-02T07:51:20Z</time>
      </trkpt>
      <trkpt lat="46.155246198177338" lon="8.163969162851572">
        <ele>1952.6700000000001</ele>
        <time>2020-08-02T07:51:24Z</time>
      </trkpt>
      <trkpt lat="46.155159780755639" lon="8.163901772350073">
        <ele>1951.8399999999999</ele>
        <time>2020-08-02T07:51:35Z</time>
      </trkpt>
      <trkpt lat="46.155095240101218" lon="8.163808397948742">
        <ele>1951.1400000000001</ele>
        <time>2020-08-02T07:51:46Z</time>
      </trkpt>
      <trkpt lat="46.15506598725915" lon="8.163707815110683">
        <ele>1950.6400000000001</ele>
        <time>2020-08-02T07:51:54Z</time>
      </trkpt>
      <trkpt lat="46.155048971995711" lon="8.163604466244578">
        <ele>1950.8800000000001</ele>
        <time>2020-08-02T07:52:06Z</time>
      </trkpt>
      <trkpt lat="46.155024915933609" lon="8.163456609472632">
        <ele>1951.3800000000001</ele>
        <time>2020-08-02T07:52:18Z</time>
      </trkpt>
      <trkpt lat="46.154901785776019" lon="8.163331048563123">
        <ele>1951.45</ele>
        <time>2020-08-02T07:52:34Z</time>
      </trkpt>
      <trkpt lat="46.154885524883866" lon="8.163335574790835">
        <ele>1951.23</ele>
        <time>2020-08-02T07:52:36Z</time>
      </trkpt>
      <trkpt lat="46.154838502407074" lon="8.163406737148762">
        <ele>1950.99</ele>
        <time>2020-08-02T07:52:46Z</time>
      </trkpt>
      <trkpt lat="46.154867587611079" lon="8.163426853716373">
        <ele>1950.9200000000001</ele>
        <time>2020-08-02T07:52:49Z</time>
      </trkpt>
      <trkpt lat="46.15486809052527" lon="8.163470271974802">
        <ele>1950.98</ele>
        <time>2020-08-02T07:52:54Z</time>
      </trkpt>
      <trkpt lat="46.154845207929611" lon="8.163501787930727">
        <ele>1951.03</ele>
        <time>2020-08-02T07:52:58Z</time>
      </trkpt>
      <trkpt lat="46.15482903085649" lon="8.163521904498339">
        <ele>1951.0999999999999</ele>
        <time>2020-08-02T07:53:01Z</time>
      </trkpt>
      <trkpt lat="46.154763484373689" lon="8.163507655262947">
        <ele>1950.9000000000001</ele>
        <time>2020-08-02T07:53:14Z</time>
      </trkpt>
      <trkpt lat="46.154764825478196" lon="8.163519222289324">
        <ele>1951.2</ele>
        <time>2020-08-02T07:53:38Z</time>
      </trkpt>
      <trkpt lat="46.154775470495224" lon="8.163528526201844">
        <ele>1951.9300000000001</ele>
        <time>2020-08-02T07:53:57Z</time>
      </trkpt>
      <trkpt lat="46.15482022985816" lon="8.163537662476301">
        <ele>1951.8499999999999</ele>
        <time>2020-08-02T07:54:08Z</time>
      </trkpt>
      <trkpt lat="46.154794078320265" lon="8.163557527586818">
        <ele>1952.05</ele>
        <time>2020-08-02T07:54:21Z</time>
      </trkpt>
      <trkpt lat="46.154699614271522" lon="8.163570938631892">
        <ele>1952.24</ele>
        <time>2020-08-02T07:54:31Z</time>
      </trkpt>
      <trkpt lat="46.154655693098903" lon="8.163533639162779">
        <ele>1952.29</ele>
        <time>2020-08-02T07:54:36Z</time>
      </trkpt>
      <trkpt lat="46.154619986191392" lon="8.163508493453264">
        <ele>1952.1099999999999</ele>
        <time>2020-08-02T07:54:47Z</time>
      </trkpt>
      <trkpt lat="46.154639851301908" lon="8.16346432082355">
        <ele>1952.04</ele>
        <time>2020-08-02T07:54:58Z</time>
      </trkpt>
      <trkpt lat="46.15463599562645" lon="8.163485610857606">
        <ele>1952.24</ele>
        <time>2020-08-02T07:55:17Z</time>
      </trkpt>
      <trkpt lat="46.154578747227788" lon="8.163505895063281">
        <ele>1952.1199999999999</ele>
        <time>2020-08-02T07:55:27Z</time>
      </trkpt>
      <trkpt lat="46.154564581811428" lon="8.16350631415844">
        <ele>1952.6199999999999</ele>
        <time>2020-08-02T07:55:31Z</time>
      </trkpt>
      <trkpt lat="46.154510518535972" lon="8.163460465148091">
        <ele>1952.79</ele>
        <time>2020-08-02T07:55:41Z</time>
      </trkpt>
      <trkpt lat="46.154480259865522" lon="8.163452250882983">
        <ele>1953.05</ele>
        <time>2020-08-02T07:55:44Z</time>
      </trkpt>
      <trkpt lat="46.154414461925626" lon="8.163386788219214">
        <ele>1953.0799999999999</ele>
        <time>2020-08-02T07:55:54Z</time>
      </trkpt>
      <trkpt lat="46.154367607086897" lon="8.163366420194507">
        <ele>1952.97</ele>
        <time>2020-08-02T07:56:03Z</time>
      </trkpt>
      <trkpt lat="46.154338857159019" lon="8.163345297798514">
        <ele>1953.47</ele>
        <time>2020-08-02T07:56:10Z</time>
      </trkpt>
      <trkpt lat="46.154338354244828" lon="8.163278913125396">
        <ele>1952.3699999999999</ele>
        <time>2020-08-02T07:56:19Z</time>
      </trkpt>
      <trkpt lat="46.154353357851505" lon="8.163245050236583">
        <ele>1953.22</ele>
        <time>2020-08-02T07:56:30Z</time>
      </trkpt>
      <trkpt lat="46.154348747804761" lon="8.163252510130405">
        <ele>1952.79</ele>
        <time>2020-08-02T07:56:50Z</time>
      </trkpt>
      <trkpt lat="46.15433064289391" lon="8.163295174017549">
        <ele>1953.1400000000001</ele>
        <time>2020-08-02T07:57:01Z</time>
      </trkpt>
      <trkpt lat="46.154366433620453" lon="8.163312608376145">
        <ele>1953.9200000000001</ele>
        <time>2020-08-02T07:57:12Z</time>
      </trkpt>
      <trkpt lat="46.154404152184725" lon="8.163353931158781">
        <ele>1953.45</ele>
        <time>2020-08-02T07:57:20Z</time>
      </trkpt>
      <trkpt lat="46.154450168833137" lon="8.163388716056943">
        <ele>1953.8599999999999</ele>
        <time>2020-08-02T07:57:29Z</time>
      </trkpt>
      <trkpt lat="46.154456455260515" lon="8.163392320275307">
        <ele>1953.8699999999999</ele>
        <time>2020-08-02T07:57:30Z</time>
      </trkpt>
      <trkpt lat="46.15452409721911" lon="8.163442192599177">
        <ele>1953.71</ele>
        <time>2020-08-02T07:57:41Z</time>
      </trkpt>
      <trkpt lat="46.154565336182714" lon="8.163465075194836">
        <ele>1953.51</ele>
        <time>2020-08-02T07:57:51Z</time>
      </trkpt>
      <trkpt lat="46.154620237648487" lon="8.163487790152431">
        <ele>1953.4100000000001</ele>
        <time>2020-08-02T07:58:00Z</time>
      </trkpt>
      <trkpt lat="46.154668098315597" lon="8.163494747132063">
        <ele>1953.24</ele>
        <time>2020-08-02T07:58:07Z</time>
      </trkpt>
      <trkpt lat="46.154701625928283" lon="8.163456693291664">
        <ele>1953.6700000000001</ele>
        <time>2020-08-02T07:58:20Z</time>
      </trkpt>
      <trkpt lat="46.154727442190051" lon="8.163467505946755">
        <ele>1953.3900000000001</ele>
        <time>2020-08-02T07:58:33Z</time>
      </trkpt>
      <trkpt lat="46.154761975631118" lon="8.163491478189826">
        <ele>1953.3199999999999</ele>
        <time>2020-08-02T07:58:49Z</time>
      </trkpt>
      <trkpt lat="46.154845543205738" lon="8.163491562008858">
        <ele>1953.2</ele>
        <time>2020-08-02T07:59:01Z</time>
      </trkpt>
      <trkpt lat="46.154858702793717" lon="8.163431296125054">
        <ele>1953.6600000000001</ele>
        <time>2020-08-02T07:59:12Z</time>
      </trkpt>
      <trkpt lat="46.154879657551646" lon="8.163395589217544">
        <ele>1953.6500000000001</ele>
        <time>2020-08-02T07:59:21Z</time>
      </trkpt>
      <trkpt lat="46.154891140758991" lon="8.16334311850369">
        <ele>1954.01</ele>
        <time>2020-08-02T07:59:32Z</time>
      </trkpt>
      <trkpt lat="46.154901115223765" lon="8.163355942815542">
        <ele>1954.1700000000001</ele>
        <time>2020-08-02T07:59:53Z</time>
      </trkpt>
      <trkpt lat="46.154900779947639" lon="8.16336122341454">
        <ele>1954.22</ele>
        <time>2020-08-02T08:00:14Z</time>
      </trkpt>
      <trkpt lat="46.154899941757321" lon="8.163360049948096">
        <ele>1955.25</ele>
        <time>2020-08-02T08:00:19Z</time>
      </trkpt>
      <trkpt lat="46.154903965070844" lon="8.163364911451936">
        <ele>1954.52</ele>
        <time>2020-08-02T08:00:39Z</time>
      </trkpt>
      <trkpt lat="46.154908575117588" lon="8.163376143202186">
        <ele>1955.0899999999999</ele>
        <time>2020-08-02T08:00:59Z</time>
      </trkpt>
      <trkpt lat="46.154913352802396" lon="8.163378741592169">
        <ele>1954.6199999999999</ele>
        <time>2020-08-02T08:01:24Z</time>
      </trkpt>
      <trkpt lat="46.154913771897554" lon="8.163379831239581">
        <ele>1950.4100000000001</ele>
        <time>2020-08-02T08:01:32Z</time>
      </trkpt>
      <trkpt lat="46.154913604259491" lon="8.16338025033474">
        <ele>1951.8099999999999</ele>
        <time>2020-08-02T08:01:33Z</time>
      </trkpt>
      <trkpt lat="46.154913017526269" lon="8.163382513448596">
        <ele>1955.4000000000001</ele>
        <time>2020-08-02T08:01:38Z</time>
      </trkpt>
      <trkpt lat="46.154911257326603" lon="8.163385447114706">
        <ele>1962.3</ele>
        <time>2020-08-02T08:01:42Z</time>
      </trkpt>
      <trkpt lat="46.154911173507571" lon="8.163385530933738">
        <ele>1958.23</ele>
        <time>2020-08-02T08:01:43Z</time>
      </trkpt>
      <trkpt lat="46.154911005869508" lon="8.163385111838579">
        <ele>1955.22</ele>
        <time>2020-08-02T08:01:46Z</time>
      </trkpt>
      <trkpt lat="46.15491259843111" lon="8.163374131545425">
        <ele>1954.1900000000001</ele>
        <time>2020-08-02T08:02:06Z</time>
      </trkpt>
      <trkpt lat="46.154914190992713" lon="8.163352757692337">
        <ele>1954</ele>
        <time>2020-08-02T08:02:20Z</time>
      </trkpt>
      <trkpt lat="46.154920728877187" lon="8.163326689973474">
        <ele>1954.1199999999999</ele>
        <time>2020-08-02T08:02:54Z</time>
      </trkpt>
      <trkpt lat="46.154909329488873" lon="8.163313865661621">
        <ele>1954.4300000000001</ele>
        <time>2020-08-02T08:03:27Z</time>
      </trkpt>
      <trkpt lat="46.154916873201728" lon="8.163315877318382">
        <ele>1954.8699999999999</ele>
        <time>2020-08-02T08:04:02Z</time>
      </trkpt>
      <trkpt lat="46.154916789382696" lon="8.16330355592072">
        <ele>1955.0999999999999</ele>
        <time>2020-08-02T08:04:33Z</time>
      </trkpt>
      <trkpt lat="46.154923997819424" lon="8.163322163745761">
        <ele>1955.48</ele>
        <time>2020-08-02T08:04:53Z</time>
      </trkpt>
      <trkpt lat="46.154923159629107" lon="8.163319230079651">
        <ele>1954.6300000000001</ele>
        <time>2020-08-02T08:05:14Z</time>
      </trkpt>
      <trkpt lat="46.154913436621428" lon="8.163325851783156">
        <ele>1954.7</ele>
        <time>2020-08-02T08:05:54Z</time>
      </trkpt>
      <trkpt lat="46.154908491298556" lon="8.163327528163791">
        <ele>1955.3199999999999</ele>
        <time>2020-08-02T08:06:44Z</time>
      </trkpt>
      <trkpt lat="46.15490329451859" lon="8.163315122947097">
        <ele>1956.6900000000001</ele>
        <time>2020-08-02T08:07:16Z</time>
      </trkpt>
      <trkpt lat="46.154909245669842" lon="8.163317805156112">
        <ele>1956.5699999999999</ele>
        <time>2020-08-02T08:07:30Z</time>
      </trkpt>
      <trkpt lat="46.154978480190039" lon="8.163282265886664">
        <ele>1957.7</ele>
        <time>2020-08-02T08:07:40Z</time>
      </trkpt>
      <trkpt lat="46.155007900670171" lon="8.163241781294346">
        <ele>1958.29</ele>
        <time>2020-08-02T08:07:45Z</time>
      </trkpt>
      <trkpt lat="46.15508409217" lon="8.163200709968805">
        <ele>1958.6300000000001</ele>
        <time>2020-08-02T08:07:53Z</time>
      </trkpt>
      <trkpt lat="46.155183166265488" lon="8.163082525134087">
        <ele>1958.73</ele>
        <time>2020-08-02T08:08:07Z</time>
      </trkpt>
      <trkpt lat="46.155172269791365" lon="8.162971129640937">
        <ele>1958.51</ele>
        <time>2020-08-02T08:08:17Z</time>
      </trkpt>
      <trkpt lat="46.155177047476172" lon="8.162863338366151">
        <ele>1958.54</ele>
        <time>2020-08-02T08:08:29Z</time>
      </trkpt>
      <trkpt lat="46.155210575088859" lon="8.162740124389529">
        <ele>1959.6700000000001</ele>
        <time>2020-08-02T08:08:41Z</time>
      </trkpt>
      <trkpt lat="46.155206216499209" lon="8.162712715566158">
        <ele>1959.51</ele>
        <time>2020-08-02T08:08:43Z</time>
      </trkpt>
      <trkpt lat="46.155190793797374" lon="8.162603080272675">
        <ele>1959.3699999999999</ele>
        <time>2020-08-02T08:08:56Z</time>
      </trkpt>
      <trkpt lat="46.155187776312232" lon="8.162578353658319">
        <ele>1959.77</ele>
        <time>2020-08-02T08:09:03Z</time>
      </trkpt>
      <trkpt lat="46.155189033597708" lon="8.162376098334789">
        <ele>1959.48</ele>
        <time>2020-08-02T08:09:16Z</time>
      </trkpt>
      <trkpt lat="46.155201103538275" lon="8.162286579608917">
        <ele>1959.97</ele>
        <time>2020-08-02T08:09:22Z</time>
      </trkpt>
      <trkpt lat="46.15519892424345" lon="8.162258248776197">
        <ele>1960.1400000000001</ele>
        <time>2020-08-02T08:09:24Z</time>
      </trkpt>
      <trkpt lat="46.155206384137273" lon="8.162086335942149">
        <ele>1961.3800000000001</ele>
        <time>2020-08-02T08:09:37Z</time>
      </trkpt>
      <trkpt lat="46.155182579532266" lon="8.161902353167534">
        <ele>1962.3</ele>
        <time>2020-08-02T08:09:51Z</time>
      </trkpt>
      <trkpt lat="46.15519548766315" lon="8.161727003753185">
        <ele>1964.04</ele>
        <time>2020-08-02T08:10:07Z</time>
      </trkpt>
      <trkpt lat="46.155223734676838" lon="8.161608902737498">
        <ele>1965.4200000000001</ele>
        <time>2020-08-02T08:10:18Z</time>
      </trkpt>
      <trkpt lat="46.15524678491056" lon="8.16148191690445">
        <ele>1966.25</ele>
        <time>2020-08-02T08:10:29Z</time>
      </trkpt>
      <trkpt lat="46.155236391350627" lon="8.161456435918808">
        <ele>1966.1700000000001</ele>
        <time>2020-08-02T08:10:39Z</time>
      </trkpt>
      <trkpt lat="46.155254580080509" lon="8.161369180306792">
        <ele>1966.8699999999999</ele>
        <time>2020-08-02T08:10:52Z</time>
      </trkpt>
      <trkpt lat="46.155327502638102" lon="8.161257449537516">
        <ele>1968.8199999999999</ele>
        <time>2020-08-02T08:11:07Z</time>
      </trkpt>
      <trkpt lat="46.155345942825079" lon="8.161130966618657">
        <ele>1970.55</ele>
        <time>2020-08-02T08:11:21Z</time>
      </trkpt>
      <trkpt lat="46.155393803492188" lon="8.160987384617329">
        <ele>1972.1700000000001</ele>
        <time>2020-08-02T08:11:37Z</time>
      </trkpt>
      <trkpt lat="46.155400173738599" lon="8.160866936668754">
        <ele>1974.6300000000001</ele>
        <time>2020-08-02T08:11:52Z</time>
      </trkpt>
      <trkpt lat="46.155471922829747" lon="8.160799378529191">
        <ele>1976.4200000000001</ele>
        <time>2020-08-02T08:12:07Z</time>
      </trkpt>
      <trkpt lat="46.155515173450112" lon="8.160729054361582">
        <ele>1978.25</ele>
        <time>2020-08-02T08:12:20Z</time>
      </trkpt>
      <trkpt lat="46.155569488182664" lon="8.160664178431034">
        <ele>1979.6099999999999</ele>
        <time>2020-08-02T08:12:32Z</time>
      </trkpt>
      <trkpt lat="46.15565431304276" lon="8.160639116540551">
        <ele>1980.49</ele>
        <time>2020-08-02T08:12:45Z</time>
      </trkpt>
      <trkpt lat="46.1557178478688" lon="8.160557979717851">
        <ele>1980.9100000000001</ele>
        <time>2020-08-02T08:12:56Z</time>
      </trkpt>
      <trkpt lat="46.155735701322556" lon="8.160467706620693">
        <ele>1982.4400000000001</ele>
        <time>2020-08-02T08:13:08Z</time>
      </trkpt>
      <trkpt lat="46.155736455693841" lon="8.160387743264437">
        <ele>1984.1500000000001</ele>
        <time>2020-08-02T08:13:20Z</time>
      </trkpt>
      <trkpt lat="46.1557403113693" lon="8.160319598391652">
        <ele>1986.22</ele>
        <time>2020-08-02T08:13:31Z</time>
      </trkpt>
      <trkpt lat="46.155763948336244" lon="8.16022077575326">
        <ele>1987.51</ele>
        <time>2020-08-02T08:13:44Z</time>
      </trkpt>
      <trkpt lat="46.155819185078144" lon="8.160106530413032">
        <ele>1989.5</ele>
        <time>2020-08-02T08:13:57Z</time>
      </trkpt>
      <trkpt lat="46.155864698812366" lon="8.160033440217376">
        <ele>1991.2</ele>
        <time>2020-08-02T08:14:09Z</time>
      </trkpt>
      <trkpt lat="46.155923875048757" lon="8.159944424405694">
        <ele>1992.0899999999999</ele>
        <time>2020-08-02T08:14:21Z</time>
      </trkpt>
      <trkpt lat="46.155960420146585" lon="8.159862784668803">
        <ele>1992.6600000000001</ele>
        <time>2020-08-02T08:14:31Z</time>
      </trkpt>
      <trkpt lat="46.155994366854429" lon="8.159732948988676">
        <ele>1994.3299999999999</ele>
        <time>2020-08-02T08:14:46Z</time>
      </trkpt>
      <trkpt lat="46.156042143702507" lon="8.159732613712549">
        <ele>1995.6300000000001</ele>
        <time>2020-08-02T08:14:59Z</time>
      </trkpt>
      <trkpt lat="46.15602420642972" lon="8.159680981189013">
        <ele>1995.3099999999999</ele>
        <time>2020-08-02T08:15:13Z</time>
      </trkpt>
      <trkpt lat="46.15605840459466" lon="8.159606968984008">
        <ele>1994.53</ele>
        <time>2020-08-02T08:15:29Z</time>
      </trkpt>
      <trkpt lat="46.156088579446077" lon="8.159570256248117">
        <ele>1994.0699999999999</ele>
        <time>2020-08-02T08:15:39Z</time>
      </trkpt>
      <trkpt lat="46.156094446778297" lon="8.159499680623412">
        <ele>1993.04</ele>
        <time>2020-08-02T08:15:50Z</time>
      </trkpt>
      <trkpt lat="46.156128058210015" lon="8.159437738358975">
        <ele>1990.9400000000001</ele>
        <time>2020-08-02T08:16:00Z</time>
      </trkpt>
      <trkpt lat="46.156184300780296" lon="8.159334724768996">
        <ele>1988.27</ele>
        <time>2020-08-02T08:16:12Z</time>
      </trkpt>
      <trkpt lat="46.156194023787975" lon="8.159308824688196">
        <ele>1987.8599999999999</ele>
        <time>2020-08-02T08:16:14Z</time>
      </trkpt>
      <trkpt lat="46.156283793970942" lon="8.159132385626435">
        <ele>1987.3599999999999</ele>
        <time>2020-08-02T08:16:31Z</time>
      </trkpt>
      <trkpt lat="46.156292846426368" lon="8.159104054793716">
        <ele>1987.51</ele>
        <time>2020-08-02T08:16:34Z</time>
      </trkpt>
      <trkpt lat="46.156324613839388" lon="8.159039011225104">
        <ele>1987.73</ele>
        <time>2020-08-02T08:16:45Z</time>
      </trkpt>
      <trkpt lat="46.156332073733211" lon="8.15899676643312">
        <ele>1987.51</ele>
        <time>2020-08-02T08:17:02Z</time>
      </trkpt>
      <trkpt lat="46.156382616609335" lon="8.158892998471856">
        <ele>1987.51</ele>
        <time>2020-08-02T08:17:15Z</time>
      </trkpt>
      <trkpt lat="46.15640482865274" lon="8.158881599083543">
        <ele>1987.8299999999999</ele>
        <time>2020-08-02T08:17:27Z</time>
      </trkpt>
      <trkpt lat="46.15641413256526" lon="8.158877743408084">
        <ele>1987.9000000000001</ele>
        <time>2020-08-02T08:17:39Z</time>
      </trkpt>
      <trkpt lat="46.15644539706409" lon="8.158868942409754">
        <ele>1988.6500000000001</ele>
        <time>2020-08-02T08:17:44Z</time>
      </trkpt>
      <trkpt lat="46.156506165862083" lon="8.15883306786418">
        <ele>1990.74</ele>
        <time>2020-08-02T08:17:57Z</time>
      </trkpt>
      <trkpt lat="46.156500717625022" lon="8.15877397544682">
        <ele>1991.4000000000001</ele>
        <time>2020-08-02T08:18:19Z</time>
      </trkpt>
      <trkpt lat="46.156516810879111" lon="8.158782357349992">
        <ele>1991.6600000000001</ele>
        <time>2020-08-02T08:18:33Z</time>
      </trkpt>
      <trkpt lat="46.156537178903818" lon="8.158875731751323">
        <ele>1991.54</ele>
        <time>2020-08-02T08:18:41Z</time>
      </trkpt>
      <trkpt lat="46.156554194167256" lon="8.158959969878197">
        <ele>1990.8199999999999</ele>
        <time>2020-08-02T08:18:47Z</time>
      </trkpt>
      <trkpt lat="46.156609430909157" lon="8.159136325120926">
        <ele>1990.75</ele>
        <time>2020-08-02T08:19:00Z</time>
      </trkpt>
      <trkpt lat="46.156626529991627" lon="8.15916926600039">
        <ele>1990.04</ele>
        <time>2020-08-02T08:19:16Z</time>
      </trkpt>
      <trkpt lat="46.15663742646575" lon="8.15921226516366">
        <ele>1989.26</ele>
        <time>2020-08-02T08:19:31Z</time>
      </trkpt>
      <trkpt lat="46.15663549862802" lon="8.159221485257149">
        <ele>1989.53</ele>
        <time>2020-08-02T08:19:48Z</time>
      </trkpt>
      <trkpt lat="46.156682102009654" lon="8.159264149144292">
        <ele>1988.8800000000001</ele>
        <time>2020-08-02T08:19:58Z</time>
      </trkpt>
      <trkpt lat="46.156657291576266" lon="8.159253923222423">
        <ele>1988.79</ele>
        <time>2020-08-02T08:20:20Z</time>
      </trkpt>
      <trkpt lat="46.156616723164916" lon="8.159201284870505">
        <ele>1990.5999999999999</ele>
        <time>2020-08-02T08:20:33Z</time>
      </trkpt>
      <trkpt lat="46.15660909563303" lon="8.159186029806733">
        <ele>1990.6400000000001</ele>
        <time>2020-08-02T08:20:49Z</time>
      </trkpt>
      <trkpt lat="46.156594343483448" lon="8.15915216691792">
        <ele>1991.1199999999999</ele>
        <time>2020-08-02T08:21:02Z</time>
      </trkpt>
      <trkpt lat="46.156553355976939" lon="8.159110173583031">
        <ele>1991.28</ele>
        <time>2020-08-02T08:21:13Z</time>
      </trkpt>
      <trkpt lat="46.156577495858073" lon="8.159117717295885">
        <ele>1991.5599999999999</ele>
        <time>2020-08-02T08:21:28Z</time>
      </trkpt>
      <trkpt lat="46.156582189723849" lon="8.159073125571013">
        <ele>1991.2</ele>
        <time>2020-08-02T08:21:49Z</time>
      </trkpt>
      <trkpt lat="46.1565553676337" lon="8.158955024555326">
        <ele>1991.8199999999999</ele>
        <time>2020-08-02T08:22:02Z</time>
      </trkpt>
      <trkpt lat="46.156530641019344" lon="8.158860560506582">
        <ele>1992.27</ele>
        <time>2020-08-02T08:22:14Z</time>
      </trkpt>
      <trkpt lat="46.156480433419347" lon="8.158866846933961">
        <ele>1991.77</ele>
        <time>2020-08-02T08:22:27Z</time>
      </trkpt>
      <trkpt lat="46.156480014324188" lon="8.158863745629787">
        <ele>1991.8499999999999</ele>
        <time>2020-08-02T08:22:40Z</time>
      </trkpt>
      <trkpt lat="46.156479176133871" lon="8.15887656994164">
        <ele>1992.04</ele>
        <time>2020-08-02T08:22:56Z</time>
      </trkpt>
      <trkpt lat="46.156483702361584" lon="8.158888053148985">
        <ele>1992.02</ele>
        <time>2020-08-02T08:23:16Z</time>
      </trkpt>
      <trkpt lat="46.156484372913837" lon="8.158862069249153">
        <ele>1992</ele>
        <time>2020-08-02T08:23:31Z</time>
      </trkpt>
      <trkpt lat="46.156484708189964" lon="8.158860392868519">
        <ele>1991.76</ele>
        <time>2020-08-02T08:23:52Z</time>
      </trkpt>
      <trkpt lat="46.156487725675106" lon="8.158860476687551">
        <ele>1991.6099999999999</ele>
        <time>2020-08-02T08:24:09Z</time>
      </trkpt>
      <trkpt lat="46.156495017930865" lon="8.158845053985715">
        <ele>1991.8699999999999</ele>
        <time>2020-08-02T08:24:37Z</time>
      </trkpt>
      <trkpt lat="46.156493257731199" lon="8.158841282129288">
        <ele>1992.1600000000001</ele>
        <time>2020-08-02T08:25:00Z</time>
      </trkpt>
      <trkpt lat="46.156495604664087" lon="8.158851508051157">
        <ele>1992.03</ele>
        <time>2020-08-02T08:25:25Z</time>
      </trkpt>
      <trkpt lat="46.156493593007326" lon="8.158848658204079">
        <ele>1992.0599999999999</ele>
        <time>2020-08-02T08:25:52Z</time>
      </trkpt>
      <trkpt lat="46.156488815322518" lon="8.158854190260172">
        <ele>1992.1400000000001</ele>
        <time>2020-08-02T08:26:19Z</time>
      </trkpt>
      <trkpt lat="46.156476829200983" lon="8.158847903832793">
        <ele>1992.6600000000001</ele>
        <time>2020-08-02T08:26:45Z</time>
      </trkpt>
      <trkpt lat="46.156509937718511" lon="8.158884784206748">
        <ele>1992.6900000000001</ele>
        <time>2020-08-02T08:26:56Z</time>
      </trkpt>
      <trkpt lat="46.156519828364253" lon="8.158882185816765">
        <ele>1992</ele>
        <time>2020-08-02T08:27:09Z</time>
      </trkpt>
      <trkpt lat="46.156528880819678" lon="8.158883778378367">
        <ele>1991.6800000000001</ele>
        <time>2020-08-02T08:27:37Z</time>
      </trkpt>
      <trkpt lat="46.156537346541882" lon="8.158876234665513">
        <ele>1992.1400000000001</ele>
        <time>2020-08-02T08:28:15Z</time>
      </trkpt>
      <trkpt lat="46.15653432905674" lon="8.158878078684211">
        <ele>1992.26</ele>
        <time>2020-08-02T08:28:30Z</time>
      </trkpt>
      <trkpt lat="46.156514547765255" lon="8.15888294018805">
        <ele>1992.04</ele>
        <time>2020-08-02T08:29:03Z</time>
      </trkpt>
      <trkpt lat="46.156503399834037" lon="8.158878162503243">
        <ele>1992.0799999999999</ele>
        <time>2020-08-02T08:29:41Z</time>
      </trkpt>
      <trkpt lat="46.156496861949563" lon="8.15888294018805">
        <ele>1991.71</ele>
        <time>2020-08-02T08:30:18Z</time>
      </trkpt>
      <trkpt lat="46.156497281044722" lon="8.158880760893226">
        <ele>1992.21</ele>
        <time>2020-08-02T08:31:02Z</time>
      </trkpt>
      <trkpt lat="46.15650306455791" lon="8.15888537093997">
        <ele>1992.4400000000001</ele>
        <time>2020-08-02T08:31:55Z</time>
      </trkpt>
      <trkpt lat="46.156497951596975" lon="8.158885454759002">
        <ele>1992.8199999999999</ele>
        <time>2020-08-02T08:32:41Z</time>
      </trkpt>
      <trkpt lat="46.156501639634371" lon="8.158882269635797">
        <ele>1993.4000000000001</ele>
        <time>2020-08-02T08:33:18Z</time>
      </trkpt>
      <trkpt lat="46.156512787565589" lon="8.158898279070854">
        <ele>1993.3399999999999</ele>
        <time>2020-08-02T08:33:53Z</time>
      </trkpt>
      <trkpt lat="46.156519241631031" lon="8.158899452537298">
        <ele>1993.24</ele>
        <time>2020-08-02T08:34:49Z</time>
      </trkpt>
      <trkpt lat="46.156517146155238" lon="8.158895596861839">
        <ele>1992.96</ele>
        <time>2020-08-02T08:35:42Z</time>
      </trkpt>
      <trkpt lat="46.156516978517175" lon="8.158910516649485">
        <ele>1993.48</ele>
        <time>2020-08-02T08:36:32Z</time>
      </trkpt>
      <trkpt lat="46.156517062336206" lon="8.158910600468516">
        <ele>1993.76</ele>
        <time>2020-08-02T08:37:20Z</time>
      </trkpt>
      <trkpt lat="46.1565225943923" lon="8.158911522477865">
        <ele>1993.8299999999999</ele>
        <time>2020-08-02T08:38:09Z</time>
      </trkpt>
      <trkpt lat="46.156518487259746" lon="8.1589131988585">
        <ele>1994.1700000000001</ele>
        <time>2020-08-02T08:39:00Z</time>
      </trkpt>
      <trkpt lat="46.156518319621682" lon="8.15890540368855">
        <ele>1993.6300000000001</ele>
        <time>2020-08-02T08:39:51Z</time>
      </trkpt>
      <trkpt lat="46.156522091478109" lon="8.158906241878867">
        <ele>1993.96</ele>
        <time>2020-08-02T08:40:45Z</time>
      </trkpt>
      <trkpt lat="46.156524941325188" lon="8.158900374546647">
        <ele>1993.99</ele>
        <time>2020-08-02T08:41:27Z</time>
      </trkpt>
      <trkpt lat="46.156517397612333" lon="8.158901296555996">
        <ele>1993.76</ele>
        <time>2020-08-02T08:42:25Z</time>
      </trkpt>
      <trkpt lat="46.156511530280113" lon="8.158903475850821">
        <ele>1993.6500000000001</ele>
        <time>2020-08-02T08:43:12Z</time>
      </trkpt>
      <trkpt lat="46.156522259116173" lon="8.158908002078533">
        <ele>1993.78</ele>
        <time>2020-08-02T08:44:06Z</time>
      </trkpt>
      <trkpt lat="46.156523013487458" lon="8.158910181373358">
        <ele>1994.1300000000001</ele>
        <time>2020-08-02T08:45:01Z</time>
      </trkpt>
      <trkpt lat="46.156520247459412" lon="8.158907331526279">
        <ele>1994.03</ele>
        <time>2020-08-02T08:46:04Z</time>
      </trkpt>
      <trkpt lat="46.156518403440714" lon="8.158899284899235">
        <ele>1993.6900000000001</ele>
        <time>2020-08-02T08:47:04Z</time>
      </trkpt>
      <trkpt lat="46.156534915789962" lon="8.158911103382707">
        <ele>1994.4300000000001</ele>
        <time>2020-08-02T08:47:55Z</time>
      </trkpt>
      <trkpt lat="46.156538855284452" lon="8.158900458365679">
        <ele>1995.24</ele>
        <time>2020-08-02T08:48:09Z</time>
      </trkpt>
      <trkpt lat="46.156549248844385" lon="8.15887656994164">
        <ele>1995.52</ele>
        <time>2020-08-02T08:48:25Z</time>
      </trkpt>
      <trkpt lat="46.156540783122182" lon="8.158753691241145">
        <ele>1995.9400000000001</ele>
        <time>2020-08-02T08:48:38Z</time>
      </trkpt>
      <trkpt lat="46.156488060951233" lon="8.158652689307928">
        <ele>1996.3900000000001</ele>
        <time>2020-08-02T08:48:51Z</time>
      </trkpt>
      <trkpt lat="46.156428381800652" lon="8.158634416759014">
        <ele>1996.3900000000001</ele>
        <time>2020-08-02T08:49:02Z</time>
      </trkpt>
      <trkpt lat="46.156471464782953" lon="8.158635338768363">
        <ele>1996.3599999999999</ele>
        <time>2020-08-02T08:49:13Z</time>
      </trkpt>
      <trkpt lat="46.156535251066089" lon="8.158615054562688">
        <ele>1996.53</ele>
        <time>2020-08-02T08:49:23Z</time>
      </trkpt>
      <trkpt lat="46.156704146414995" lon="8.158548921346664">
        <ele>1996.9200000000001</ele>
        <time>2020-08-02T08:49:40Z</time>
      </trkpt>
      <trkpt lat="46.156750665977597" lon="8.158559398725629">
        <ele>1997.3199999999999</ele>
        <time>2020-08-02T08:49:49Z</time>
      </trkpt>
      <trkpt lat="46.156850829720497" lon="8.158608349040151">
        <ele>1997.8900000000001</ele>
        <time>2020-08-02T08:50:00Z</time>
      </trkpt>
      <trkpt lat="46.157020898535848" lon="8.15864791162312">
        <ele>1998.4200000000001</ele>
        <time>2020-08-02T08:50:16Z</time>
      </trkpt>
      <trkpt lat="46.157167078927159" lon="8.158549340441823">
        <ele>1998.46</ele>
        <time>2020-08-02T08:50:32Z</time>
      </trkpt>
      <trkpt lat="46.15729515440762" lon="8.158379103988409">
        <ele>1998.3199999999999</ele>
        <time>2020-08-02T08:50:49Z</time>
      </trkpt>
      <trkpt lat="46.157435048371553" lon="8.15829461440444">
        <ele>1998.76</ele>
        <time>2020-08-02T08:51:04Z</time>
      </trkpt>
      <trkpt lat="46.157547868788242" lon="8.158284556120634">
        <ele>1999.77</ele>
        <time>2020-08-02T08:51:18Z</time>
      </trkpt>
      <trkpt lat="46.15755457431078" lon="8.158282963559032">
        <ele>1999.8699999999999</ele>
        <time>2020-08-02T08:51:19Z</time>
      </trkpt>
      <trkpt lat="46.157730426639318" lon="8.158257817849517">
        <ele>1999.6199999999999</ele>
        <time>2020-08-02T08:51:36Z</time>
      </trkpt>
      <trkpt lat="46.157882306724787" lon="8.158204173669219">
        <ele>2000.6099999999999</ele>
        <time>2020-08-02T08:51:52Z</time>
      </trkpt>
      <trkpt lat="46.158017087727785" lon="8.158170729875565">
        <ele>2002.7</ele>
        <time>2020-08-02T08:52:06Z</time>
      </trkpt>
      <trkpt lat="46.158112892881036" lon="8.158126724883914">
        <ele>2003.3299999999999</ele>
        <time>2020-08-02T08:52:17Z</time>
      </trkpt>
      <trkpt lat="46.158218672499061" lon="8.158037206158042">
        <ele>2004.9100000000001</ele>
        <time>2020-08-02T08:52:30Z</time>
      </trkpt>
      <trkpt lat="46.158336689695716" lon="8.157973671332002">
        <ele>2006.3</ele>
        <time>2020-08-02T08:52:44Z</time>
      </trkpt>
      <trkpt lat="46.158451689407229" lon="8.157882560044527">
        <ele>2007.8</ele>
        <time>2020-08-02T08:52:59Z</time>
      </trkpt>
      <trkpt lat="46.158600300550461" lon="8.157798489555717">
        <ele>2008.4200000000001</ele>
        <time>2020-08-02T08:53:15Z</time>
      </trkpt>
      <trkpt lat="46.158772800117731" lon="8.157674940302968">
        <ele>2007.95</ele>
        <time>2020-08-02T08:53:32Z</time>
      </trkpt>
      <trkpt lat="46.158911939710379" lon="8.157483246177435">
        <ele>2005.9100000000001</ele>
        <time>2020-08-02T08:53:48Z</time>
      </trkpt>
      <trkpt lat="46.15907127968967" lon="8.157278727740049">
        <ele>2005.72</ele>
        <time>2020-08-02T08:54:05Z</time>
      </trkpt>
      <trkpt lat="46.159262889996171" lon="8.157153502106667">
        <ele>2005.8099999999999</ele>
        <time>2020-08-02T08:54:22Z</time>
      </trkpt>
      <trkpt lat="46.159410327672958" lon="8.157284678891301">
        <ele>2007.0999999999999</ele>
        <time>2020-08-02T08:54:37Z</time>
      </trkpt>
      <trkpt lat="46.159576289355755" lon="8.157399594783783">
        <ele>2008.9000000000001</ele>
        <time>2020-08-02T08:54:55Z</time>
      </trkpt>
      <trkpt lat="46.159704700112343" lon="8.157465225085616">
        <ele>2010.47</ele>
        <time>2020-08-02T08:55:09Z</time>
      </trkpt>
      <trkpt lat="46.159752812236547" lon="8.157446198165417">
        <ele>2010.8199999999999</ele>
        <time>2020-08-02T08:55:14Z</time>
      </trkpt>
      <trkpt lat="46.159793045371771" lon="8.157372940331698">
        <ele>2010.6800000000001</ele>
        <time>2020-08-02T08:55:21Z</time>
      </trkpt>
      <trkpt lat="46.159836463630199" lon="8.15715853124857">
        <ele>2011.0699999999999</ele>
        <time>2020-08-02T08:55:36Z</time>
      </trkpt>
      <trkpt lat="46.159929921850562" lon="8.156914282590151">
        <ele>2011.46</ele>
        <time>2020-08-02T08:55:54Z</time>
      </trkpt>
      <trkpt lat="46.160086495801806" lon="8.156766509637237">
        <ele>2011.9100000000001</ele>
        <time>2020-08-02T08:56:11Z</time>
      </trkpt>
      <trkpt lat="46.160205770283937" lon="8.156722672283649">
        <ele>2011.99</ele>
        <time>2020-08-02T08:56:23Z</time>
      </trkpt>
      <trkpt lat="46.160346502438188" lon="8.156674476340413">
        <ele>2012.7</ele>
        <time>2020-08-02T08:56:39Z</time>
      </trkpt>
      <trkpt lat="46.160515146329999" lon="8.156650001183152">
        <ele>2013.3199999999999</ele>
        <time>2020-08-02T08:56:56Z</time>
      </trkpt>
      <trkpt lat="46.160634001716971" lon="8.1566855404526">
        <ele>2014.52</ele>
        <time>2020-08-02T08:57:10Z</time>
      </trkpt>
      <trkpt lat="46.160732908174396" lon="8.156670536845923">
        <ele>2015.8800000000001</ele>
        <time>2020-08-02T08:57:24Z</time>
      </trkpt>
      <trkpt lat="46.160740619525313" lon="8.15663767978549">
        <ele>2016.28</ele>
        <time>2020-08-02T08:57:38Z</time>
      </trkpt>
      <trkpt lat="46.160765932872891" lon="8.156542545184493">
        <ele>2016.96</ele>
        <time>2020-08-02T08:57:46Z</time>
      </trkpt>
      <trkpt lat="46.160768950358033" lon="8.156514130532742">
        <ele>2017.1700000000001</ele>
        <time>2020-08-02T08:57:48Z</time>
      </trkpt>
      <trkpt lat="46.16077858954668" lon="8.156487559899688">
        <ele>2017.1199999999999</ele>
        <time>2020-08-02T08:57:50Z</time>
      </trkpt>
      <trkpt lat="46.160889230668545" lon="8.156364178285003">
        <ele>2019.3199999999999</ele>
        <time>2020-08-02T08:58:07Z</time>
      </trkpt>
      <trkpt lat="46.160956285893917" lon="8.156268959864974">
        <ele>2021.26</ele>
        <time>2020-08-02T08:58:21Z</time>
      </trkpt>
      <trkpt lat="46.160984029993415" lon="8.156168209388852">
        <ele>2023.3800000000001</ele>
        <time>2020-08-02T08:58:33Z</time>
      </trkpt>
      <trkpt lat="46.161019820719957" lon="8.156054131686688">
        <ele>2024.5899999999999</ele>
        <time>2020-08-02T08:58:46Z</time>
      </trkpt>
      <trkpt lat="46.161057120189071" lon="8.155965451151133">
        <ele>2025.8699999999999</ele>
        <time>2020-08-02T08:58:58Z</time>
      </trkpt>
      <trkpt lat="46.161078829318285" lon="8.155931755900383">
        <ele>2026.1199999999999</ele>
        <time>2020-08-02T08:59:02Z</time>
      </trkpt>
      <trkpt lat="46.161158205941319" lon="8.155811140313745">
        <ele>2027.3399999999999</ele>
        <time>2020-08-02T08:59:17Z</time>
      </trkpt>
      <trkpt lat="46.161204725503922" lon="8.155715502798557">
        <ele>2028.5599999999999</ele>
        <time>2020-08-02T08:59:30Z</time>
      </trkpt>
      <trkpt lat="46.16127111017704" lon="8.155665379017592">
        <ele>2030.3900000000001</ele>
        <time>2020-08-02T08:59:43Z</time>
      </trkpt>
      <trkpt lat="46.161320144310594" lon="8.155630007386208">
        <ele>2031.0899999999999</ele>
        <time>2020-08-02T08:59:55Z</time>
      </trkpt>
      <trkpt lat="46.161352246999741" lon="8.155528753995895">
        <ele>2032.96</ele>
        <time>2020-08-02T09:00:09Z</time>
      </trkpt>
      <trkpt lat="46.161383427679539" lon="8.155381986871362">
        <ele>2035.0799999999999</ele>
        <time>2020-08-02T09:00:26Z</time>
      </trkpt>
      <trkpt lat="46.161415781825781" lon="8.155277883633971">
        <ele>2037.1500000000001</ele>
        <time>2020-08-02T09:00:40Z</time>
      </trkpt>
      <trkpt lat="46.161442017182708" lon="8.155184257775545">
        <ele>2038.71</ele>
        <time>2020-08-02T09:00:53Z</time>
      </trkpt>
      <trkpt lat="46.161470683291554" lon="8.155058780685067">
        <ele>2040.8499999999999</ele>
        <time>2020-08-02T09:01:08Z</time>
      </trkpt>
      <trkpt lat="46.161563554778695" lon="8.15500027500093">
        <ele>2044.05</ele>
        <time>2020-08-02T09:01:25Z</time>
      </trkpt>
      <trkpt lat="46.161679476499557" lon="8.154930034652352">
        <ele>2046.6600000000001</ele>
        <time>2020-08-02T09:01:44Z</time>
      </trkpt>
      <trkpt lat="46.161791207268834" lon="8.154878318309784">
        <ele>2048.0700000000002</ele>
        <time>2020-08-02T09:02:01Z</time>
      </trkpt>
      <trkpt lat="46.161900591105223" lon="8.154906313866377">
        <ele>2049.52</ele>
        <time>2020-08-02T09:02:16Z</time>
      </trkpt>
      <trkpt lat="46.161950631067157" lon="8.154929783195257">
        <ele>2049.9000000000001</ele>
        <time>2020-08-02T09:02:27Z</time>
      </trkpt>
      <trkpt lat="46.162029337137938" lon="8.15488351508975">
        <ele>2050.71</ele>
        <time>2020-08-02T09:02:38Z</time>
      </trkpt>
      <trkpt lat="46.162151712924242" lon="8.1547945830971">
        <ele>2052.6900000000001</ele>
        <time>2020-08-02T09:02:56Z</time>
      </trkpt>
      <trkpt lat="46.162252966314554" lon="8.154777400195599">
        <ele>2053.4499999999998</ele>
        <time>2020-08-02T09:03:08Z</time>
      </trkpt>
      <trkpt lat="46.162404343485832" lon="8.15478284843266">
        <ele>2053.7600000000002</ele>
        <time>2020-08-02T09:03:24Z</time>
      </trkpt>
      <trkpt lat="46.1625303234905" lon="8.154738591983914">
        <ele>2054.54</ele>
        <time>2020-08-02T09:03:40Z</time>
      </trkpt>
      <trkpt lat="46.162551613524556" lon="8.154746051877737">
        <ele>2053.8699999999999</ele>
        <time>2020-08-02T09:03:55Z</time>
      </trkpt>
      <trkpt lat="46.16255178116262" lon="8.154747728258371">
        <ele>2055.9699999999998</ele>
        <time>2020-08-02T09:03:57Z</time>
      </trkpt>
      <trkpt lat="46.162550859153271" lon="8.154747309163213">
        <ele>2054.3899999999999</ele>
        <time>2020-08-02T09:04:00Z</time>
      </trkpt>
      <trkpt lat="46.162630738690495" lon="8.154726270586252">
        <ele>2054.1700000000001</ele>
        <time>2020-08-02T09:04:11Z</time>
      </trkpt>
      <trkpt lat="46.162762334570289" lon="8.154735406860709">
        <ele>2056.5900000000001</ele>
        <time>2020-08-02T09:04:28Z</time>
      </trkpt>
      <trkpt lat="46.162889152765274" lon="8.15473884344101">
        <ele>2058.73</ele>
        <time>2020-08-02T09:04:46Z</time>
      </trkpt>
      <trkpt lat="46.162974229082465" lon="8.154722917824984">
        <ele>2060.8899999999999</ele>
        <time>2020-08-02T09:05:01Z</time>
      </trkpt>
      <trkpt lat="46.16306290961802" lon="8.15464555285871">
        <ele>2062.8499999999999</ele>
        <time>2020-08-02T09:05:19Z</time>
      </trkpt>
      <trkpt lat="46.163146225735545" lon="8.154599955305457">
        <ele>2064.6199999999999</ele>
        <time>2020-08-02T09:05:34Z</time>
      </trkpt>
      <trkpt lat="46.163222333416343" lon="8.154616551473737">
        <ele>2066.2199999999998</ele>
        <time>2020-08-02T09:05:48Z</time>
      </trkpt>
      <trkpt lat="46.163288885727525" lon="8.154627699404955">
        <ele>2068.6900000000001</ele>
        <time>2020-08-02T09:06:02Z</time>
      </trkpt>
      <trkpt lat="46.163344960659742" lon="8.154617808759213">
        <ele>2071.1500000000001</ele>
        <time>2020-08-02T09:06:14Z</time>
      </trkpt>
      <trkpt lat="46.163439089432359" lon="8.15456734970212">
        <ele>2072.8099999999999</ele>
        <time>2020-08-02T09:06:29Z</time>
      </trkpt>
      <trkpt lat="46.16355056874454" lon="8.154607582837343">
        <ele>2072.8600000000001</ele>
        <time>2020-08-02T09:06:43Z</time>
      </trkpt>
      <trkpt lat="46.163647631183267" lon="8.154583862051368">
        <ele>2074.52</ele>
        <time>2020-08-02T09:06:58Z</time>
      </trkpt>
      <trkpt lat="46.163759529590607" lon="8.154554273933172">
        <ele>2076.5</ele>
        <time>2020-08-02T09:07:14Z</time>
      </trkpt>
      <trkpt lat="46.163861034438014" lon="8.154460564255714">
        <ele>2077.6300000000001</ele>
        <time>2020-08-02T09:07:29Z</time>
      </trkpt>
      <trkpt lat="46.164021966978908" lon="8.154286639764905">
        <ele>2076.4400000000001</ele>
        <time>2020-08-02T09:07:46Z</time>
      </trkpt>
      <trkpt lat="46.164145767688751" lon="8.154170550405979">
        <ele>2076.23</ele>
        <time>2020-08-02T09:08:02Z</time>
      </trkpt>
      <trkpt lat="46.164178121834993" lon="8.154043816030026">
        <ele>2076.77</ele>
        <time>2020-08-02T09:08:13Z</time>
      </trkpt>
      <trkpt lat="46.164282141253352" lon="8.153966031968594">
        <ele>2077.02</ele>
        <time>2020-08-02T09:08:29Z</time>
      </trkpt>
      <trkpt lat="46.164351794868708" lon="8.153909454122186">
        <ele>2076.3400000000001</ele>
        <time>2020-08-02T09:08:39Z</time>
      </trkpt>
      <trkpt lat="46.164374174550176" lon="8.153865868225694">
        <ele>2076.2399999999998</ele>
        <time>2020-08-02T09:08:44Z</time>
      </trkpt>
      <trkpt lat="46.164466878399253" lon="8.153791017830372">
        <ele>2076.6799999999998</ele>
        <time>2020-08-02T09:08:58Z</time>
      </trkpt>
      <trkpt lat="46.164479199796915" lon="8.153779869899154">
        <ele>2076.6300000000001</ele>
        <time>2020-08-02T09:09:03Z</time>
      </trkpt>
      <trkpt lat="46.16452245041728" lon="8.153775678947568">
        <ele>2076.21</ele>
        <time>2020-08-02T09:09:14Z</time>
      </trkpt>
      <trkpt lat="46.164551116526127" lon="8.15376989543438">
        <ele>2076.0999999999999</ele>
        <time>2020-08-02T09:09:17Z</time>
      </trkpt>
      <trkpt lat="46.164701236411929" lon="8.153745839372277">
        <ele>2076.77</ele>
        <time>2020-08-02T09:09:34Z</time>
      </trkpt>
      <trkpt lat="46.164837526157498" lon="8.153689596801996">
        <ele>2077.1300000000001</ele>
        <time>2020-08-02T09:09:50Z</time>
      </trkpt>
      <trkpt lat="46.164940455928445" lon="8.153628576546907">
        <ele>2077.3499999999999</ele>
        <time>2020-08-02T09:10:05Z</time>
      </trkpt>
      <trkpt lat="46.164949676021934" lon="8.153627654537559">
        <ele>2077.0599999999999</ele>
        <time>2020-08-02T09:10:17Z</time>
      </trkpt>
      <trkpt lat="46.164981191977859" lon="8.153620529919863">
        <ele>2077.0599999999999</ele>
        <time>2020-08-02T09:10:20Z</time>
      </trkpt>
      <trkpt lat="46.165121840313077" lon="8.153540566563606">
        <ele>2077.2199999999998</ele>
        <time>2020-08-02T09:10:35Z</time>
      </trkpt>
      <trkpt lat="46.165182022377849" lon="8.153491532430053">
        <ele>2077.2199999999998</ele>
        <time>2020-08-02T09:10:45Z</time>
      </trkpt>
      <trkpt lat="46.16526123136282" lon="8.153430176898837">
        <ele>2077.0100000000002</ele>
        <time>2020-08-02T09:10:56Z</time>
      </trkpt>
      <trkpt lat="46.165364161133766" lon="8.153386004269123">
        <ele>2078.9000000000001</ele>
        <time>2020-08-02T09:11:11Z</time>
      </trkpt>
      <trkpt lat="46.165442867204547" lon="8.153284834697843">
        <ele>2081.9200000000001</ele>
        <time>2020-08-02T09:11:28Z</time>
      </trkpt>
      <trkpt lat="46.165489889681339" lon="8.15318064764142">
        <ele>2085.0900000000001</ele>
        <time>2020-08-02T09:11:45Z</time>
      </trkpt>
      <trkpt lat="46.165543030947447" lon="8.153094230219722">
        <ele>2087.6700000000001</ele>
        <time>2020-08-02T09:12:01Z</time>
      </trkpt>
      <trkpt lat="46.165538169443607" lon="8.152998341247439">
        <ele>2089.46</ele>
        <time>2020-08-02T09:12:16Z</time>
      </trkpt>
      <trkpt lat="46.165534229949117" lon="8.152910247445107">
        <ele>2090.6399999999999</ele>
        <time>2020-08-02T09:12:30Z</time>
      </trkpt>
      <trkpt lat="46.165543701499701" lon="8.15273841843009">
        <ele>2092.9699999999998</ele>
        <time>2020-08-02T09:12:48Z</time>
      </trkpt>
      <trkpt lat="46.165573038160801" lon="8.152583101764321">
        <ele>2095.9200000000001</ele>
        <time>2020-08-02T09:13:05Z</time>
      </trkpt>
      <trkpt lat="46.165635148063302" lon="8.152409428730607">
        <ele>2098.29</ele>
        <time>2020-08-02T09:13:25Z</time>
      </trkpt>
      <trkpt lat="46.165710501372814" lon="8.15226006321609">
        <ele>2100.4400000000001</ele>
        <time>2020-08-02T09:13:43Z</time>
      </trkpt>
      <trkpt lat="46.165814269334078" lon="8.152138022705913">
        <ele>2101.54</ele>
        <time>2020-08-02T09:13:59Z</time>
      </trkpt>
      <trkpt lat="46.165871769189835" lon="8.15207683481276">
        <ele>2102.7800000000002</ele>
        <time>2020-08-02T09:14:12Z</time>
      </trkpt>
      <trkpt lat="46.166164381429553" lon="8.151549864560366">
        <ele>2077.75</ele>
        <time>2020-08-02T09:16:14Z</time>
      </trkpt>
      <trkpt lat="46.165958689525723" lon="8.152023022994399">
        <ele>2077.5</ele>
        <time>2020-08-02T09:16:30Z</time>
      </trkpt>
      <trkpt lat="46.165959527716041" lon="8.152029979974031">
        <ele>2077.6100000000001</ele>
        <time>2020-08-02T09:16:49Z</time>
      </trkpt>
      <trkpt lat="46.165957180783153" lon="8.152036685496569">
        <ele>2077.1500000000001</ele>
        <time>2020-08-02T09:17:11Z</time>
      </trkpt>
      <trkpt lat="46.16595801897347" lon="8.152015814557672">
        <ele>2078.3899999999999</ele>
        <time>2020-08-02T09:17:52Z</time>
      </trkpt>
      <trkpt lat="46.165938321501017" lon="8.152011204510927">
        <ele>2079.2800000000002</ele>
        <time>2020-08-02T09:18:52Z</time>
      </trkpt>
      <trkpt lat="46.165926335379481" lon="8.152001146227121">
        <ele>2079.9400000000001</ele>
        <time>2020-08-02T09:19:23Z</time>
      </trkpt>
      <trkpt lat="46.16594192571938" lon="8.151993099600077">
        <ele>2080.48</ele>
        <time>2020-08-02T09:19:46Z</time>
      </trkpt>
      <trkpt lat="46.165948295965791" lon="8.151994775980711">
        <ele>2080.29</ele>
        <time>2020-08-02T09:20:05Z</time>
      </trkpt>
      <trkpt lat="46.165962377563119" lon="8.151977257803083">
        <ele>2082.0900000000001</ele>
        <time>2020-08-02T09:20:38Z</time>
      </trkpt>
      <trkpt lat="46.165952570736408" lon="8.151977844536305">
        <ele>2082.6700000000001</ele>
        <time>2020-08-02T09:20:58Z</time>
      </trkpt>
      <trkpt lat="46.165953241288662" lon="8.151999805122614">
        <ele>2082.6799999999998</ele>
        <time>2020-08-02T09:21:21Z</time>
      </trkpt>
      <trkpt lat="46.165952067822218" lon="8.151996871456504">
        <ele>2083.02</ele>
        <time>2020-08-02T09:21:53Z</time>
      </trkpt>
      <trkpt lat="46.165946116670966" lon="8.151993937790394">
        <ele>2083.1199999999999</ele>
        <time>2020-08-02T09:22:15Z</time>
      </trkpt>
      <trkpt lat="46.165946871042252" lon="8.151989243924618">
        <ele>2083.1300000000001</ele>
        <time>2020-08-02T09:22:27Z</time>
      </trkpt>
      <trkpt lat="46.165928430855274" lon="8.151996368542314">
        <ele>2083.0900000000001</ele>
        <time>2020-08-02T09:22:52Z</time>
      </trkpt>
      <trkpt lat="46.165928263217211" lon="8.152003744617105">
        <ele>2083.6700000000001</ele>
        <time>2020-08-02T09:23:14Z</time>
      </trkpt>
      <trkpt lat="46.165933711454272" lon="8.152008270844817">
        <ele>2083.9000000000001</ele>
        <time>2020-08-02T09:24:20Z</time>
      </trkpt>
      <trkpt lat="46.165930861607194" lon="8.152006259188056">
        <ele>2084.6199999999999</ele>
        <time>2020-08-02T09:25:24Z</time>
      </trkpt>
      <trkpt lat="46.16593848913908" lon="8.152002906426787">
        <ele>2085.5300000000002</ele>
        <time>2020-08-02T09:26:28Z</time>
      </trkpt>
      <trkpt lat="46.165943937376142" lon="8.152006762102246">
        <ele>2086.79</ele>
        <time>2020-08-02T09:27:30Z</time>
      </trkpt>
      <trkpt lat="46.165948547422886" lon="8.152014473453164">
        <ele>2087.0799999999999</ele>
        <time>2020-08-02T09:28:32Z</time>
      </trkpt>
      <trkpt lat="46.165948798879981" lon="8.152009444311261">
        <ele>2087.6500000000001</ele>
        <time>2020-08-02T09:29:35Z</time>
      </trkpt>
      <trkpt lat="46.165947960689664" lon="8.151962170377374">
        <ele>2087.9400000000001</ele>
        <time>2020-08-02T09:30:02Z</time>
      </trkpt>
      <trkpt lat="46.165945278480649" lon="8.151828562840819">
        <ele>2088.7800000000002</ele>
        <time>2020-08-02T09:30:14Z</time>
      </trkpt>
      <trkpt lat="46.165949469432235" lon="8.1518036685884">
        <ele>2088.0300000000002</ele>
        <time>2020-08-02T09:30:29Z</time>
      </trkpt>
      <trkpt lat="46.165952067822218" lon="8.15180174075067">
        <ele>2088.0799999999999</ele>
        <time>2020-08-02T09:31:08Z</time>
      </trkpt>
      <trkpt lat="46.165963131934404" lon="8.151792688295245">
        <ele>2088.6300000000001</ele>
        <time>2020-08-02T09:31:49Z</time>
      </trkpt>
      <trkpt lat="46.165964053943753" lon="8.15178900025785">
        <ele>2088.96</ele>
        <time>2020-08-02T09:32:30Z</time>
      </trkpt>
      <trkpt lat="46.165967490524054" lon="8.151785396039486">
        <ele>2089.6599999999999</ele>
        <time>2020-08-02T09:33:13Z</time>
      </trkpt>
      <trkpt lat="46.165967574343085" lon="8.151786318048835">
        <ele>2089.5</ele>
        <time>2020-08-02T09:33:57Z</time>
      </trkpt>
      <trkpt lat="46.165969418361783" lon="8.151787659153342">
        <ele>2090.0999999999999</ele>
        <time>2020-08-02T09:34:44Z</time>
      </trkpt>
      <trkpt lat="46.165968161076307" lon="8.151790089905262">
        <ele>2090.4899999999998</ele>
        <time>2020-08-02T09:35:31Z</time>
      </trkpt>
      <trkpt lat="46.165953911840916" lon="8.151805261150003">
        <ele>2090.77</ele>
        <time>2020-08-02T09:36:25Z</time>
      </trkpt>
      <trkpt lat="46.16595609113574" lon="8.151805512607098">
        <ele>2091.1199999999999</ele>
        <time>2020-08-02T09:37:19Z</time>
      </trkpt>
      <trkpt lat="46.165962964296341" lon="8.151797968894243">
        <ele>2091.46</ele>
        <time>2020-08-02T09:38:09Z</time>
      </trkpt>
      <trkpt lat="46.165960617363453" lon="8.15181246958673">
        <ele>2091.4000000000001</ele>
        <time>2020-08-02T09:39:02Z</time>
      </trkpt>
      <trkpt lat="46.165959276258945" lon="8.15181540325284">
        <ele>2091.6900000000001</ele>
        <time>2020-08-02T09:39:49Z</time>
      </trkpt>
      <trkpt lat="46.165957851335406" lon="8.151810457929969">
        <ele>2092.0999999999999</ele>
        <time>2020-08-02T09:40:37Z</time>
      </trkpt>
      <trkpt lat="46.165958773344755" lon="8.151805177330971">
        <ele>2092.4200000000001</ele>
        <time>2020-08-02T09:41:21Z</time>
      </trkpt>
      <trkpt lat="46.165954414755106" lon="8.151802159845829">
        <ele>2093.0799999999999</ele>
        <time>2020-08-02T09:42:07Z</time>
      </trkpt>
      <trkpt lat="46.165957599878311" lon="8.151799393817782">
        <ele>2093.4000000000001</ele>
        <time>2020-08-02T09:42:58Z</time>
      </trkpt>
      <trkpt lat="46.165951397269964" lon="8.151792604476214">
        <ele>2093.4000000000001</ele>
        <time>2020-08-02T09:43:17Z</time>
      </trkpt>
      <trkpt lat="46.1659443564713" lon="8.151798136532307">
        <ele>2093.3099999999999</ele>
        <time>2020-08-02T09:43:41Z</time>
      </trkpt>
      <trkpt lat="46.165948463603854" lon="8.151822611689568">
        <ele>2093.02</ele>
        <time>2020-08-02T09:44:27Z</time>
      </trkpt>
      <trkpt lat="46.165948044508696" lon="8.151825377717614">
        <ele>2093.0500000000002</ele>
        <time>2020-08-02T09:45:17Z</time>
      </trkpt>
      <trkpt lat="46.16595265455544" lon="8.151817163452506">
        <ele>2093.23</ele>
        <time>2020-08-02T09:45:57Z</time>
      </trkpt>
      <trkpt lat="46.165952989831567" lon="8.151819678023458">
        <ele>2093.9899999999998</ele>
        <time>2020-08-02T09:46:30Z</time>
      </trkpt>
      <trkpt lat="46.165951229631901" lon="8.151815487071872">
        <ele>2094.75</ele>
        <time>2020-08-02T09:46:55Z</time>
      </trkpt>
      <trkpt lat="46.165947457775474" lon="8.151813140138984">
        <ele>2094.8899999999999</ele>
        <time>2020-08-02T09:47:41Z</time>
      </trkpt>
      <trkpt lat="46.165950642898679" lon="8.151793023571372">
        <ele>2095.1399999999999</ele>
        <time>2020-08-02T09:48:04Z</time>
      </trkpt>
      <trkpt lat="46.165951984003186" lon="8.151824707165361">
        <ele>2095.7199999999998</ele>
        <time>2020-08-02T09:48:25Z</time>
      </trkpt>
      <trkpt lat="46.165949804708362" lon="8.151817666366696">
        <ele>2095.7800000000002</ele>
        <time>2020-08-02T09:48:56Z</time>
      </trkpt>
      <trkpt lat="46.16594972088933" lon="8.151820097118616">
        <ele>2096.0700000000002</ele>
        <time>2020-08-02T09:49:27Z</time>
      </trkpt>
      <trkpt lat="46.165946451947093" lon="8.151815654709935">
        <ele>2096.1799999999998</ele>
        <time>2020-08-02T09:49:52Z</time>
      </trkpt>
      <trkpt lat="46.165936561301351" lon="8.151805177330971">
        <ele>2096.4400000000001</ele>
        <time>2020-08-02T09:50:18Z</time>
      </trkpt>
      <trkpt lat="46.165939159691334" lon="8.151809955015779">
        <ele>2096.8400000000001</ele>
        <time>2020-08-02T09:50:59Z</time>
      </trkpt>
      <trkpt lat="46.16594335064292" lon="8.151815822347999">
        <ele>2097.02</ele>
        <time>2020-08-02T09:51:47Z</time>
      </trkpt>
      <trkpt lat="46.165949469432235" lon="8.151819258928299">
        <ele>2097.48</ele>
        <time>2020-08-02T09:52:34Z</time>
      </trkpt>
      <trkpt lat="46.165958186611533" lon="8.151813391596079">
        <ele>2097.4299999999998</ele>
        <time>2020-08-02T09:53:05Z</time>
      </trkpt>
      <trkpt lat="46.165951145812869" lon="8.151815989986062">
        <ele>2097.6399999999999</ele>
        <time>2020-08-02T09:53:29Z</time>
      </trkpt>
      <trkpt lat="46.165946871042252" lon="8.151843314990401">
        <ele>2098.1300000000001</ele>
        <time>2020-08-02T09:53:53Z</time>
      </trkpt>
      <trkpt lat="46.16594972088933" lon="8.151816073805094">
        <ele>2096.6900000000001</ele>
        <time>2020-08-02T09:54:18Z</time>
      </trkpt>
      <trkpt lat="46.165950056165457" lon="8.151814229786396">
        <ele>2098.9099999999999</ele>
        <time>2020-08-02T09:54:20Z</time>
      </trkpt>
      <trkpt lat="46.165948798879981" lon="8.151811212301254">
        <ele>2097.54</ele>
        <time>2020-08-02T09:54:52Z</time>
      </trkpt>
      <trkpt lat="46.165946200489998" lon="8.15180417150259">
        <ele>2097.2600000000002</ele>
        <time>2020-08-02T09:55:33Z</time>
      </trkpt>
      <trkpt lat="46.165940584614873" lon="8.151805512607098">
        <ele>2096.9899999999998</ele>
        <time>2020-08-02T09:55:52Z</time>
      </trkpt>
      <trkpt lat="46.165944440290332" lon="8.151801992207766">
        <ele>2097.1999999999998</ele>
        <time>2020-08-02T09:56:12Z</time>
      </trkpt>
      <trkpt lat="46.165930610150099" lon="8.151796963065863">
        <ele>2098.3400000000001</ele>
        <time>2020-08-02T09:56:27Z</time>
      </trkpt>
      <trkpt lat="46.165939830243587" lon="8.151807272806764">
        <ele>2099.3299999999999</ele>
        <time>2020-08-02T09:56:44Z</time>
      </trkpt>
      <trkpt lat="46.165944775566459" lon="8.151810877025127">
        <ele>2099.52</ele>
        <time>2020-08-02T09:57:02Z</time>
      </trkpt>
      <trkpt lat="46.165930945426226" lon="8.151861671358347">
        <ele>2099.8600000000001</ele>
        <time>2020-08-02T09:57:12Z</time>
      </trkpt>
      <trkpt lat="46.165890377014875" lon="8.151924451813102">
        <ele>2100.3600000000001</ele>
        <time>2020-08-02T09:57:24Z</time>
      </trkpt>
      <trkpt lat="46.165890628471971" lon="8.151963343843818">
        <ele>2100.0700000000002</ele>
        <time>2020-08-02T09:57:34Z</time>
      </trkpt>
      <trkpt lat="46.165912840515375" lon="8.151992680504918">
        <ele>2099.7399999999998</ele>
        <time>2020-08-02T09:57:43Z</time>
      </trkpt>
      <trkpt lat="46.165908314287663" lon="8.151976084336639">
        <ele>2099.9699999999998</ele>
        <time>2020-08-02T09:57:57Z</time>
      </trkpt>
      <trkpt lat="46.165905883535743" lon="8.151968372985721">
        <ele>2099.77</ele>
        <time>2020-08-02T09:58:21Z</time>
      </trkpt>
      <trkpt lat="46.16590479388833" lon="8.151969211176038">
        <ele>2099.1700000000001</ele>
        <time>2020-08-02T09:58:33Z</time>
      </trkpt>
      <trkpt lat="46.165899429470301" lon="8.15196929499507">
        <ele>2099.4499999999998</ele>
        <time>2020-08-02T09:58:50Z</time>
      </trkpt>
      <trkpt lat="46.165902363136411" lon="8.15196149982512">
        <ele>2098.8800000000001</ele>
        <time>2020-08-02T09:59:02Z</time>
      </trkpt>
      <trkpt lat="46.165897501632571" lon="8.151962170377374">
        <ele>2098.96</ele>
        <time>2020-08-02T09:59:15Z</time>
      </trkpt>
      <trkpt lat="46.165894065052271" lon="8.151955548673868">
        <ele>2098.6700000000001</ele>
        <time>2020-08-02T09:59:37Z</time>
      </trkpt>
      <trkpt lat="46.16588962264359" lon="8.151958817616105">
        <ele>2099.2399999999998</ele>
        <time>2020-08-02T09:59:59Z</time>
      </trkpt>
      <trkpt lat="46.16587788797915" lon="8.151961583644152">
        <ele>2099.25</ele>
        <time>2020-08-02T10:00:05Z</time>
      </trkpt>
      <trkpt lat="46.1658700928092" lon="8.151947921141982">
        <ele>2098.9299999999998</ele>
        <time>2020-08-02T10:00:06Z</time>
      </trkpt>
      <trkpt lat="46.165870428085327" lon="8.151900144293904">
        <ele>2099.4899999999998</ele>
        <time>2020-08-02T10:00:08Z</time>
      </trkpt>
      <trkpt lat="46.165876379236579" lon="8.15187843516469">
        <ele>2099.6700000000001</ele>
        <time>2020-08-02T10:00:17Z</time>
      </trkpt>
      <trkpt lat="46.165874283760786" lon="8.151907939463854">
        <ele>2099.98</ele>
        <time>2020-08-02T10:00:20Z</time>
      </trkpt>
      <trkpt lat="46.165874535217881" lon="8.151924535632134">
        <ele>2100.0100000000002</ele>
        <time>2020-08-02T10:00:21Z</time>
      </trkpt>
      <trkpt lat="46.165875876322389" lon="8.151955464854837">
        <ele>2099.9899999999998</ele>
        <time>2020-08-02T10:00:23Z</time>
      </trkpt>
      <trkpt lat="46.165890544652939" lon="8.151962170377374">
        <ele>2099.73</ele>
        <time>2020-08-02T10:00:32Z</time>
      </trkpt>
      <trkpt lat="46.165917199105024" lon="8.151910873129964">
        <ele>2099.3600000000001</ele>
        <time>2020-08-02T10:00:42Z</time>
      </trkpt>
      <trkpt lat="46.165908314287663" lon="8.151942389085889">
        <ele>2099.8800000000001</ele>
        <time>2020-08-02T10:00:54Z</time>
      </trkpt>
      <trkpt lat="46.165896998718381" lon="8.15197030082345">
        <ele>2099.8400000000001</ele>
        <time>2020-08-02T10:00:56Z</time>
      </trkpt>
      <trkpt lat="46.165898591279984" lon="8.151999721303582">
        <ele>2099.8499999999999</ele>
        <time>2020-08-02T10:01:05Z</time>
      </trkpt>
      <trkpt lat="46.165917618200183" lon="8.152018915861845">
        <ele>2099.48</ele>
        <time>2020-08-02T10:01:20Z</time>
      </trkpt>
      <trkpt lat="46.165923653170466" lon="8.152047665789723">
        <ele>2099.5599999999999</ele>
        <time>2020-08-02T10:01:31Z</time>
      </trkpt>
      <trkpt lat="46.165870344266295" lon="8.152238270267844">
        <ele>2098.9699999999998</ele>
        <time>2020-08-02T10:01:46Z</time>
      </trkpt>
      <trkpt lat="46.165813095867634" lon="8.152439938858151">
        <ele>2097.9499999999998</ele>
        <time>2020-08-02T10:02:02Z</time>
      </trkpt>
      <trkpt lat="46.165810665115714" lon="8.152473969385028">
        <ele>2098.1199999999999</ele>
        <time>2020-08-02T10:02:24Z</time>
      </trkpt>
      <trkpt lat="46.165807396173477" lon="8.152491739019752">
        <ele>2098.1100000000001</ele>
        <time>2020-08-02T10:02:25Z</time>
      </trkpt>
      <trkpt lat="46.165803289040923" lon="8.152508167549968">
        <ele>2098.1199999999999</ele>
        <time>2020-08-02T10:02:26Z</time>
      </trkpt>
      <trkpt lat="46.165800355374813" lon="8.15252342261374">
        <ele>2097.96</ele>
        <time>2020-08-02T10:02:27Z</time>
      </trkpt>
      <trkpt lat="46.165798427537084" lon="8.152538761496544">
        <ele>2097.6799999999998</ele>
        <time>2020-08-02T10:02:28Z</time>
      </trkpt>
      <trkpt lat="46.165797170251608" lon="8.152554351836443">
        <ele>2097.4899999999998</ele>
        <time>2020-08-02T10:02:29Z</time>
      </trkpt>
      <trkpt lat="46.165745705366135" lon="8.152757193893194">
        <ele>2094.46</ele>
        <time>2020-08-02T10:02:43Z</time>
      </trkpt>
      <trkpt lat="46.165686445310712" lon="8.152921982109547">
        <ele>2091.3499999999999</ele>
        <time>2020-08-02T10:02:56Z</time>
      </trkpt>
      <trkpt lat="46.16563942283392" lon="8.153075119480491">
        <ele>2088.1599999999999</ele>
        <time>2020-08-02T10:03:09Z</time>
      </trkpt>
      <trkpt lat="46.165608493611217" lon="8.153242589905858">
        <ele>2084.8699999999999</ele>
        <time>2020-08-02T10:03:21Z</time>
      </trkpt>
      <trkpt lat="46.165590053424239" lon="8.153439313173294">
        <ele>2082.48</ele>
        <time>2020-08-02T10:03:35Z</time>
      </trkpt>
      <trkpt lat="46.165555017068982" lon="8.153593456372619">
        <ele>2080.1199999999999</ele>
        <time>2020-08-02T10:03:50Z</time>
      </trkpt>
      <trkpt lat="46.165552251040936" lon="8.153618266806006">
        <ele>2079.6100000000001</ele>
        <time>2020-08-02T10:03:52Z</time>
      </trkpt>
      <trkpt lat="46.165553005412221" lon="8.153634108603001">
        <ele>2079.4000000000001</ele>
        <time>2020-08-02T10:03:53Z</time>
      </trkpt>
      <trkpt lat="46.165568344295025" lon="8.15372203476727">
        <ele>2079.2399999999998</ele>
        <time>2020-08-02T10:04:04Z</time>
      </trkpt>
      <trkpt lat="46.165578402578831" lon="8.153846338391304">
        <ele>2080.1100000000001</ele>
        <time>2020-08-02T10:04:15Z</time>
      </trkpt>
      <trkpt lat="46.165580414235592" lon="8.153872154653072">
        <ele>2080.1999999999998</ele>
        <time>2020-08-02T10:04:17Z</time>
      </trkpt>
      <trkpt lat="46.165583515539765" lon="8.154045073315501">
        <ele>2080.4200000000001</ele>
        <time>2020-08-02T10:04:30Z</time>
      </trkpt>
      <trkpt lat="46.165546802803874" lon="8.154303068295121">
        <ele>2079.1399999999999</ele>
        <time>2020-08-02T10:04:48Z</time>
      </trkpt>
      <trkpt lat="46.16553389467299" lon="8.154373057186604">
        <ele>2078.8699999999999</ele>
        <time>2020-08-02T10:04:53Z</time>
      </trkpt>
      <trkpt lat="46.165483519434929" lon="8.154551172628999">
        <ele>2078.5900000000001</ele>
        <time>2020-08-02T10:05:08Z</time>
      </trkpt>
      <trkpt lat="46.165473880246282" lon="8.154570870101452">
        <ele>2078.27</ele>
        <time>2020-08-02T10:05:10Z</time>
      </trkpt>
      <trkpt lat="46.165414368733764" lon="8.154806653037667">
        <ele>2077.3899999999999</ele>
        <time>2020-08-02T10:05:26Z</time>
      </trkpt>
      <trkpt lat="46.165361143648624" lon="8.155039669945836">
        <ele>2078.46</ele>
        <time>2020-08-02T10:05:44Z</time>
      </trkpt>
      <trkpt lat="46.165346559137106" lon="8.155113682150841">
        <ele>2078.5300000000002</ele>
        <time>2020-08-02T10:05:49Z</time>
      </trkpt>
      <trkpt lat="46.16527589969337" lon="8.155354745686054">
        <ele>2077.71</ele>
        <time>2020-08-02T10:06:06Z</time>
      </trkpt>
      <trkpt lat="46.165124187245965" lon="8.155454406514764">
        <ele>2076</ele>
        <time>2020-08-02T10:06:20Z</time>
      </trkpt>
      <trkpt lat="46.16503844037652" lon="8.15550159662962">
        <ele>2075.1100000000001</ele>
        <time>2020-08-02T10:06:32Z</time>
      </trkpt>
      <trkpt lat="46.165030393749475" lon="8.155522048473358">
        <ele>2075</ele>
        <time>2020-08-02T10:06:34Z</time>
      </trkpt>
      <trkpt lat="46.164916148409247" lon="8.155744755640626">
        <ele>2074.9099999999999</ele>
        <time>2020-08-02T10:06:52Z</time>
      </trkpt>
      <trkpt lat="46.164912460371852" lon="8.155770990997553">
        <ele>2075.0900000000001</ele>
        <time>2020-08-02T10:06:54Z</time>
      </trkpt>
      <trkpt lat="46.164864264428616" lon="8.155921110883355">
        <ele>2076.2199999999998</ele>
        <time>2020-08-02T10:07:07Z</time>
      </trkpt>
      <trkpt lat="46.164826881140471" lon="8.15597022883594">
        <ele>2076.9099999999999</ele>
        <time>2020-08-02T10:07:16Z</time>
      </trkpt>
      <trkpt lat="46.164778769016266" lon="8.156056478619576">
        <ele>2078.1100000000001</ele>
        <time>2020-08-02T10:07:29Z</time>
      </trkpt>
      <trkpt lat="46.164775332435966" lon="8.15605622716248">
        <ele>2077.8699999999999</ele>
        <time>2020-08-02T10:07:43Z</time>
      </trkpt>
      <trkpt lat="46.164770722389221" lon="8.156050946563482">
        <ele>2076.77</ele>
        <time>2020-08-02T10:07:55Z</time>
      </trkpt>
      <trkpt lat="46.164769968017936" lon="8.156054634600878">
        <ele>2080.5500000000002</ele>
        <time>2020-08-02T10:08:02Z</time>
      </trkpt>
      <trkpt lat="46.164769465103745" lon="8.156051868572831">
        <ele>2077.77</ele>
        <time>2020-08-02T10:08:06Z</time>
      </trkpt>
      <trkpt lat="46.16476527415216" lon="8.156056646257639">
        <ele>2079.0599999999999</ele>
        <time>2020-08-02T10:08:29Z</time>
      </trkpt>
      <trkpt lat="46.164793437346816" lon="8.156004175543785">
        <ele>2076.9299999999998</ele>
        <time>2020-08-02T10:08:42Z</time>
      </trkpt>
      <trkpt lat="46.164817828685045" lon="8.155989171937108">
        <ele>2077.48</ele>
        <time>2020-08-02T10:08:54Z</time>
      </trkpt>
      <trkpt lat="46.16482637822628" lon="8.155945334583521">
        <ele>2076.8099999999999</ele>
        <time>2020-08-02T10:09:03Z</time>
      </trkpt>
      <trkpt lat="46.16486937738955" lon="8.155948603525758">
        <ele>2075.8800000000001</ele>
        <time>2020-08-02T10:09:13Z</time>
      </trkpt>
      <trkpt lat="46.164890667423606" lon="8.155940305441618">
        <ele>2075.4400000000001</ele>
        <time>2020-08-02T10:09:25Z</time>
      </trkpt>
      <trkpt lat="46.164937689900398" lon="8.155926559120417">
        <ele>2074.5</ele>
        <time>2020-08-02T10:09:37Z</time>
      </trkpt>
      <trkpt lat="46.164966439828277" lon="8.155915243551135">
        <ele>2074.1100000000001</ele>
        <time>2020-08-02T10:09:41Z</time>
      </trkpt>
      <trkpt lat="46.1650101095438" lon="8.155919350683689">
        <ele>2073.6999999999998</ele>
        <time>2020-08-02T10:09:46Z</time>
      </trkpt>
      <trkpt lat="46.16510977037251" lon="8.155882302671671">
        <ele>2073.25</ele>
        <time>2020-08-02T10:09:57Z</time>
      </trkpt>
      <trkpt lat="46.165220746770501" lon="8.156017335131764">
        <ele>2073.6300000000001</ele>
        <time>2020-08-02T10:10:13Z</time>
      </trkpt>
      <trkpt lat="46.16522703319788" lon="8.156034769490361">
        <ele>2073.0300000000002</ele>
        <time>2020-08-02T10:10:21Z</time>
      </trkpt>
      <trkpt lat="46.165250670164824" lon="8.156083216890693">
        <ele>2072.9899999999998</ele>
        <time>2020-08-02T10:10:25Z</time>
      </trkpt>
      <trkpt lat="46.165300039574504" lon="8.156280694529414">
        <ele>2071.4000000000001</ele>
        <time>2020-08-02T10:10:40Z</time>
      </trkpt>
      <trkpt lat="46.165309427306056" lon="8.15630005672574">
        <ele>2071.1799999999998</ele>
        <time>2020-08-02T10:10:42Z</time>
      </trkpt>
      <trkpt lat="46.165349911898375" lon="8.156536761671305">
        <ele>2069.2800000000002</ele>
        <time>2020-08-02T10:10:58Z</time>
      </trkpt>
      <trkpt lat="46.165392911061645" lon="8.156762151047587">
        <ele>2067.2800000000002</ele>
        <time>2020-08-02T10:11:13Z</time>
      </trkpt>
      <trkpt lat="46.165414452552795" lon="8.157014697790146">
        <ele>2064.9899999999998</ele>
        <time>2020-08-02T10:11:29Z</time>
      </trkpt>
      <trkpt lat="46.165435910224915" lon="8.157229693606496">
        <ele>2063.3000000000002</ele>
        <time>2020-08-02T10:11:44Z</time>
      </trkpt>
      <trkpt lat="46.165450578555465" lon="8.157496070489287">
        <ele>2060.9099999999999</ele>
        <time>2020-08-02T10:12:01Z</time>
      </trkpt>
      <trkpt lat="46.165433647111058" lon="8.157748449593782">
        <ele>2059.5</ele>
        <time>2020-08-02T10:12:17Z</time>
      </trkpt>
      <trkpt lat="46.165440687909722" lon="8.157961014658213">
        <ele>2058.5599999999999</ele>
        <time>2020-08-02T10:12:31Z</time>
      </trkpt>
      <trkpt lat="46.165476562455297" lon="8.15809671767056">
        <ele>2057.9899999999998</ele>
        <time>2020-08-02T10:12:42Z</time>
      </trkpt>
      <trkpt lat="46.165516711771488" lon="8.15820224583149">
        <ele>2055.75</ele>
        <time>2020-08-02T10:12:50Z</time>
      </trkpt>
      <trkpt lat="46.165587203577161" lon="8.158414559438825">
        <ele>2054.6399999999999</ele>
        <time>2020-08-02T10:13:05Z</time>
      </trkpt>
      <trkpt lat="46.165633052587509" lon="8.158663501963019">
        <ele>2054.2399999999998</ele>
        <time>2020-08-02T10:13:21Z</time>
      </trkpt>
      <trkpt lat="46.165633136406541" lon="8.158937087282538">
        <ele>2053.5900000000001</ele>
        <time>2020-08-02T10:13:38Z</time>
      </trkpt>
      <trkpt lat="46.165675381198525" lon="8.159221652895212">
        <ele>2050.5500000000002</ele>
        <time>2020-08-02T10:13:56Z</time>
      </trkpt>
      <trkpt lat="46.165697844699025" lon="8.159483168274164">
        <ele>2049.8099999999999</ele>
        <time>2020-08-02T10:14:12Z</time>
      </trkpt>
      <trkpt lat="46.165769677609205" lon="8.159711826592684">
        <ele>2048.8699999999999</ele>
        <time>2020-08-02T10:14:28Z</time>
      </trkpt>
      <trkpt lat="46.165910577401519" lon="8.159882482141256">
        <ele>2047.3299999999999</ele>
        <time>2020-08-02T10:14:45Z</time>
      </trkpt>
      <trkpt lat="46.166025744751096" lon="8.159999074414372">
        <ele>2046.5899999999999</ele>
        <time>2020-08-02T10:14:58Z</time>
      </trkpt>
      <trkpt lat="46.166024906560779" lon="8.160060849040747">
        <ele>2046.0699999999999</ele>
        <time>2020-08-02T10:15:02Z</time>
      </trkpt>
      <trkpt lat="46.166011663153768" lon="8.160084653645754">
        <ele>2045.74</ele>
        <time>2020-08-02T10:15:04Z</time>
      </trkpt>
      <trkpt lat="46.16603379137814" lon="8.160312306135893">
        <ele>2043.5</ele>
        <time>2020-08-02T10:15:20Z</time>
      </trkpt>
      <trkpt lat="46.166062792763114" lon="8.160391179844737">
        <ele>2043.28</ele>
        <time>2020-08-02T10:15:26Z</time>
      </trkpt>
      <trkpt lat="46.166118113324046" lon="8.16041573882103">
        <ele>2042.8099999999999</ele>
        <time>2020-08-02T10:15:32Z</time>
      </trkpt>
      <trkpt lat="46.166163878515363" lon="8.160414146259427">
        <ele>2042.5899999999999</ele>
        <time>2020-08-02T10:15:36Z</time>
      </trkpt>
      <trkpt lat="46.166234286502004" lon="8.160481369122863">
        <ele>2041.78</ele>
        <time>2020-08-02T10:15:44Z</time>
      </trkpt>
      <trkpt lat="46.16621308028698" lon="8.160557057708502">
        <ele>2041.6300000000001</ele>
        <time>2020-08-02T10:15:50Z</time>
      </trkpt>
      <trkpt lat="46.166169159114361" lon="8.160601733252406">
        <ele>2040.6600000000001</ele>
        <time>2020-08-02T10:16:01Z</time>
      </trkpt>
      <trkpt lat="46.166164297610521" lon="8.160621849820018">
        <ele>2040.5599999999999</ele>
        <time>2020-08-02T10:16:04Z</time>
      </trkpt>
      <trkpt lat="46.166152311488986" lon="8.160643223673105">
        <ele>2040.6099999999999</ele>
        <time>2020-08-02T10:16:06Z</time>
      </trkpt>
      <trkpt lat="46.166129764169455" lon="8.160699466243386">
        <ele>2040.24</ele>
        <time>2020-08-02T10:16:10Z</time>
      </trkpt>
      <trkpt lat="46.16612121462822" lon="8.160994676873088">
        <ele>2038.53</ele>
        <time>2020-08-02T10:16:30Z</time>
      </trkpt>
      <trkpt lat="46.166144767776132" lon="8.161255521699786">
        <ele>2036.3099999999999</ele>
        <time>2020-08-02T10:16:47Z</time>
      </trkpt>
      <trkpt lat="46.166118448600173" lon="8.161470852792263">
        <ele>2034.1800000000001</ele>
        <time>2020-08-02T10:17:01Z</time>
      </trkpt>
      <trkpt lat="46.166082741692662" lon="8.1617003493011">
        <ele>2032.72</ele>
        <time>2020-08-02T10:17:17Z</time>
      </trkpt>
      <trkpt lat="46.166040915995836" lon="8.161979969590902">
        <ele>2030.79</ele>
        <time>2020-08-02T10:17:36Z</time>
      </trkpt>
      <trkpt lat="46.166015015915036" lon="8.16221977584064">
        <ele>2028.3499999999999</ele>
        <time>2020-08-02T10:17:53Z</time>
      </trkpt>
      <trkpt lat="46.166013674810529" lon="8.162479614838958">
        <ele>2026.29</ele>
        <time>2020-08-02T10:18:09Z</time>
      </trkpt>
      <trkpt lat="46.165897501632571" lon="8.162624035030603">
        <ele>2025.01</ele>
        <time>2020-08-02T10:18:24Z</time>
      </trkpt>
      <trkpt lat="46.165787614881992" lon="8.16280223429203">
        <ele>2022.52</ele>
        <time>2020-08-02T10:18:40Z</time>
      </trkpt>
      <trkpt lat="46.165741933509707" lon="8.162841880694032">
        <ele>2021.25</ele>
        <time>2020-08-02T10:18:46Z</time>
      </trkpt>
      <trkpt lat="46.165731120854616" lon="8.162865685299039">
        <ele>2021.02</ele>
        <time>2020-08-02T10:18:48Z</time>
      </trkpt>
      <trkpt lat="46.165582844987512" lon="8.162978254258633">
        <ele>2019.1099999999999</ele>
        <time>2020-08-02T10:19:05Z</time>
      </trkpt>
      <trkpt lat="46.165459295734763" lon="8.163084955886006">
        <ele>2016.3199999999999</ele>
        <time>2020-08-02T10:19:21Z</time>
      </trkpt>
      <trkpt lat="46.165337674319744" lon="8.163204649463296">
        <ele>2014.78</ele>
        <time>2020-08-02T10:19:36Z</time>
      </trkpt>
      <trkpt lat="46.165196774527431" lon="8.163343872874975">
        <ele>2011.97</ele>
        <time>2020-08-02T10:19:52Z</time>
      </trkpt>
      <trkpt lat="46.165042798966169" lon="8.163479072973132">
        <ele>2009.97</ele>
        <time>2020-08-02T10:20:09Z</time>
      </trkpt>
      <trkpt lat="46.164983538910747" lon="8.163550822064281">
        <ele>2009.28</ele>
        <time>2020-08-02T10:20:17Z</time>
      </trkpt>
      <trkpt lat="46.164939114823937" lon="8.163827508687973">
        <ele>2006.3099999999999</ele>
        <time>2020-08-02T10:20:35Z</time>
      </trkpt>
      <trkpt lat="46.164939869195223" lon="8.164078546687961">
        <ele>2003.5599999999999</ele>
        <time>2020-08-02T10:20:52Z</time>
      </trkpt>
      <trkpt lat="46.164897037670016" lon="8.164309300482273">
        <ele>2001.29</ele>
        <time>2020-08-02T10:21:07Z</time>
      </trkpt>
      <trkpt lat="46.164808860048652" lon="8.164577772840858">
        <ele>1998.55</ele>
        <time>2020-08-02T10:21:26Z</time>
      </trkpt>
      <trkpt lat="46.164761669933796" lon="8.164829732850194">
        <ele>1996.45</ele>
        <time>2020-08-02T10:21:42Z</time>
      </trkpt>
      <trkpt lat="46.164726549759507" lon="8.165143802762032">
        <ele>1994.3599999999999</ele>
        <time>2020-08-02T10:22:02Z</time>
      </trkpt>
      <trkpt lat="46.164650022983551" lon="8.165370868518949">
        <ele>1991.8299999999999</ele>
        <time>2020-08-02T10:22:19Z</time>
      </trkpt>
      <trkpt lat="46.164557235315442" lon="8.16555024124682">
        <ele>1989.3099999999999</ele>
        <time>2020-08-02T10:22:34Z</time>
      </trkpt>
      <trkpt lat="46.164402002468705" lon="8.165727183222771">
        <ele>1987.1500000000001</ele>
        <time>2020-08-02T10:22:52Z</time>
      </trkpt>
      <trkpt lat="46.164247021079063" lon="8.1658517383039">
        <ele>1984.6300000000001</ele>
        <time>2020-08-02T10:23:08Z</time>
      </trkpt>
      <trkpt lat="46.16411441937089" lon="8.165989369153976">
        <ele>1982.48</ele>
        <time>2020-08-02T10:23:23Z</time>
      </trkpt>
      <trkpt lat="46.163962120190263" lon="8.166117025539279">
        <ele>1979.78</ele>
        <time>2020-08-02T10:23:39Z</time>
      </trkpt>
      <trkpt lat="46.163820046931505" lon="8.166272090747953">
        <ele>1978.95</ele>
        <time>2020-08-02T10:23:55Z</time>
      </trkpt>
      <trkpt lat="46.16372499614954" lon="8.166426569223404">
        <ele>1979.0999999999999</ele>
        <time>2020-08-02T10:24:12Z</time>
      </trkpt>
      <trkpt lat="46.163717536255717" lon="8.166495887562633">
        <ele>1978.3399999999999</ele>
        <time>2020-08-02T10:24:22Z</time>
      </trkpt>
      <trkpt lat="46.163674537092447" lon="8.16670392639935">
        <ele>1976.02</ele>
        <time>2020-08-02T10:24:37Z</time>
      </trkpt>
      <trkpt lat="46.163661293685436" lon="8.166892267763615">
        <ele>1975.45</ele>
        <time>2020-08-02T10:24:50Z</time>
      </trkpt>
      <trkpt lat="46.163645451888442" lon="8.167057475075126">
        <ele>1973.97</ele>
        <time>2020-08-02T10:25:02Z</time>
      </trkpt>
      <trkpt lat="46.163590969517827" lon="8.167095948010683">
        <ele>1975.26</ele>
        <time>2020-08-02T10:25:14Z</time>
      </trkpt>
      <trkpt lat="46.163575211539865" lon="8.167151352390647">
        <ele>1974.99</ele>
        <time>2020-08-02T10:25:26Z</time>
      </trkpt>
      <trkpt lat="46.163566242903471" lon="8.167204996570945">
        <ele>1973.3699999999999</ele>
        <time>2020-08-02T10:25:36Z</time>
      </trkpt>
      <trkpt lat="46.163568589836359" lon="8.167204326018691">
        <ele>1973.1099999999999</ele>
        <time>2020-08-02T10:25:54Z</time>
      </trkpt>
      <trkpt lat="46.163562973961234" lon="8.167210696265101">
        <ele>1972.6700000000001</ele>
        <time>2020-08-02T10:26:09Z</time>
      </trkpt>
      <trkpt lat="46.163585940375924" lon="8.167233495041728">
        <ele>1972.6900000000001</ele>
        <time>2020-08-02T10:26:22Z</time>
      </trkpt>
      <trkpt lat="46.163591891527176" lon="8.16727657802403">
        <ele>1971.8599999999999</ele>
        <time>2020-08-02T10:26:32Z</time>
      </trkpt>
      <trkpt lat="46.163596417754889" lon="8.167284121736884">
        <ele>1971.6700000000001</ele>
        <time>2020-08-02T10:26:46Z</time>
      </trkpt>
      <trkpt lat="46.163597088307142" lon="8.167287725955248">
        <ele>1971.53</ele>
        <time>2020-08-02T10:27:13Z</time>
      </trkpt>
      <trkpt lat="46.163606978952885" lon="8.16727758385241">
        <ele>1972.01</ele>
        <time>2020-08-02T10:27:31Z</time>
      </trkpt>
      <trkpt lat="46.163607984781265" lon="8.167279092594981">
        <ele>1971.25</ele>
        <time>2020-08-02T10:27:50Z</time>
      </trkpt>
      <trkpt lat="46.163633968681097" lon="8.167274985462427">
        <ele>1971.9000000000001</ele>
        <time>2020-08-02T10:28:01Z</time>
      </trkpt>
      <trkpt lat="46.163680572062731" lon="8.167359055951238">
        <ele>1969.7</ele>
        <time>2020-08-02T10:28:13Z</time>
      </trkpt>
      <trkpt lat="46.163707477971911" lon="8.167444802820683">
        <ele>1967.51</ele>
        <time>2020-08-02T10:28:24Z</time>
      </trkpt>
      <trkpt lat="46.163757685571909" lon="8.16755753941834">
        <ele>1964.53</ele>
        <time>2020-08-02T10:28:36Z</time>
      </trkpt>
      <trkpt lat="46.163784340023994" lon="8.167698439210653">
        <ele>1961.4200000000001</ele>
        <time>2020-08-02T10:28:49Z</time>
      </trkpt>
      <trkpt lat="46.163781322538853" lon="8.167709838598967">
        <ele>1961.1600000000001</ele>
        <time>2020-08-02T10:28:50Z</time>
      </trkpt>
      <trkpt lat="46.163753243163228" lon="8.16786783747375">
        <ele>1957.9400000000001</ele>
        <time>2020-08-02T10:29:04Z</time>
      </trkpt>
      <trkpt lat="46.163747208192945" lon="8.167922403663397">
        <ele>1956.2</ele>
        <time>2020-08-02T10:29:14Z</time>
      </trkpt>
      <trkpt lat="46.163744777441025" lon="8.168012341484428">
        <ele>1954.55</ele>
        <time>2020-08-02T10:29:29Z</time>
      </trkpt>
      <trkpt lat="46.163723403587937" lon="8.168138321489096">
        <ele>1951.27</ele>
        <time>2020-08-02T10:29:41Z</time>
      </trkpt>
      <trkpt lat="46.163723487406969" lon="8.168262708932161">
        <ele>1948.1400000000001</ele>
        <time>2020-08-02T10:29:54Z</time>
      </trkpt>
      <trkpt lat="46.16374745965004" lon="8.168405117467046">
        <ele>1945.1600000000001</ele>
        <time>2020-08-02T10:30:07Z</time>
      </trkpt>
      <trkpt lat="46.163743939250708" lon="8.168533444404602">
        <ele>1943.48</ele>
        <time>2020-08-02T10:30:19Z</time>
      </trkpt>
      <trkpt lat="46.163755087181926" lon="8.168544005602598">
        <ele>1943.1199999999999</ele>
        <time>2020-08-02T10:30:31Z</time>
      </trkpt>
      <trkpt lat="46.163765732198954" lon="8.168580383062363">
        <ele>1942.76</ele>
        <time>2020-08-02T10:30:41Z</time>
      </trkpt>
      <trkpt lat="46.163817532360554" lon="8.16863595508039">
        <ele>1941.78</ele>
        <time>2020-08-02T10:30:52Z</time>
      </trkpt>
      <trkpt lat="46.163891796022654" lon="8.16867945715785">
        <ele>1940.71</ele>
        <time>2020-08-02T10:31:01Z</time>
      </trkpt>
      <trkpt lat="46.164018530398607" lon="8.168714744970202">
        <ele>1938.53</ele>
        <time>2020-08-02T10:31:15Z</time>
      </trkpt>
      <trkpt lat="46.164128417149186" lon="8.168880119919777">
        <ele>1937.54</ele>
        <time>2020-08-02T10:31:31Z</time>
      </trkpt>
      <trkpt lat="46.164110647514462" lon="8.168996460735798">
        <ele>1937.3499999999999</ele>
        <time>2020-08-02T10:31:40Z</time>
      </trkpt>
      <trkpt lat="46.16408315487206" lon="8.169064521789551">
        <ele>1937.1500000000001</ele>
        <time>2020-08-02T10:31:52Z</time>
      </trkpt>
      <trkpt lat="46.164079718291759" lon="8.169077094644308">
        <ele>1936.9200000000001</ele>
        <time>2020-08-02T10:31:54Z</time>
      </trkpt>
      <trkpt lat="46.164061864838004" lon="8.169130235910416">
        <ele>1936.5799999999999</ele>
        <time>2020-08-02T10:31:58Z</time>
      </trkpt>
      <trkpt lat="46.163980392739177" lon="8.169324779883027">
        <ele>1936.0899999999999</ele>
        <time>2020-08-02T10:32:13Z</time>
      </trkpt>
      <trkpt lat="46.16389405913651" lon="8.169554779306054">
        <ele>1934.24</ele>
        <time>2020-08-02T10:32:30Z</time>
      </trkpt>
      <trkpt lat="46.163811329752207" lon="8.169782096520066">
        <ele>1932.6199999999999</ele>
        <time>2020-08-02T10:32:47Z</time>
      </trkpt>
      <trkpt lat="46.163743939250708" lon="8.170019136741757">
        <ele>1930.5</ele>
        <time>2020-08-02T10:33:04Z</time>
      </trkpt>
      <trkpt lat="46.163684260100126" lon="8.170233462005854">
        <ele>1928.3099999999999</ele>
        <time>2020-08-02T10:33:19Z</time>
      </trkpt>
      <trkpt lat="46.163623323664069" lon="8.170434460043907">
        <ele>1926.55</ele>
        <time>2020-08-02T10:33:33Z</time>
      </trkpt>
      <trkpt lat="46.163581414148211" lon="8.170667309314013">
        <ele>1924.9400000000001</ele>
        <time>2020-08-02T10:33:48Z</time>
      </trkpt>
      <trkpt lat="46.163521567359567" lon="8.170887669548392">
        <ele>1924.1300000000001</ele>
        <time>2020-08-02T10:34:03Z</time>
      </trkpt>
      <trkpt lat="46.163453590124846" lon="8.171105682849884">
        <ele>1921.6900000000001</ele>
        <time>2020-08-02T10:34:19Z</time>
      </trkpt>
      <trkpt lat="46.163388881832361" lon="8.171358313411474">
        <ele>1918.49</ele>
        <time>2020-08-02T10:34:35Z</time>
      </trkpt>
      <trkpt lat="46.163293747231364" lon="8.171632485464215">
        <ele>1915.4200000000001</ele>
        <time>2020-08-02T10:34:54Z</time>
      </trkpt>
      <trkpt lat="46.163212023675442" lon="8.171852845698595">
        <ele>1912.9200000000001</ele>
        <time>2020-08-02T10:35:10Z</time>
      </trkpt>
      <trkpt lat="46.163157373666763" lon="8.172021992504597">
        <ele>1909.8499999999999</ele>
        <time>2020-08-02T10:35:23Z</time>
      </trkpt>
      <trkpt lat="46.163096101954579" lon="8.172227181494236">
        <ele>1906.73</ele>
        <time>2020-08-02T10:35:38Z</time>
      </trkpt>
      <trkpt lat="46.163032483309507" lon="8.172442177310586">
        <ele>1903.48</ele>
        <time>2020-08-02T10:35:52Z</time>
      </trkpt>
      <trkpt lat="46.16297397762537" lon="8.172626327723265">
        <ele>1900.4200000000001</ele>
        <time>2020-08-02T10:36:05Z</time>
      </trkpt>
      <trkpt lat="46.16287381388247" lon="8.172827158123255">
        <ele>1897.3800000000001</ele>
        <time>2020-08-02T10:36:21Z</time>
      </trkpt>
      <trkpt lat="46.162778260186315" lon="8.173024384304881">
        <ele>1894.1199999999999</ele>
        <time>2020-08-02T10:36:36Z</time>
      </trkpt>
      <trkpt lat="46.162772811949253" lon="8.173036621883512">
        <ele>1893.9400000000001</ele>
        <time>2020-08-02T10:36:37Z</time>
      </trkpt>
      <trkpt lat="46.162712378427386" lon="8.173153717070818">
        <ele>1892.6300000000001</ele>
        <time>2020-08-02T10:36:47Z</time>
      </trkpt>
      <trkpt lat="46.162661835551262" lon="8.173268046230078">
        <ele>1890.8499999999999</ele>
        <time>2020-08-02T10:36:56Z</time>
      </trkpt>
      <trkpt lat="46.162585979327559" lon="8.173424201086164">
        <ele>1887.77</ele>
        <time>2020-08-02T10:37:08Z</time>
      </trkpt>
      <trkpt lat="46.162559911608696" lon="8.17348413169384">
        <ele>1886.76</ele>
        <time>2020-08-02T10:37:13Z</time>
      </trkpt>
      <trkpt lat="46.162532586604357" lon="8.17354079335928">
        <ele>1885.96</ele>
        <time>2020-08-02T10:37:17Z</time>
      </trkpt>
      <trkpt lat="46.16242865100503" lon="8.173789484426379">
        <ele>1883.28</ele>
        <time>2020-08-02T10:37:33Z</time>
      </trkpt>
      <trkpt lat="46.162399230524898" lon="8.17403431981802">
        <ele>1880.7</ele>
        <time>2020-08-02T10:37:49Z</time>
      </trkpt>
      <trkpt lat="46.16240912117064" lon="8.174221906810999">
        <ele>1878.1300000000001</ele>
        <time>2020-08-02T10:38:02Z</time>
      </trkpt>
      <trkpt lat="46.162378191947937" lon="8.17448970861733">
        <ele>1875.03</ele>
        <time>2020-08-02T10:38:19Z</time>
      </trkpt>
      <trkpt lat="46.162338880822062" lon="8.17470034584403">
        <ele>1872.8099999999999</ele>
        <time>2020-08-02T10:38:33Z</time>
      </trkpt>
      <trkpt lat="46.162334522232413" lon="8.174921628087759">
        <ele>1871.23</ele>
        <time>2020-08-02T10:38:48Z</time>
      </trkpt>
      <trkpt lat="46.16233091801405" lon="8.175040315836668">
        <ele>1870.6600000000001</ele>
        <time>2020-08-02T10:38:55Z</time>
      </trkpt>
      <trkpt lat="46.162333432585001" lon="8.17507266998291">
        <ele>1870.54</ele>
        <time>2020-08-02T10:38:57Z</time>
      </trkpt>
      <trkpt lat="46.162313651293516" lon="8.175271572545171">
        <ele>1869.04</ele>
        <time>2020-08-02T10:39:10Z</time>
      </trkpt>
      <trkpt lat="46.162304431200027" lon="8.175353296101093">
        <ele>1867.51</ele>
        <time>2020-08-02T10:39:20Z</time>
      </trkpt>
      <trkpt lat="46.162302251905203" lon="8.175411466509104">
        <ele>1867.29</ele>
        <time>2020-08-02T10:39:31Z</time>
      </trkpt>
      <trkpt lat="46.16231532767415" lon="8.175424626097083">
        <ele>1866.98</ele>
        <time>2020-08-02T10:39:43Z</time>
      </trkpt>
      <trkpt lat="46.162328571081161" lon="8.175477180629969">
        <ele>1866.3399999999999</ele>
        <time>2020-08-02T10:39:55Z</time>
      </trkpt>
      <trkpt lat="46.1623265594244" lon="8.175466367974877">
        <ele>1866</ele>
        <time>2020-08-02T10:40:10Z</time>
      </trkpt>
      <trkpt lat="46.16233091801405" lon="8.175454800948501">
        <ele>1865.6400000000001</ele>
        <time>2020-08-02T10:40:30Z</time>
      </trkpt>
      <trkpt lat="46.162318261340261" lon="8.175464272499085">
        <ele>1865.8</ele>
        <time>2020-08-02T10:40:46Z</time>
      </trkpt>
      <trkpt lat="46.162336030974984" lon="8.175560496747494">
        <ele>1865.27</ele>
        <time>2020-08-02T10:41:02Z</time>
      </trkpt>
      <trkpt lat="46.162326391786337" lon="8.17561749368906">
        <ele>1864.5999999999999</ele>
        <time>2020-08-02T10:41:15Z</time>
      </trkpt>
      <trkpt lat="46.16227182559669" lon="8.175790496170521">
        <ele>1862.8199999999999</ele>
        <time>2020-08-02T10:41:29Z</time>
      </trkpt>
      <trkpt lat="46.162255648523569" lon="8.175826286897063">
        <ele>1860.74</ele>
        <time>2020-08-02T10:41:32Z</time>
      </trkpt>
      <trkpt lat="46.162246344611049" lon="8.175850510597229">
        <ele>1863.3</ele>
        <time>2020-08-02T10:41:34Z</time>
      </trkpt>
      <trkpt lat="46.162231005728245" lon="8.175884038209915">
        <ele>1861.6800000000001</ele>
        <time>2020-08-02T10:41:37Z</time>
      </trkpt>
      <trkpt lat="46.162155065685511" lon="8.176024938002229">
        <ele>1859.8800000000001</ele>
        <time>2020-08-02T10:41:49Z</time>
      </trkpt>
      <trkpt lat="46.162065044045448" lon="8.176200287416577">
        <ele>1858.03</ele>
        <time>2020-08-02T10:42:04Z</time>
      </trkpt>
      <trkpt lat="46.162011567503214" lon="8.176302881911397">
        <ele>1857</ele>
        <time>2020-08-02T10:42:13Z</time>
      </trkpt>
      <trkpt lat="46.161965299397707" lon="8.17641100846231">
        <ele>1855.4400000000001</ele>
        <time>2020-08-02T10:42:22Z</time>
      </trkpt>
      <trkpt lat="46.161954738199711" lon="8.176436237990856">
        <ele>1855</ele>
        <time>2020-08-02T10:42:24Z</time>
      </trkpt>
      <trkpt lat="46.161862285807729" lon="8.176645366474986">
        <ele>1852.6900000000001</ele>
        <time>2020-08-02T10:42:41Z</time>
      </trkpt>
      <trkpt lat="46.161784082651138" lon="8.176788194105029">
        <ele>1850.8199999999999</ele>
        <time>2020-08-02T10:42:53Z</time>
      </trkpt>
      <trkpt lat="46.161697581410408" lon="8.176971422508359">
        <ele>1848.9100000000001</ele>
        <time>2020-08-02T10:43:07Z</time>
      </trkpt>
      <trkpt lat="46.161676794290543" lon="8.17702473141253">
        <ele>1848.5</ele>
        <time>2020-08-02T10:43:18Z</time>
      </trkpt>
      <trkpt lat="46.161662293598056" lon="8.17704719491303">
        <ele>1848.51</ele>
        <time>2020-08-02T10:43:20Z</time>
      </trkpt>
      <trkpt lat="46.161622563377023" lon="8.177166888490319">
        <ele>1847.6199999999999</ele>
        <time>2020-08-02T10:43:28Z</time>
      </trkpt>
      <trkpt lat="46.161577384918928" lon="8.177385237067938">
        <ele>1846.6199999999999</ele>
        <time>2020-08-02T10:43:42Z</time>
      </trkpt>
      <trkpt lat="46.161601692438126" lon="8.177672987803817">
        <ele>1844.8299999999999</ele>
        <time>2020-08-02T10:44:00Z</time>
      </trkpt>
      <trkpt lat="46.161613762378693" lon="8.17788714542985">
        <ele>1843.3800000000001</ele>
        <time>2020-08-02T10:44:13Z</time>
      </trkpt>
      <trkpt lat="46.161616193130612" lon="8.178086970001459">
        <ele>1842.24</ele>
        <time>2020-08-02T10:44:25Z</time>
      </trkpt>
      <trkpt lat="46.16159850731492" lon="8.178331553936005">
        <ele>1839.71</ele>
        <time>2020-08-02T10:44:40Z</time>
      </trkpt>
      <trkpt lat="46.161589622497559" lon="8.178459042683244">
        <ele>1838.03</ele>
        <time>2020-08-02T10:44:48Z</time>
      </trkpt>
      <trkpt lat="46.161609571427107" lon="8.17848913371563">
        <ele>1837.3</ele>
        <time>2020-08-02T10:44:51Z</time>
      </trkpt>
      <trkpt lat="46.161733288317919" lon="8.178532803431153">
        <ele>1835.97</ele>
        <time>2020-08-02T10:45:03Z</time>
      </trkpt>
      <trkpt lat="46.161742843687534" lon="8.178542777895927">
        <ele>1835.74</ele>
        <time>2020-08-02T10:45:04Z</time>
      </trkpt>
      <trkpt lat="46.161754913628101" lon="8.17866263911128">
        <ele>1834.3299999999999</ele>
        <time>2020-08-02T10:45:12Z</time>
      </trkpt>
      <trkpt lat="46.161674447357655" lon="8.178765401244164">
        <ele>1833.79</ele>
        <time>2020-08-02T10:45:25Z</time>
      </trkpt>
      <trkpt lat="46.16166983731091" lon="8.178773950785399">
        <ele>1833.6300000000001</ele>
        <time>2020-08-02T10:45:33Z</time>
      </trkpt>
      <trkpt lat="46.161636309698224" lon="8.178815608844161">
        <ele>1833.02</ele>
        <time>2020-08-02T10:45:38Z</time>
      </trkpt>
      <trkpt lat="46.161572355777025" lon="8.179000848904252">
        <ele>1832.8099999999999</ele>
        <time>2020-08-02T10:45:52Z</time>
      </trkpt>
      <trkpt lat="46.161578558385372" lon="8.179118363186717">
        <ele>1832.28</ele>
        <time>2020-08-02T10:46:00Z</time>
      </trkpt>
      <trkpt lat="46.161558693274856" lon="8.179280050098896">
        <ele>1831.05</ele>
        <time>2020-08-02T10:46:14Z</time>
      </trkpt>
      <trkpt lat="46.161547210067511" lon="8.17936085164547">
        <ele>1830.25</ele>
        <time>2020-08-02T10:46:20Z</time>
      </trkpt>
      <trkpt lat="46.161491302773356" lon="8.179518934339285">
        <ele>1829.0899999999999</ele>
        <time>2020-08-02T10:46:33Z</time>
      </trkpt>
      <trkpt lat="46.161434724926949" lon="8.179677939042449">
        <ele>1827.5599999999999</ele>
        <time>2020-08-02T10:46:45Z</time>
      </trkpt>
      <trkpt lat="46.161375297233462" lon="8.179854461923242">
        <ele>1825.98</ele>
        <time>2020-08-02T10:46:57Z</time>
      </trkpt>
      <trkpt lat="46.161347888410091" lon="8.179944902658463">
        <ele>1825.01</ele>
        <time>2020-08-02T10:47:03Z</time>
      </trkpt>
      <trkpt lat="46.161321066319942" lon="8.180049760267139">
        <ele>1824.1400000000001</ele>
        <time>2020-08-02T10:47:14Z</time>
      </trkpt>
      <trkpt lat="46.161306733265519" lon="8.180087227374315">
        <ele>1823.53</ele>
        <time>2020-08-02T10:47:17Z</time>
      </trkpt>
      <trkpt lat="46.161214951425791" lon="8.180246064439416">
        <ele>1820.95</ele>
        <time>2020-08-02T10:47:30Z</time>
      </trkpt>
      <trkpt lat="46.161138508468866" lon="8.180392580106854">
        <ele>1819.8</ele>
        <time>2020-08-02T10:47:42Z</time>
      </trkpt>
      <trkpt lat="46.161085953935981" lon="8.180547142401338">
        <ele>1818.4100000000001</ele>
        <time>2020-08-02T10:47:54Z</time>
      </trkpt>
      <trkpt lat="46.16105510853231" lon="8.180770352482796">
        <ele>1816.4100000000001</ele>
        <time>2020-08-02T10:48:09Z</time>
      </trkpt>
      <trkpt lat="46.161015126854181" lon="8.180985264480114">
        <ele>1814.71</ele>
        <time>2020-08-02T10:48:23Z</time>
      </trkpt>
      <trkpt lat="46.160933151841164" lon="8.181213838979602">
        <ele>1812.72</ele>
        <time>2020-08-02T10:48:40Z</time>
      </trkpt>
      <trkpt lat="46.160863162949681" lon="8.181427074596286">
        <ele>1810.6600000000001</ele>
        <time>2020-08-02T10:48:55Z</time>
      </trkpt>
      <trkpt lat="46.160803902894258" lon="8.181568728759885">
        <ele>1809.4000000000001</ele>
        <time>2020-08-02T10:49:07Z</time>
      </trkpt>
      <trkpt lat="46.160784121602774" lon="8.181617679074407">
        <ele>1809.04</ele>
        <time>2020-08-02T10:49:11Z</time>
      </trkpt>
      <trkpt lat="46.160761909559369" lon="8.181666042655706">
        <ele>1808.74</ele>
        <time>2020-08-02T10:49:15Z</time>
      </trkpt>
      <trkpt lat="46.160742798820138" lon="8.181699151173234">
        <ele>1808.6800000000001</ele>
        <time>2020-08-02T10:49:18Z</time>
      </trkpt>
      <trkpt lat="46.160678509622812" lon="8.181835357099772">
        <ele>1807.98</ele>
        <time>2020-08-02T10:49:29Z</time>
      </trkpt>
      <trkpt lat="46.160627380013466" lon="8.181925797834992">
        <ele>1806.73</ele>
        <time>2020-08-02T10:49:38Z</time>
      </trkpt>
      <trkpt lat="46.160507015883923" lon="8.182082287967205">
        <ele>1804.6199999999999</ele>
        <time>2020-08-02T10:49:53Z</time>
      </trkpt>
      <trkpt lat="46.160399811342359" lon="8.182232491672039">
        <ele>1802.0999999999999</ele>
        <time>2020-08-02T10:50:07Z</time>
      </trkpt>
      <trkpt lat="46.160311214625835" lon="8.182383030653">
        <ele>1800.0999999999999</ele>
        <time>2020-08-02T10:50:20Z</time>
      </trkpt>
      <trkpt lat="46.160231670364738" lon="8.182538934051991">
        <ele>1798.27</ele>
        <time>2020-08-02T10:50:33Z</time>
      </trkpt>
      <trkpt lat="46.160220103338361" lon="8.18257506005466">
        <ele>1798.01</ele>
        <time>2020-08-02T10:50:40Z</time>
      </trkpt>
      <trkpt lat="46.160205686464906" lon="8.182611102238298">
        <ele>1797.6199999999999</ele>
        <time>2020-08-02T10:50:43Z</time>
      </trkpt>
      <trkpt lat="46.160103930160403" lon="8.182849986478686">
        <ele>1794.3499999999999</ele>
        <time>2020-08-02T10:51:01Z</time>
      </trkpt>
      <trkpt lat="46.160044753924012" lon="8.183004297316074">
        <ele>1792.54</ele>
        <time>2020-08-02T10:51:13Z</time>
      </trkpt>
      <trkpt lat="46.160022625699639" lon="8.183069592341781">
        <ele>1791.72</ele>
        <time>2020-08-02T10:51:18Z</time>
      </trkpt>
      <trkpt lat="46.160017931833863" lon="8.183111753314734">
        <ele>1791.3</ele>
        <time>2020-08-02T10:51:21Z</time>
      </trkpt>
      <trkpt lat="46.15996403619647" lon="8.183233207091689">
        <ele>1789.23</ele>
        <time>2020-08-02T10:51:32Z</time>
      </trkpt>
      <trkpt lat="46.159906620159745" lon="8.183375028893352">
        <ele>1787.0599999999999</ele>
        <time>2020-08-02T10:51:45Z</time>
      </trkpt>
      <trkpt lat="46.159859765321016" lon="8.183520622551441">
        <ele>1785.1099999999999</ele>
        <time>2020-08-02T10:51:56Z</time>
      </trkpt>
      <trkpt lat="46.159801511093974" lon="8.183684572577477">
        <ele>1783.1199999999999</ele>
        <time>2020-08-02T10:52:09Z</time>
      </trkpt>
      <trkpt lat="46.159748956561089" lon="8.183799488469958">
        <ele>1781.3900000000001</ele>
        <time>2020-08-02T10:52:20Z</time>
      </trkpt>
      <trkpt lat="46.159689780324697" lon="8.18392219953239">
        <ele>1778.8199999999999</ele>
        <time>2020-08-02T10:52:32Z</time>
      </trkpt>
      <trkpt lat="46.159662455320358" lon="8.18395983427763">
        <ele>1778.52</ele>
        <time>2020-08-02T10:52:43Z</time>
      </trkpt>
      <trkpt lat="46.159646529704332" lon="8.183961343020201">
        <ele>1778.0999999999999</ele>
        <time>2020-08-02T10:52:54Z</time>
      </trkpt>
      <trkpt lat="46.159639908000827" lon="8.18397106602788">
        <ele>1778.2</ele>
        <time>2020-08-02T10:53:08Z</time>
      </trkpt>
      <trkpt lat="46.159633370116353" lon="8.183968383818865">
        <ele>1778.4200000000001</ele>
        <time>2020-08-02T10:53:26Z</time>
      </trkpt>
      <trkpt lat="46.159612080082297" lon="8.183937706053257">
        <ele>1778.1300000000001</ele>
        <time>2020-08-02T10:53:49Z</time>
      </trkpt>
      <trkpt lat="46.159624652937055" lon="8.183932844549418">
        <ele>1778.1600000000001</ele>
        <time>2020-08-02T10:54:11Z</time>
      </trkpt>
      <trkpt lat="46.159625826403499" lon="8.183934856206179">
        <ele>1778.29</ele>
        <time>2020-08-02T10:54:31Z</time>
      </trkpt>
      <trkpt lat="46.159629262983799" lon="8.183929240331054">
        <ele>1778.1600000000001</ele>
        <time>2020-08-02T10:54:51Z</time>
      </trkpt>
      <trkpt lat="46.159625742584467" lon="8.183921780437231">
        <ele>1777.96</ele>
        <time>2020-08-02T10:55:11Z</time>
      </trkpt>
      <trkpt lat="46.159602692350745" lon="8.183921696618199">
        <ele>1778.26</ele>
        <time>2020-08-02T10:55:33Z</time>
      </trkpt>
      <trkpt lat="46.15959020331502" lon="8.183918176218867">
        <ele>1778.3099999999999</ele>
        <time>2020-08-02T10:55:49Z</time>
      </trkpt>
      <trkpt lat="46.159595735371113" lon="8.183910632506013">
        <ele>1778.0899999999999</ele>
        <time>2020-08-02T10:56:06Z</time>
      </trkpt>
      <trkpt lat="46.15959414280951" lon="8.183915913105011">
        <ele>1776.1199999999999</ele>
        <time>2020-08-02T10:56:19Z</time>
      </trkpt>
      <trkpt lat="46.159596657380462" lon="8.183914152905345">
        <ele>1779.6300000000001</ele>
        <time>2020-08-02T10:56:24Z</time>
      </trkpt>
      <trkpt lat="46.159590957686305" lon="8.183928234502673">
        <ele>1777.6600000000001</ele>
        <time>2020-08-02T10:56:52Z</time>
      </trkpt>
      <trkpt lat="46.159590287134051" lon="8.183931838721037">
        <ele>1779.52</ele>
        <time>2020-08-02T10:56:58Z</time>
      </trkpt>
      <trkpt lat="46.159594813361764" lon="8.183922618627548">
        <ele>1777.8399999999999</ele>
        <time>2020-08-02T10:57:17Z</time>
      </trkpt>
      <trkpt lat="46.159563129767776" lon="8.18387920036912">
        <ele>1777.3399999999999</ele>
        <time>2020-08-02T10:57:36Z</time>
      </trkpt>
      <trkpt lat="46.15953991189599" lon="8.183842655271292">
        <ele>1776.5599999999999</ele>
        <time>2020-08-02T10:57:40Z</time>
      </trkpt>
      <trkpt lat="46.159456428140402" lon="8.183710388839245">
        <ele>1774.4300000000001</ele>
        <time>2020-08-02T10:57:54Z</time>
      </trkpt>
      <trkpt lat="46.1594323720783" lon="8.183683315292001">
        <ele>1773.9000000000001</ele>
        <time>2020-08-02T10:57:58Z</time>
      </trkpt>
      <trkpt lat="46.159323994070292" lon="8.183535626158118">
        <ele>1771.0999999999999</ele>
        <time>2020-08-02T10:58:13Z</time>
      </trkpt>
      <trkpt lat="46.159218968823552" lon="8.183422973379493">
        <ele>1768.96</ele>
        <time>2020-08-02T10:58:27Z</time>
      </trkpt>
      <trkpt lat="46.159204551950097" lon="8.183431103825569">
        <ele>1768.6800000000001</ele>
        <time>2020-08-02T10:58:29Z</time>
      </trkpt>
      <trkpt lat="46.159105394035578" lon="8.183532105758786">
        <ele>1766.0599999999999</ele>
        <time>2020-08-02T10:58:42Z</time>
      </trkpt>
      <trkpt lat="46.159013947471976" lon="8.183626569807529">
        <ele>1763.9100000000001</ele>
        <time>2020-08-02T10:58:54Z</time>
      </trkpt>
      <trkpt lat="46.158920740708709" lon="8.183790100738406">
        <ele>1761.1600000000001</ele>
        <time>2020-08-02T10:59:08Z</time>
      </trkpt>
      <trkpt lat="46.158888302743435" lon="8.18396519869566">
        <ele>1758.3499999999999</ele>
        <time>2020-08-02T10:59:20Z</time>
      </trkpt>
      <trkpt lat="46.158888805657625" lon="8.184061422944069">
        <ele>1757.23</ele>
        <time>2020-08-02T10:59:26Z</time>
      </trkpt>
      <trkpt lat="46.158867347985506" lon="8.184259571135044">
        <ele>1754.3299999999999</ele>
        <time>2020-08-02T10:59:39Z</time>
      </trkpt>
      <trkpt lat="46.158829964697361" lon="8.1843878980726">
        <ele>1752.4100000000001</ele>
        <time>2020-08-02T10:59:48Z</time>
      </trkpt>
      <trkpt lat="46.158803980797529" lon="8.184406589716673">
        <ele>1751.5799999999999</ele>
        <time>2020-08-02T10:59:51Z</time>
      </trkpt>
      <trkpt lat="46.158669367432594" lon="8.184365853667259">
        <ele>1748.6900000000001</ele>
        <time>2020-08-02T11:00:05Z</time>
      </trkpt>
      <trkpt lat="46.15861052647233" lon="8.184353448450565">
        <ele>1747.6700000000001</ele>
        <time>2020-08-02T11:00:11Z</time>
      </trkpt>
      <trkpt lat="46.158555960282683" lon="8.184348754584789">
        <ele>1746.4000000000001</ele>
        <time>2020-08-02T11:00:22Z</time>
      </trkpt>
      <trkpt lat="46.158527797088027" lon="8.184330146759749">
        <ele>1746.5699999999999</ele>
        <time>2020-08-02T11:00:28Z</time>
      </trkpt>
      <trkpt lat="46.158497035503387" lon="8.184331068769097">
        <ele>1745.8499999999999</ele>
        <time>2020-08-02T11:00:31Z</time>
      </trkpt>
      <trkpt lat="46.158373486250639" lon="8.184338361024857">
        <ele>1744.5799999999999</ele>
        <time>2020-08-02T11:00:41Z</time>
      </trkpt>
      <trkpt lat="46.158215487375855" lon="8.184308772906661">
        <ele>1742.48</ele>
        <time>2020-08-02T11:00:55Z</time>
      </trkpt>
      <trkpt lat="46.158173494040966" lon="8.184308689087629">
        <ele>1741.8499999999999</ele>
        <time>2020-08-02T11:00:59Z</time>
      </trkpt>
      <trkpt lat="46.158106019720435" lon="8.184371218085289">
        <ele>1740.6300000000001</ele>
        <time>2020-08-02T11:01:07Z</time>
      </trkpt>
      <trkpt lat="46.158003928139806" lon="8.184556625783444">
        <ele>1737.51</ele>
        <time>2020-08-02T11:01:23Z</time>
      </trkpt>
      <trkpt lat="46.157984985038638" lon="8.184553859755397">
        <ele>1736.8099999999999</ele>
        <time>2020-08-02T11:01:25Z</time>
      </trkpt>
      <trkpt lat="46.157927736639977" lon="8.184504993259907">
        <ele>1735.5899999999999</ele>
        <time>2020-08-02T11:01:31Z</time>
      </trkpt>
      <trkpt lat="46.157872583717108" lon="8.184451935812831">
        <ele>1734.04</ele>
        <time>2020-08-02T11:01:38Z</time>
      </trkpt>
      <trkpt lat="46.157821202650666" lon="8.184356046840549">
        <ele>1732.3299999999999</ele>
        <time>2020-08-02T11:01:52Z</time>
      </trkpt>
      <trkpt lat="46.157803013920784" lon="8.184347664937377">
        <ele>1732.0999999999999</ele>
        <time>2020-08-02T11:01:57Z</time>
      </trkpt>
      <trkpt lat="46.157764540985227" lon="8.184299301356077">
        <ele>1731.4400000000001</ele>
        <time>2020-08-02T11:02:02Z</time>
      </trkpt>
      <trkpt lat="46.157747190445662" lon="8.184283962473273">
        <ele>1731.0999999999999</ele>
        <time>2020-08-02T11:02:04Z</time>
      </trkpt>
      <trkpt lat="46.15763571113348" lon="8.184356465935707">
        <ele>1729.4000000000001</ele>
        <time>2020-08-02T11:02:17Z</time>
      </trkpt>
      <trkpt lat="46.15759908221662" lon="8.184464760124683">
        <ele>1727.45</ele>
        <time>2020-08-02T11:02:27Z</time>
      </trkpt>
      <trkpt lat="46.157555915415287" lon="8.184648575261235">
        <ele>1725.3199999999999</ele>
        <time>2020-08-02T11:02:41Z</time>
      </trkpt>
      <trkpt lat="46.157510653138161" lon="8.184689059853554">
        <ele>1723.8900000000001</ele>
        <time>2020-08-02T11:02:47Z</time>
      </trkpt>
      <trkpt lat="46.157358940690756" lon="8.184723844751716">
        <ele>1720.8099999999999</ele>
        <time>2020-08-02T11:03:02Z</time>
      </trkpt>
      <trkpt lat="46.157276798039675" lon="8.184855272993445">
        <ele>1717.78</ele>
        <time>2020-08-02T11:03:14Z</time>
      </trkpt>
      <trkpt lat="46.157262129709125" lon="8.18487161770463">
        <ele>1717.29</ele>
        <time>2020-08-02T11:03:16Z</time>
      </trkpt>
      <trkpt lat="46.15724528208375" lon="8.184884106740356">
        <ele>1717.1600000000001</ele>
        <time>2020-08-02T11:03:21Z</time>
      </trkpt>
      <trkpt lat="46.157264057546854" lon="8.184915538877249">
        <ele>1716.99</ele>
        <time>2020-08-02T11:03:24Z</time>
      </trkpt>
      <trkpt lat="46.157291969284415" lon="8.185007655993104">
        <ele>1715.76</ele>
        <time>2020-08-02T11:03:31Z</time>
      </trkpt>
      <trkpt lat="46.157205887138844" lon="8.185090972110629">
        <ele>1713.72</ele>
        <time>2020-08-02T11:03:43Z</time>
      </trkpt>
      <trkpt lat="46.157163642346859" lon="8.18516481667757">
        <ele>1711.4000000000001</ele>
        <time>2020-08-02T11:03:55Z</time>
      </trkpt>
      <trkpt lat="46.157157607376575" lon="8.185174120590091">
        <ele>1711.05</ele>
        <time>2020-08-02T11:03:56Z</time>
      </trkpt>
      <trkpt lat="46.157106561586261" lon="8.185251737013459">
        <ele>1709.4300000000001</ele>
        <time>2020-08-02T11:04:04Z</time>
      </trkpt>
      <trkpt lat="46.157121313735843" lon="8.185445694252849">
        <ele>1706.72</ele>
        <time>2020-08-02T11:04:17Z</time>
      </trkpt>
      <trkpt lat="46.157100694254041" lon="8.18563780747354">
        <ele>1704.47</ele>
        <time>2020-08-02T11:04:30Z</time>
      </trkpt>
      <trkpt lat="46.157090468332171" lon="8.185801422223449">
        <ele>1702.21</ele>
        <time>2020-08-02T11:04:42Z</time>
      </trkpt>
      <trkpt lat="46.157074794173241" lon="8.185840481892228">
        <ele>1701.6300000000001</ele>
        <time>2020-08-02T11:04:45Z</time>
      </trkpt>
      <trkpt lat="46.157020227983594" lon="8.185799075290561">
        <ele>1700.5899999999999</ele>
        <time>2020-08-02T11:04:54Z</time>
      </trkpt>
      <trkpt lat="46.157006900757551" lon="8.185750460252166">
        <ele>1699.1700000000001</ele>
        <time>2020-08-02T11:04:59Z</time>
      </trkpt>
      <trkpt lat="46.156975887715816" lon="8.185714082792401">
        <ele>1698.47</ele>
        <time>2020-08-02T11:05:03Z</time>
      </trkpt>
      <trkpt lat="46.156950239092112" lon="8.185687763616443">
        <ele>1697.8</ele>
        <time>2020-08-02T11:05:06Z</time>
      </trkpt>
      <trkpt lat="46.156884273514152" lon="8.185638980939984">
        <ele>1696.51</ele>
        <time>2020-08-02T11:05:13Z</time>
      </trkpt>
      <trkpt lat="46.156789725646377" lon="8.185589192435145">
        <ele>1694.3199999999999</ele>
        <time>2020-08-02T11:05:23Z</time>
      </trkpt>
      <trkpt lat="46.15675175562501" lon="8.185675526037812">
        <ele>1692.5999999999999</ele>
        <time>2020-08-02T11:05:31Z</time>
      </trkpt>
      <trkpt lat="46.156724262982607" lon="8.185839559882879">
        <ele>1690.1400000000001</ele>
        <time>2020-08-02T11:05:43Z</time>
      </trkpt>
      <trkpt lat="46.156700123101473" lon="8.185866130515933">
        <ele>1688.8699999999999</ele>
        <time>2020-08-02T11:05:46Z</time>
      </trkpt>
      <trkpt lat="46.156635750085115" lon="8.185819946229458">
        <ele>1687.2</ele>
        <time>2020-08-02T11:05:53Z</time>
      </trkpt>
      <trkpt lat="46.156620411202312" lon="8.185775773599744">
        <ele>1686.29</ele>
        <time>2020-08-02T11:05:56Z</time>
      </trkpt>
      <trkpt lat="46.156611777842045" lon="8.18574677221477">
        <ele>1686.02</ele>
        <time>2020-08-02T11:05:58Z</time>
      </trkpt>
      <trkpt lat="46.156583614647388" lon="8.185664126649499">
        <ele>1685.03</ele>
        <time>2020-08-02T11:06:04Z</time>
      </trkpt>
      <trkpt lat="46.156568191945553" lon="8.185612997040153">
        <ele>1684.3099999999999</ele>
        <time>2020-08-02T11:06:09Z</time>
      </trkpt>
      <trkpt lat="46.156548662111163" lon="8.185518952086568">
        <ele>1682.9300000000001</ele>
        <time>2020-08-02T11:06:15Z</time>
      </trkpt>
      <trkpt lat="46.156517397612333" lon="8.185350727289915">
        <ele>1680.29</ele>
        <time>2020-08-02T11:06:27Z</time>
      </trkpt>
      <trkpt lat="46.156445564702153" lon="8.185471007600427">
        <ele>1677.6800000000001</ele>
        <time>2020-08-02T11:06:41Z</time>
      </trkpt>
      <trkpt lat="46.156441792845726" lon="8.18549414165318">
        <ele>1677.1800000000001</ele>
        <time>2020-08-02T11:06:43Z</time>
      </trkpt>
      <trkpt lat="46.15637943148613" lon="8.185672927647829">
        <ele>1673.95</ele>
        <time>2020-08-02T11:06:57Z</time>
      </trkpt>
      <trkpt lat="46.15632327273488" lon="8.18582153879106">
        <ele>1671.96</ele>
        <time>2020-08-02T11:07:07Z</time>
      </trkpt>
      <trkpt lat="46.156271053478122" lon="8.185975765809417">
        <ele>1669.9400000000001</ele>
        <time>2020-08-02T11:07:18Z</time>
      </trkpt>
      <trkpt lat="46.156219001859426" lon="8.186081377789378">
        <ele>1668.1900000000001</ele>
        <time>2020-08-02T11:07:26Z</time>
      </trkpt>
      <trkpt lat="46.156205255538225" lon="8.186169639229775">
        <ele>1666.8499999999999</ele>
        <time>2020-08-02T11:07:33Z</time>
      </trkpt>
      <trkpt lat="46.156198885291815" lon="8.186244741082192">
        <ele>1665.9100000000001</ele>
        <time>2020-08-02T11:07:38Z</time>
      </trkpt>
      <trkpt lat="46.156188659369946" lon="8.186318250373006">
        <ele>1664.8</ele>
        <time>2020-08-02T11:07:42Z</time>
      </trkpt>
      <trkpt lat="46.156170386821032" lon="8.18655981682241">
        <ele>1661.9400000000001</ele>
        <time>2020-08-02T11:07:55Z</time>
      </trkpt>
      <trkpt lat="46.156119760125875" lon="8.186553865671158">
        <ele>1660.23</ele>
        <time>2020-08-02T11:08:01Z</time>
      </trkpt>
      <trkpt lat="46.156106013804674" lon="8.186520086601377">
        <ele>1659.8800000000001</ele>
        <time>2020-08-02T11:08:03Z</time>
      </trkpt>
      <trkpt lat="46.156087573617697" lon="8.186418749392033">
        <ele>1658.8599999999999</ele>
        <time>2020-08-02T11:08:09Z</time>
      </trkpt>
      <trkpt lat="46.156063182279468" lon="8.186359824612737">
        <ele>1658.3900000000001</ele>
        <time>2020-08-02T11:08:13Z</time>
      </trkpt>
      <trkpt lat="46.156035521999002" lon="8.186272485181689">
        <ele>1657.3199999999999</ele>
        <time>2020-08-02T11:08:20Z</time>
      </trkpt>
      <trkpt lat="46.155975926667452" lon="8.186087496578693">
        <ele>1655.3299999999999</ele>
        <time>2020-08-02T11:08:33Z</time>
      </trkpt>
      <trkpt lat="46.15597290918231" lon="8.18607215769589">
        <ele>1655.04</ele>
        <time>2020-08-02T11:08:34Z</time>
      </trkpt>
      <trkpt lat="46.155937872827053" lon="8.18592413328588">
        <ele>1653.24</ele>
        <time>2020-08-02T11:08:43Z</time>
      </trkpt>
      <trkpt lat="46.155922198668122" lon="8.185796728357673">
        <ele>1652.1300000000001</ele>
        <time>2020-08-02T11:08:51Z</time>
      </trkpt>
      <trkpt lat="46.155910128727555" lon="8.185740150511265">
        <ele>1651.6800000000001</ele>
        <time>2020-08-02T11:08:55Z</time>
      </trkpt>
      <trkpt lat="46.155887832865119" lon="8.18558894097805">
        <ele>1650.0599999999999</ele>
        <time>2020-08-02T11:09:05Z</time>
      </trkpt>
      <trkpt lat="46.155855562537909" lon="8.185497997328639">
        <ele>1648.3499999999999</ele>
        <time>2020-08-02T11:09:13Z</time>
      </trkpt>
      <trkpt lat="46.15584148094058" lon="8.185505624860525">
        <ele>1647.8</ele>
        <time>2020-08-02T11:09:16Z</time>
      </trkpt>
      <trkpt lat="46.155812982469797" lon="8.185603693127632">
        <ele>1645.9300000000001</ele>
        <time>2020-08-02T11:09:24Z</time>
      </trkpt>
      <trkpt lat="46.155804600566626" lon="8.1856519728899">
        <ele>1645.3499999999999</ele>
        <time>2020-08-02T11:09:27Z</time>
      </trkpt>
      <trkpt lat="46.155749028548598" lon="8.185757836326957">
        <ele>1643.78</ele>
        <time>2020-08-02T11:09:35Z</time>
      </trkpt>
      <trkpt lat="46.15571491420269" lon="8.185833860188723">
        <ele>1642.51</ele>
        <time>2020-08-02T11:09:41Z</time>
      </trkpt>
      <trkpt lat="46.155655737966299" lon="8.186019184067845">
        <ele>1639.5899999999999</ele>
        <time>2020-08-02T11:09:55Z</time>
      </trkpt>
      <trkpt lat="46.155632939189672" lon="8.186083221808076">
        <ele>1638.4000000000001</ele>
        <time>2020-08-02T11:10:00Z</time>
      </trkpt>
      <trkpt lat="46.155567057430744" lon="8.186242058873177">
        <ele>1636.5999999999999</ele>
        <time>2020-08-02T11:10:10Z</time>
      </trkpt>
      <trkpt lat="46.155536379665136" lon="8.186434675008059">
        <ele>1635.0799999999999</ele>
        <time>2020-08-02T11:10:21Z</time>
      </trkpt>
      <trkpt lat="46.155504947528243" lon="8.186495946720243">
        <ele>1633.8800000000001</ele>
        <time>2020-08-02T11:10:26Z</time>
      </trkpt>
      <trkpt lat="46.155476197600365" lon="8.18646945990622">
        <ele>1633.1500000000001</ele>
        <time>2020-08-02T11:10:29Z</time>
      </trkpt>
      <trkpt lat="46.155454907566309" lon="8.186406260356307">
        <ele>1632.47</ele>
        <time>2020-08-02T11:10:33Z</time>
      </trkpt>
      <trkpt lat="46.15540461614728" lon="8.186188833788037">
        <ele>1629.21</ele>
        <time>2020-08-02T11:10:47Z</time>
      </trkpt>
      <trkpt lat="46.155403777956963" lon="8.186158072203398">
        <ele>1628.6800000000001</ele>
        <time>2020-08-02T11:10:49Z</time>
      </trkpt>
      <trkpt lat="46.155361365526915" lon="8.186006862670183">
        <ele>1626.3599999999999</ele>
        <time>2020-08-02T11:10:59Z</time>
      </trkpt>
      <trkpt lat="46.155341416597366" lon="8.185939555987716">
        <ele>1625.26</ele>
        <time>2020-08-02T11:11:04Z</time>
      </trkpt>
      <trkpt lat="46.15531861782074" lon="8.185793124139309">
        <ele>1622.5</ele>
        <time>2020-08-02T11:11:15Z</time>
      </trkpt>
      <trkpt lat="46.155341835692525" lon="8.185631018131971">
        <ele>1619.9300000000001</ele>
        <time>2020-08-02T11:11:26Z</time>
      </trkpt>
      <trkpt lat="46.155333705246449" lon="8.18559623323381">
        <ele>1619.4400000000001</ele>
        <time>2020-08-02T11:11:28Z</time>
      </trkpt>
      <trkpt lat="46.155338734388351" lon="8.185550887137651">
        <ele>1618.71</ele>
        <time>2020-08-02T11:11:31Z</time>
      </trkpt>
      <trkpt lat="46.155383829027414" lon="8.185333209112287">
        <ele>1616.8900000000001</ele>
        <time>2020-08-02T11:11:44Z</time>
      </trkpt>
      <trkpt lat="46.155416602268815" lon="8.18523271009326">
        <ele>1616.54</ele>
        <time>2020-08-02T11:11:50Z</time>
      </trkpt>
      <trkpt lat="46.155426660552621" lon="8.185176383703947">
        <ele>1616.74</ele>
        <time>2020-08-02T11:11:53Z</time>
      </trkpt>
      <trkpt lat="46.155318114906549" lon="8.184888381510973">
        <ele>1616.46</ele>
        <time>2020-08-02T11:12:10Z</time>
      </trkpt>
      <trkpt lat="46.1551065556705" lon="8.184879496693611">
        <ele>1615.97</ele>
        <time>2020-08-02T11:12:26Z</time>
      </trkpt>
      <trkpt lat="46.154979234561324" lon="8.185147466138005">
        <ele>1615.3699999999999</ele>
        <time>2020-08-02T11:12:44Z</time>
      </trkpt>
      <trkpt lat="46.154966745525599" lon="8.185176299884915">
        <ele>1615.2</ele>
        <time>2020-08-02T11:12:46Z</time>
      </trkpt>
      <trkpt lat="46.154878986999393" lon="8.18534754216671">
        <ele>1616.4100000000001</ele>
        <time>2020-08-02T11:13:00Z</time>
      </trkpt>
      <trkpt lat="46.154809333384037" lon="8.185489028692246">
        <ele>1617.9400000000001</ele>
        <time>2020-08-02T11:13:12Z</time>
      </trkpt>
      <trkpt lat="46.154723754152656" lon="8.185621630400419">
        <ele>1619.23</ele>
        <time>2020-08-02T11:13:24Z</time>
      </trkpt>
      <trkpt lat="46.154665416106582" lon="8.185706874355674">
        <ele>1619.8299999999999</ele>
        <time>2020-08-02T11:13:32Z</time>
      </trkpt>
      <trkpt lat="46.154649574309587" lon="8.185746604576707">
        <ele>1619.6800000000001</ele>
        <time>2020-08-02T11:13:35Z</time>
      </trkpt>
      <trkpt lat="46.15463012829423" lon="8.18578583188355">
        <ele>1619.77</ele>
        <time>2020-08-02T11:13:38Z</time>
      </trkpt>
      <trkpt lat="46.154614957049489" lon="8.185844253748655">
        <ele>1620.02</ele>
        <time>2020-08-02T11:13:42Z</time>
      </trkpt>
      <trkpt lat="46.154492748901248" lon="8.186066374182701">
        <ele>1619.78</ele>
        <time>2020-08-02T11:13:59Z</time>
      </trkpt>
      <trkpt lat="46.154412869364023" lon="8.186328476294875">
        <ele>1621.1300000000001</ele>
        <time>2020-08-02T11:14:17Z</time>
      </trkpt>
      <trkpt lat="46.154328966513276" lon="8.18645428866148">
        <ele>1621.71</ele>
        <time>2020-08-02T11:14:28Z</time>
      </trkpt>
      <trkpt lat="46.154257385060191" lon="8.186678169295192">
        <ele>1623.01</ele>
        <time>2020-08-02T11:14:43Z</time>
      </trkpt>
      <trkpt lat="46.154236095026135" lon="8.186818649992347">
        <ele>1623.9100000000001</ele>
        <time>2020-08-02T11:14:53Z</time>
      </trkpt>
      <trkpt lat="46.154227880761027" lon="8.186926692724228">
        <ele>1623.78</ele>
        <time>2020-08-02T11:15:00Z</time>
      </trkpt>
      <trkpt lat="46.154140792787075" lon="8.187112016603351">
        <ele>1621.97</ele>
        <time>2020-08-02T11:15:13Z</time>
      </trkpt>
      <trkpt lat="46.154071558266878" lon="8.187300860881805">
        <ele>1621.3099999999999</ele>
        <time>2020-08-02T11:15:25Z</time>
      </trkpt>
      <trkpt lat="46.154058901593089" lon="8.187386272475123">
        <ele>1621.1700000000001</ele>
        <time>2020-08-02T11:15:30Z</time>
      </trkpt>
      <trkpt lat="46.154047502204776" lon="8.187457853928208">
        <ele>1621.04</ele>
        <time>2020-08-02T11:15:34Z</time>
      </trkpt>
      <trkpt lat="46.154020596295595" lon="8.187690284103155">
        <ele>1621.0599999999999</ele>
        <time>2020-08-02T11:15:48Z</time>
      </trkpt>
      <trkpt lat="46.154005927965045" lon="8.187757758423686">
        <ele>1620.78</ele>
        <time>2020-08-02T11:15:52Z</time>
      </trkpt>
      <trkpt lat="46.153979441151023" lon="8.187853731215">
        <ele>1620.45</ele>
        <time>2020-08-02T11:15:58Z</time>
      </trkpt>
      <trkpt lat="46.153913978487253" lon="8.188096303492785">
        <ele>1619.4200000000001</ele>
        <time>2020-08-02T11:16:13Z</time>
      </trkpt>
      <trkpt lat="46.153821777552366" lon="8.188366955146194">
        <ele>1618.52</ele>
        <time>2020-08-02T11:16:29Z</time>
      </trkpt>
      <trkpt lat="46.153767462819815" lon="8.188578179106116">
        <ele>1617.02</ele>
        <time>2020-08-02T11:16:42Z</time>
      </trkpt>
      <trkpt lat="46.153735779225826" lon="8.188741793856025">
        <ele>1616.26</ele>
        <time>2020-08-02T11:16:51Z</time>
      </trkpt>
      <trkpt lat="46.153706777840853" lon="8.188884118571878">
        <ele>1615.4400000000001</ele>
        <time>2020-08-02T11:16:59Z</time>
      </trkpt>
      <trkpt lat="46.153688840568066" lon="8.188968943431974">
        <ele>1615.0899999999999</ele>
        <time>2020-08-02T11:17:04Z</time>
      </trkpt>
      <trkpt lat="46.153615666553378" lon="8.189214365556836">
        <ele>1614.21</ele>
        <time>2020-08-02T11:17:18Z</time>
      </trkpt>
      <trkpt lat="46.153502762317657" lon="8.189492644742131">
        <ele>1614.4400000000001</ele>
        <time>2020-08-02T11:17:35Z</time>
      </trkpt>
      <trkpt lat="46.1533831525594" lon="8.189772684127092">
        <ele>1614.6500000000001</ele>
        <time>2020-08-02T11:17:52Z</time>
      </trkpt>
      <trkpt lat="46.153350044041872" lon="8.189978627488017">
        <ele>1615.29</ele>
        <time>2020-08-02T11:18:05Z</time>
      </trkpt>
      <trkpt lat="46.153320036828518" lon="8.190164286643267">
        <ele>1615.9300000000001</ele>
        <time>2020-08-02T11:18:16Z</time>
      </trkpt>
      <trkpt lat="46.15327762439847" lon="8.190304432064295">
        <ele>1616.9400000000001</ele>
        <time>2020-08-02T11:18:26Z</time>
      </trkpt>
      <trkpt lat="46.153221130371094" lon="8.190457317978144">
        <ele>1617.73</ele>
        <time>2020-08-02T11:18:37Z</time>
      </trkpt>
      <trkpt lat="46.15321802906692" lon="8.19047081284225">
        <ele>1617.9200000000001</ele>
        <time>2020-08-02T11:18:38Z</time>
      </trkpt>
      <trkpt lat="46.153158266097307" lon="8.190661333501339">
        <ele>1617.8900000000001</ele>
        <time>2020-08-02T11:18:49Z</time>
      </trkpt>
      <trkpt lat="46.153152231127024" lon="8.190721599385142">
        <ele>1617.8699999999999</ele>
        <time>2020-08-02T11:18:52Z</time>
      </trkpt>
      <trkpt lat="46.153144855052233" lon="8.190772393718362">
        <ele>1617.71</ele>
        <time>2020-08-02T11:18:55Z</time>
      </trkpt>
      <trkpt lat="46.153041590005159" lon="8.191079087555409">
        <ele>1616.6099999999999</ele>
        <time>2020-08-02T11:19:12Z</time>
      </trkpt>
      <trkpt lat="46.153000434860587" lon="8.191268350929022">
        <ele>1616.6800000000001</ele>
        <time>2020-08-02T11:19:22Z</time>
      </trkpt>
      <trkpt lat="46.152944779023528" lon="8.191560711711645">
        <ele>1616.9100000000001</ele>
        <time>2020-08-02T11:19:38Z</time>
      </trkpt>
      <trkpt lat="46.152906138449907" lon="8.191834464669228">
        <ele>1617.0599999999999</ele>
        <time>2020-08-02T11:19:54Z</time>
      </trkpt>
      <trkpt lat="46.152840675786138" lon="8.192151552066207">
        <ele>1617.3199999999999</ele>
        <time>2020-08-02T11:20:13Z</time>
      </trkpt>
      <trkpt lat="46.152773955836892" lon="8.192458832636476">
        <ele>1617.3199999999999</ele>
        <time>2020-08-02T11:20:31Z</time>
      </trkpt>
      <trkpt lat="46.152720563113689" lon="8.192687407135963">
        <ele>1617.25</ele>
        <time>2020-08-02T11:20:45Z</time>
      </trkpt>
      <trkpt lat="46.152670355513692" lon="8.192935343831778">
        <ele>1616.95</ele>
        <time>2020-08-02T11:20:59Z</time>
      </trkpt>
      <trkpt lat="46.152636492624879" lon="8.193174060434103">
        <ele>1617.1600000000001</ele>
        <time>2020-08-02T11:21:13Z</time>
      </trkpt>
      <trkpt lat="46.152595337480307" lon="8.193369526416063">
        <ele>1618.3</ele>
        <time>2020-08-02T11:21:26Z</time>
      </trkpt>
      <trkpt lat="46.152554685249925" lon="8.193532722070813">
        <ele>1620</ele>
        <time>2020-08-02T11:21:39Z</time>
      </trkpt>
      <trkpt lat="46.152506908401847" lon="8.193666748702526">
        <ele>1621.49</ele>
        <time>2020-08-02T11:21:50Z</time>
      </trkpt>
      <trkpt lat="46.152484863996506" lon="8.193872105330229">
        <ele>1622.8299999999999</ele>
        <time>2020-08-02T11:22:04Z</time>
      </trkpt>
      <trkpt lat="46.152479667216539" lon="8.193982075899839">
        <ele>1623.9100000000001</ele>
        <time>2020-08-02T11:22:12Z</time>
      </trkpt>
      <trkpt lat="46.152442116290331" lon="8.194180307909846">
        <ele>1626.3199999999999</ele>
        <time>2020-08-02T11:22:27Z</time>
      </trkpt>
      <trkpt lat="46.152361650019884" lon="8.194362781941891">
        <ele>1627.8199999999999</ele>
        <time>2020-08-02T11:22:41Z</time>
      </trkpt>
      <trkpt lat="46.152355447411537" lon="8.194375187158585">
        <ele>1627.97</ele>
        <time>2020-08-02T11:22:42Z</time>
      </trkpt>
      <trkpt lat="46.152341617271304" lon="8.194408044219017">
        <ele>1628.26</ele>
        <time>2020-08-02T11:22:45Z</time>
      </trkpt>
      <trkpt lat="46.152275735512376" lon="8.194516003131867">
        <ele>1629.0899999999999</ele>
        <time>2020-08-02T11:22:55Z</time>
      </trkpt>
      <trkpt lat="46.152237514033914" lon="8.194635612890124">
        <ele>1629.9000000000001</ele>
        <time>2020-08-02T11:23:04Z</time>
      </trkpt>
      <trkpt lat="46.15222024731338" lon="8.194707864895463">
        <ele>1630.04</ele>
        <time>2020-08-02T11:23:09Z</time>
      </trkpt>
      <trkpt lat="46.1521933414042" lon="8.19472923874855">
        <ele>1630.49</ele>
        <time>2020-08-02T11:23:12Z</time>
      </trkpt>
      <trkpt lat="46.152146235108376" lon="8.194725634530187">
        <ele>1630.98</ele>
        <time>2020-08-02T11:23:17Z</time>
      </trkpt>
      <trkpt lat="46.15208538249135" lon="8.194729490205646">
        <ele>1632.6300000000001</ele>
        <time>2020-08-02T11:23:25Z</time>
      </trkpt>
      <trkpt lat="46.151990750804543" lon="8.19463393650949">
        <ele>1633.4000000000001</ele>
        <time>2020-08-02T11:23:39Z</time>
      </trkpt>
      <trkpt lat="46.151973400264978" lon="8.194584064185619">
        <ele>1633.5</ele>
        <time>2020-08-02T11:23:42Z</time>
      </trkpt>
      <trkpt lat="46.151921264827251" lon="8.194429082795978">
        <ele>1633.8499999999999</ele>
        <time>2020-08-02T11:23:55Z</time>
      </trkpt>
      <trkpt lat="46.151887653395534" lon="8.194278879091144">
        <ele>1634.8499999999999</ele>
        <time>2020-08-02T11:24:07Z</time>
      </trkpt>
      <trkpt lat="46.151861920952797" lon="8.194145187735558">
        <ele>1635.6900000000001</ele>
        <time>2020-08-02T11:24:18Z</time>
      </trkpt>
      <trkpt lat="46.151838703081012" lon="8.194059440866113">
        <ele>1636.3599999999999</ele>
        <time>2020-08-02T11:24:25Z</time>
      </trkpt>
      <trkpt lat="46.151814395561814" lon="8.193901274353266">
        <ele>1637.5599999999999</ele>
        <time>2020-08-02T11:24:38Z</time>
      </trkpt>
      <trkpt lat="46.151769384741783" lon="8.193774539977312">
        <ele>1638.46</ele>
        <time>2020-08-02T11:24:47Z</time>
      </trkpt>
      <trkpt lat="46.151690427213907" lon="8.193628443405032">
        <ele>1639.45</ele>
        <time>2020-08-02T11:25:00Z</time>
      </trkpt>
      <trkpt lat="46.151617504656315" lon="8.19357018917799">
        <ele>1639.9400000000001</ele>
        <time>2020-08-02T11:25:11Z</time>
      </trkpt>
      <trkpt lat="46.151609793305397" lon="8.193574380129576">
        <ele>1640.22</ele>
        <time>2020-08-02T11:25:23Z</time>
      </trkpt>
      <trkpt lat="46.151566626504064" lon="8.193533308804035">
        <ele>1639.8599999999999</ele>
        <time>2020-08-02T11:25:36Z</time>
      </trkpt>
      <trkpt lat="46.151543408632278" lon="8.193549234420061">
        <ele>1640.21</ele>
        <time>2020-08-02T11:25:40Z</time>
      </trkpt>
      <trkpt lat="46.151483142748475" lon="8.193561555817723">
        <ele>1641.0999999999999</ele>
        <time>2020-08-02T11:25:51Z</time>
      </trkpt>
      <trkpt lat="46.15142572671175" lon="8.193557197228074">
        <ele>1641.22</ele>
        <time>2020-08-02T11:25:54Z</time>
      </trkpt>
      <trkpt lat="46.151281893253326" lon="8.193567590788007">
        <ele>1641.1400000000001</ele>
        <time>2020-08-02T11:26:06Z</time>
      </trkpt>
      <trkpt lat="46.15113353356719" lon="8.193540014326572">
        <ele>1641.1800000000001</ele>
        <time>2020-08-02T11:26:19Z</time>
      </trkpt>
      <trkpt lat="46.151050049811602" lon="8.193525010719895">
        <ele>1641.0999999999999</ele>
        <time>2020-08-02T11:26:31Z</time>
      </trkpt>
      <trkpt lat="46.15104359574616" lon="8.193515287712216">
        <ele>1640.3399999999999</ele>
        <time>2020-08-02T11:26:42Z</time>
      </trkpt>
      <trkpt lat="46.151049295440316" lon="8.193525178357959">
        <ele>1641.51</ele>
        <time>2020-08-02T11:27:06Z</time>
      </trkpt>
    </trkseg>
  </trk>

</gpx>